<?xml version="1.0" encoding="UTF-8" standalone="no" ?>
<gpx xmlns="http://www.topografix.com/GPX/1/1" xmlns:xsi="http://www.w3.org/2001/XMLSchema-instance" xsi:schemaLocation="http://www.topografix.com/GPX/1/1 http://www.topografix.com/GPX/1/1/gpx.xsd" version="1.1" creator="VisuGPX - https://www.visugpx.com">
  <metadata>
    <name>Fort du murier</name>
    <desc><![CDATA[File with points/tracks from Locus Map/3.41.0]]></desc>
  </metadata>
  <trk>
    <name><![CDATA[2019-11-13 13:34:32]]></name>
    <desc><![CDATA[Murier]]></desc>
    <trkseg>
      <trkpt lat="45.18386" lon="5.87394">
        <ele>687.02</ele>
        <time>2019-11-13T12:34:37.000Z</time>
      </trkpt>
      <trkpt lat="45.18387" lon="5.87407">
        <ele>685.29</ele>
        <time>2019-11-13T12:36:32.000Z</time>
      </trkpt>
      <trkpt lat="45.18378" lon="5.87419">
        <ele>687.99</ele>
        <time>2019-11-13T12:36:37.000Z</time>
      </trkpt>
      <trkpt lat="45.18371" lon="5.87437">
        <ele>689.01</ele>
        <time>2019-11-13T12:36:42.000Z</time>
      </trkpt>
      <trkpt lat="45.18366" lon="5.87457">
        <ele>692.37</ele>
        <time>2019-11-13T12:36:47.000Z</time>
      </trkpt>
      <trkpt lat="45.18357" lon="5.87476">
        <ele>694.52</ele>
        <time>2019-11-13T12:36:52.000Z</time>
      </trkpt>
      <trkpt lat="45.18348" lon="5.87498">
        <ele>696.29</ele>
        <time>2019-11-13T12:36:57.000Z</time>
      </trkpt>
      <trkpt lat="45.1834" lon="5.87517">
        <ele>699.11</ele>
        <time>2019-11-13T12:37:02.000Z</time>
      </trkpt>
      <trkpt lat="45.18333" lon="5.87538">
        <ele>703.01</ele>
        <time>2019-11-13T12:37:07.000Z</time>
      </trkpt>
      <trkpt lat="45.18327" lon="5.8756">
        <ele>706.33</ele>
        <time>2019-11-13T12:37:12.000Z</time>
      </trkpt>
      <trkpt lat="45.18321" lon="5.8758">
        <ele>707.2</ele>
        <time>2019-11-13T12:37:17.000Z</time>
      </trkpt>
      <trkpt lat="45.18316" lon="5.87603">
        <ele>705.79</ele>
        <time>2019-11-13T12:37:22.000Z</time>
      </trkpt>
      <trkpt lat="45.18308" lon="5.87627">
        <ele>707.44</ele>
        <time>2019-11-13T12:37:27.000Z</time>
      </trkpt>
      <trkpt lat="45.18302" lon="5.87645">
        <ele>707.97</ele>
        <time>2019-11-13T12:37:32.000Z</time>
      </trkpt>
      <trkpt lat="45.18297" lon="5.87665">
        <ele>711.56</ele>
        <time>2019-11-13T12:37:37.000Z</time>
      </trkpt>
      <trkpt lat="45.18296" lon="5.87687">
        <ele>715.43</ele>
        <time>2019-11-13T12:37:42.000Z</time>
      </trkpt>
      <trkpt lat="45.18295" lon="5.87703">
        <ele>719.57</ele>
        <time>2019-11-13T12:37:47.000Z</time>
      </trkpt>
      <trkpt lat="45.18292" lon="5.87721">
        <ele>721.36</ele>
        <time>2019-11-13T12:37:52.000Z</time>
      </trkpt>
      <trkpt lat="45.18287" lon="5.87743">
        <ele>721.49</ele>
        <time>2019-11-13T12:37:57.000Z</time>
      </trkpt>
      <trkpt lat="45.18282" lon="5.87765">
        <ele>721.53</ele>
        <time>2019-11-13T12:38:02.000Z</time>
      </trkpt>
      <trkpt lat="45.18278" lon="5.87785">
        <ele>723.67</ele>
        <time>2019-11-13T12:38:07.000Z</time>
      </trkpt>
      <trkpt lat="45.18274" lon="5.87805">
        <ele>724.66</ele>
        <time>2019-11-13T12:38:12.000Z</time>
      </trkpt>
      <trkpt lat="45.1827" lon="5.87828">
        <ele>724.85</ele>
        <time>2019-11-13T12:38:17.000Z</time>
      </trkpt>
      <trkpt lat="45.18264" lon="5.87852">
        <ele>726.94</ele>
        <time>2019-11-13T12:38:22.000Z</time>
      </trkpt>
      <trkpt lat="45.18259" lon="5.87877">
        <ele>730.61</ele>
        <time>2019-11-13T12:38:27.000Z</time>
      </trkpt>
      <trkpt lat="45.18255" lon="5.87902">
        <ele>730.02</ele>
        <time>2019-11-13T12:38:32.000Z</time>
      </trkpt>
      <trkpt lat="45.18254" lon="5.87927">
        <ele>733.58</ele>
        <time>2019-11-13T12:38:37.000Z</time>
      </trkpt>
      <trkpt lat="45.18256" lon="5.87949">
        <ele>736.16</ele>
        <time>2019-11-13T12:38:42.000Z</time>
      </trkpt>
      <trkpt lat="45.18256" lon="5.87973">
        <ele>736.05</ele>
        <time>2019-11-13T12:38:47.000Z</time>
      </trkpt>
      <trkpt lat="45.18247" lon="5.8799">
        <ele>734.87</ele>
        <time>2019-11-13T12:38:52.000Z</time>
      </trkpt>
      <trkpt lat="45.18238" lon="5.88005">
        <ele>738.43</ele>
        <time>2019-11-13T12:38:57.000Z</time>
      </trkpt>
      <trkpt lat="45.18235" lon="5.88018">
        <ele>740.85</ele>
        <time>2019-11-13T12:39:02.000Z</time>
      </trkpt>
      <trkpt lat="45.18232" lon="5.88031">
        <ele>744.37</ele>
        <time>2019-11-13T12:40:09.000Z</time>
      </trkpt>
      <trkpt lat="45.18221" lon="5.88047">
        <ele>741.46</ele>
        <time>2019-11-13T12:40:14.000Z</time>
      </trkpt>
      <trkpt lat="45.18207" lon="5.88066">
        <ele>745.41</ele>
        <time>2019-11-13T12:40:19.000Z</time>
      </trkpt>
      <trkpt lat="45.18192" lon="5.88089">
        <ele>744.81</ele>
        <time>2019-11-13T12:40:24.000Z</time>
      </trkpt>
      <trkpt lat="45.18175" lon="5.88114">
        <ele>741.65</ele>
        <time>2019-11-13T12:40:29.000Z</time>
      </trkpt>
      <trkpt lat="45.18156" lon="5.88144">
        <ele>741.55</ele>
        <time>2019-11-13T12:40:34.000Z</time>
      </trkpt>
      <trkpt lat="45.18133" lon="5.88178">
        <ele>740.01</ele>
        <time>2019-11-13T12:40:39.000Z</time>
      </trkpt>
      <trkpt lat="45.18116" lon="5.88207">
        <ele>740.81</ele>
        <time>2019-11-13T12:40:44.000Z</time>
      </trkpt>
      <trkpt lat="45.18099" lon="5.88236">
        <ele>742.65</ele>
        <time>2019-11-13T12:40:49.000Z</time>
      </trkpt>
      <trkpt lat="45.18086" lon="5.88261">
        <ele>740.45</ele>
        <time>2019-11-13T12:40:54.000Z</time>
      </trkpt>
      <trkpt lat="45.18072" lon="5.88287">
        <ele>744.87</ele>
        <time>2019-11-13T12:40:59.000Z</time>
      </trkpt>
      <trkpt lat="45.18063" lon="5.88314">
        <ele>746.95</ele>
        <time>2019-11-13T12:41:04.000Z</time>
      </trkpt>
      <trkpt lat="45.18053" lon="5.88347">
        <ele>747.61</ele>
        <time>2019-11-13T12:41:09.000Z</time>
      </trkpt>
      <trkpt lat="45.18045" lon="5.88375">
        <ele>743.73</ele>
        <time>2019-11-13T12:41:14.000Z</time>
      </trkpt>
      <trkpt lat="45.18033" lon="5.88403">
        <ele>742.44</ele>
        <time>2019-11-13T12:41:19.000Z</time>
      </trkpt>
      <trkpt lat="45.18013" lon="5.88429">
        <ele>742.21</ele>
        <time>2019-11-13T12:41:24.000Z</time>
      </trkpt>
      <trkpt lat="45.17991" lon="5.88451">
        <ele>744.97</ele>
        <time>2019-11-13T12:41:29.000Z</time>
      </trkpt>
      <trkpt lat="45.17966" lon="5.88462">
        <ele>749.59</ele>
        <time>2019-11-13T12:41:34.000Z</time>
      </trkpt>
      <trkpt lat="45.17942" lon="5.88477">
        <ele>751.98</ele>
        <time>2019-11-13T12:41:39.000Z</time>
      </trkpt>
      <trkpt lat="45.17918" lon="5.88489">
        <ele>756.16</ele>
        <time>2019-11-13T12:41:44.000Z</time>
      </trkpt>
      <trkpt lat="45.17897" lon="5.88503">
        <ele>755.13</ele>
        <time>2019-11-13T12:41:49.000Z</time>
      </trkpt>
      <trkpt lat="45.17875" lon="5.88518">
        <ele>757.57</ele>
        <time>2019-11-13T12:41:54.000Z</time>
      </trkpt>
      <trkpt lat="45.1785" lon="5.88531">
        <ele>755.89</ele>
        <time>2019-11-13T12:41:59.000Z</time>
      </trkpt>
      <trkpt lat="45.17822" lon="5.88539">
        <ele>756.86</ele>
        <time>2019-11-13T12:42:04.000Z</time>
      </trkpt>
      <trkpt lat="45.17794" lon="5.8854">
        <ele>758.58</ele>
        <time>2019-11-13T12:42:09.000Z</time>
      </trkpt>
      <trkpt lat="45.17764" lon="5.8854">
        <ele>759.45</ele>
        <time>2019-11-13T12:42:14.000Z</time>
      </trkpt>
      <trkpt lat="45.17736" lon="5.8853">
        <ele>759.93</ele>
        <time>2019-11-13T12:42:19.000Z</time>
      </trkpt>
      <trkpt lat="45.17709" lon="5.88512">
        <ele>759.94</ele>
        <time>2019-11-13T12:42:24.000Z</time>
      </trkpt>
      <trkpt lat="45.17682" lon="5.88498">
        <ele>758.01</ele>
        <time>2019-11-13T12:42:29.000Z</time>
      </trkpt>
      <trkpt lat="45.17655" lon="5.88491">
        <ele>758.22</ele>
        <time>2019-11-13T12:42:34.000Z</time>
      </trkpt>
      <trkpt lat="45.17633" lon="5.88481">
        <ele>760.62</ele>
        <time>2019-11-13T12:42:39.000Z</time>
      </trkpt>
      <trkpt lat="45.17613" lon="5.88483">
        <ele>760.89</ele>
        <time>2019-11-13T12:42:44.000Z</time>
      </trkpt>
      <trkpt lat="45.17591" lon="5.88496">
        <ele>756.78</ele>
        <time>2019-11-13T12:42:49.000Z</time>
      </trkpt>
      <trkpt lat="45.17569" lon="5.8852">
        <ele>753.28</ele>
        <time>2019-11-13T12:42:54.000Z</time>
      </trkpt>
      <trkpt lat="45.17553" lon="5.88538">
        <ele>754.35</ele>
        <time>2019-11-13T12:42:59.000Z</time>
      </trkpt>
      <trkpt lat="45.17536" lon="5.88553">
        <ele>756.97</ele>
        <time>2019-11-13T12:43:04.000Z</time>
      </trkpt>
      <trkpt lat="45.17515" lon="5.88574">
        <ele>761.73</ele>
        <time>2019-11-13T12:43:09.000Z</time>
      </trkpt>
      <trkpt lat="45.17494" lon="5.88584">
        <ele>768.38</ele>
        <time>2019-11-13T12:43:14.000Z</time>
      </trkpt>
      <trkpt lat="45.17471" lon="5.88584">
        <ele>773.91</ele>
        <time>2019-11-13T12:43:19.000Z</time>
      </trkpt>
      <trkpt lat="45.17451" lon="5.88583">
        <ele>774.64</ele>
        <time>2019-11-13T12:43:24.000Z</time>
      </trkpt>
      <trkpt lat="45.17429" lon="5.88584">
        <ele>773.7</ele>
        <time>2019-11-13T12:43:29.000Z</time>
      </trkpt>
      <trkpt lat="45.17405" lon="5.88579">
        <ele>774.63</ele>
        <time>2019-11-13T12:43:34.000Z</time>
      </trkpt>
      <trkpt lat="45.17379" lon="5.88582">
        <ele>772.86</ele>
        <time>2019-11-13T12:43:39.000Z</time>
      </trkpt>
      <trkpt lat="45.17353" lon="5.88578">
        <ele>773.7</ele>
        <time>2019-11-13T12:43:44.000Z</time>
      </trkpt>
      <trkpt lat="45.17325" lon="5.88579">
        <ele>775.3</ele>
        <time>2019-11-13T12:43:49.000Z</time>
      </trkpt>
      <trkpt lat="45.17295" lon="5.88576">
        <ele>777.8</ele>
        <time>2019-11-13T12:43:54.000Z</time>
      </trkpt>
      <trkpt lat="45.17272" lon="5.88576">
        <ele>779.62</ele>
        <time>2019-11-13T12:43:59.000Z</time>
      </trkpt>
      <trkpt lat="45.17247" lon="5.88585">
        <ele>776.57</ele>
        <time>2019-11-13T12:44:04.000Z</time>
      </trkpt>
      <trkpt lat="45.17223" lon="5.88596">
        <ele>778.1</ele>
        <time>2019-11-13T12:44:09.000Z</time>
      </trkpt>
      <trkpt lat="45.17203" lon="5.88618">
        <ele>779.85</ele>
        <time>2019-11-13T12:44:14.000Z</time>
      </trkpt>
      <trkpt lat="45.17184" lon="5.88652">
        <ele>780.39</ele>
        <time>2019-11-13T12:44:19.000Z</time>
      </trkpt>
      <trkpt lat="45.17158" lon="5.88678">
        <ele>780.02</ele>
        <time>2019-11-13T12:44:24.000Z</time>
      </trkpt>
      <trkpt lat="45.17133" lon="5.88699">
        <ele>782.88</ele>
        <time>2019-11-13T12:44:29.000Z</time>
      </trkpt>
      <trkpt lat="45.1711" lon="5.88718">
        <ele>781.37</ele>
        <time>2019-11-13T12:44:34.000Z</time>
      </trkpt>
      <trkpt lat="45.1708" lon="5.88717">
        <ele>782.75</ele>
        <time>2019-11-13T12:44:39.000Z</time>
      </trkpt>
      <trkpt lat="45.17059" lon="5.88694">
        <ele>783.59</ele>
        <time>2019-11-13T12:44:44.000Z</time>
      </trkpt>
      <trkpt lat="45.17036" lon="5.88672">
        <ele>786.7</ele>
        <time>2019-11-13T12:44:49.000Z</time>
      </trkpt>
      <trkpt lat="45.1701" lon="5.88665">
        <ele>786.97</ele>
        <time>2019-11-13T12:44:54.000Z</time>
      </trkpt>
      <trkpt lat="45.16982" lon="5.88672">
        <ele>785.24</ele>
        <time>2019-11-13T12:44:59.000Z</time>
      </trkpt>
      <trkpt lat="45.16955" lon="5.88682">
        <ele>784.36</ele>
        <time>2019-11-13T12:45:04.000Z</time>
      </trkpt>
      <trkpt lat="45.16928" lon="5.88695">
        <ele>786.31</ele>
        <time>2019-11-13T12:45:09.000Z</time>
      </trkpt>
      <trkpt lat="45.16898" lon="5.88699">
        <ele>786.25</ele>
        <time>2019-11-13T12:45:14.000Z</time>
      </trkpt>
      <trkpt lat="45.16866" lon="5.88708">
        <ele>783.63</ele>
        <time>2019-11-13T12:45:19.000Z</time>
      </trkpt>
      <trkpt lat="45.16835" lon="5.88713">
        <ele>786.02</ele>
        <time>2019-11-13T12:45:24.000Z</time>
      </trkpt>
      <trkpt lat="45.16808" lon="5.88725">
        <ele>785.98</ele>
        <time>2019-11-13T12:45:29.000Z</time>
      </trkpt>
      <trkpt lat="45.16776" lon="5.88737">
        <ele>786.19</ele>
        <time>2019-11-13T12:45:34.000Z</time>
      </trkpt>
      <trkpt lat="45.16745" lon="5.88749">
        <ele>782.43</ele>
        <time>2019-11-13T12:45:39.000Z</time>
      </trkpt>
      <trkpt lat="45.16715" lon="5.88742">
        <ele>785.89</ele>
        <time>2019-11-13T12:45:44.000Z</time>
      </trkpt>
      <trkpt lat="45.16681" lon="5.88745">
        <ele>787.14</ele>
        <time>2019-11-13T12:45:49.000Z</time>
      </trkpt>
      <trkpt lat="45.16644" lon="5.88737">
        <ele>783.53</ele>
        <time>2019-11-13T12:45:54.000Z</time>
      </trkpt>
      <trkpt lat="45.16602" lon="5.88732">
        <ele>782.44</ele>
        <time>2019-11-13T12:45:59.000Z</time>
      </trkpt>
      <trkpt lat="45.16557" lon="5.88723">
        <ele>783.12</ele>
        <time>2019-11-13T12:46:04.000Z</time>
      </trkpt>
      <trkpt lat="45.16524" lon="5.88682">
        <ele>782.7</ele>
        <time>2019-11-13T12:46:09.000Z</time>
      </trkpt>
      <trkpt lat="45.16508" lon="5.88631">
        <ele>781.76</ele>
        <time>2019-11-13T12:46:14.000Z</time>
      </trkpt>
      <trkpt lat="45.1651" lon="5.88571">
        <ele>782.23</ele>
        <time>2019-11-13T12:46:19.000Z</time>
      </trkpt>
      <trkpt lat="45.16523" lon="5.88529">
        <ele>783.27</ele>
        <time>2019-11-13T12:46:24.000Z</time>
      </trkpt>
      <trkpt lat="45.16547" lon="5.88516">
        <ele>782.34</ele>
        <time>2019-11-13T12:46:29.000Z</time>
      </trkpt>
      <trkpt lat="45.16573" lon="5.88498">
        <ele>782.24</ele>
        <time>2019-11-13T12:46:34.000Z</time>
      </trkpt>
      <trkpt lat="45.16596" lon="5.88488">
        <ele>780.42</ele>
        <time>2019-11-13T12:46:39.000Z</time>
      </trkpt>
      <trkpt lat="45.16621" lon="5.88478">
        <ele>782.43</ele>
        <time>2019-11-13T12:46:44.000Z</time>
      </trkpt>
      <trkpt lat="45.16642" lon="5.8847">
        <ele>784.02</ele>
        <time>2019-11-13T12:46:49.000Z</time>
      </trkpt>
      <trkpt lat="45.16671" lon="5.88469">
        <ele>787.15</ele>
        <time>2019-11-13T12:46:54.000Z</time>
      </trkpt>
      <trkpt lat="45.16701" lon="5.88467">
        <ele>787.98</ele>
        <time>2019-11-13T12:46:59.000Z</time>
      </trkpt>
      <trkpt lat="45.16728" lon="5.88467">
        <ele>788.83</ele>
        <time>2019-11-13T12:47:04.000Z</time>
      </trkpt>
      <trkpt lat="45.16759" lon="5.88459">
        <ele>788.68</ele>
        <time>2019-11-13T12:47:09.000Z</time>
      </trkpt>
      <trkpt lat="45.16776" lon="5.88421">
        <ele>785.1</ele>
        <time>2019-11-13T12:47:14.000Z</time>
      </trkpt>
      <trkpt lat="45.16791" lon="5.88383">
        <ele>789.34</ele>
        <time>2019-11-13T12:47:19.000Z</time>
      </trkpt>
      <trkpt lat="45.16809" lon="5.88355">
        <ele>786.86</ele>
        <time>2019-11-13T12:47:24.000Z</time>
      </trkpt>
      <trkpt lat="45.16817" lon="5.88332">
        <ele>786.83</ele>
        <time>2019-11-13T12:47:29.000Z</time>
      </trkpt>
      <trkpt lat="45.16834" lon="5.88308">
        <ele>784.18</ele>
        <time>2019-11-13T12:47:34.000Z</time>
      </trkpt>
      <trkpt lat="45.16855" lon="5.88286">
        <ele>787.02</ele>
        <time>2019-11-13T12:47:39.000Z</time>
      </trkpt>
      <trkpt lat="45.16872" lon="5.88271">
        <ele>784.11</ele>
        <time>2019-11-13T12:47:44.000Z</time>
      </trkpt>
      <trkpt lat="45.16887" lon="5.88258">
        <ele>787.89</ele>
        <time>2019-11-13T12:47:49.000Z</time>
      </trkpt>
      <trkpt lat="45.16902" lon="5.88247">
        <ele>791.92</ele>
        <time>2019-11-13T12:47:54.000Z</time>
      </trkpt>
      <trkpt lat="45.16922" lon="5.88234">
        <ele>794.51</ele>
        <time>2019-11-13T12:47:59.000Z</time>
      </trkpt>
      <trkpt lat="45.16939" lon="5.88221">
        <ele>799.95</ele>
        <time>2019-11-13T12:48:04.000Z</time>
      </trkpt>
      <trkpt lat="45.16956" lon="5.88208">
        <ele>802.49</ele>
        <time>2019-11-13T12:48:09.000Z</time>
      </trkpt>
      <trkpt lat="45.16976" lon="5.88193">
        <ele>803.43</ele>
        <time>2019-11-13T12:48:14.000Z</time>
      </trkpt>
      <trkpt lat="45.16993" lon="5.8818">
        <ele>805.68</ele>
        <time>2019-11-13T12:48:19.000Z</time>
      </trkpt>
      <trkpt lat="45.17012" lon="5.88168">
        <ele>809.96</ele>
        <time>2019-11-13T12:48:24.000Z</time>
      </trkpt>
      <trkpt lat="45.1703" lon="5.88158">
        <ele>812.14</ele>
        <time>2019-11-13T12:48:29.000Z</time>
      </trkpt>
      <trkpt lat="45.17048" lon="5.88147">
        <ele>812.45</ele>
        <time>2019-11-13T12:48:34.000Z</time>
      </trkpt>
      <trkpt lat="45.17065" lon="5.88133">
        <ele>814.94</ele>
        <time>2019-11-13T12:48:39.000Z</time>
      </trkpt>
      <trkpt lat="45.17083" lon="5.88119">
        <ele>819</ele>
        <time>2019-11-13T12:48:44.000Z</time>
      </trkpt>
      <trkpt lat="45.17099" lon="5.88101">
        <ele>819.98</ele>
        <time>2019-11-13T12:48:49.000Z</time>
      </trkpt>
      <trkpt lat="45.17114" lon="5.8808">
        <ele>821.65</ele>
        <time>2019-11-13T12:48:54.000Z</time>
      </trkpt>
      <trkpt lat="45.17128" lon="5.88058">
        <ele>823.15</ele>
        <time>2019-11-13T12:48:59.000Z</time>
      </trkpt>
      <trkpt lat="45.17144" lon="5.8804">
        <ele>824.2</ele>
        <time>2019-11-13T12:49:04.000Z</time>
      </trkpt>
      <trkpt lat="45.17156" lon="5.8802">
        <ele>825.46</ele>
        <time>2019-11-13T12:49:09.000Z</time>
      </trkpt>
      <trkpt lat="45.17167" lon="5.88">
        <ele>831.96</ele>
        <time>2019-11-13T12:49:14.000Z</time>
      </trkpt>
      <trkpt lat="45.17178" lon="5.87984">
        <ele>833.88</ele>
        <time>2019-11-13T12:49:19.000Z</time>
      </trkpt>
      <trkpt lat="45.17188" lon="5.87966">
        <ele>835.77</ele>
        <time>2019-11-13T12:49:24.000Z</time>
      </trkpt>
      <trkpt lat="45.17196" lon="5.87945">
        <ele>837.45</ele>
        <time>2019-11-13T12:49:29.000Z</time>
      </trkpt>
      <trkpt lat="45.1721" lon="5.87927">
        <ele>837.01</ele>
        <time>2019-11-13T12:49:34.000Z</time>
      </trkpt>
      <trkpt lat="45.17222" lon="5.8791">
        <ele>835.55</ele>
        <time>2019-11-13T12:49:39.000Z</time>
      </trkpt>
      <trkpt lat="45.17234" lon="5.87892">
        <ele>834.16</ele>
        <time>2019-11-13T12:49:44.000Z</time>
      </trkpt>
      <trkpt lat="45.17248" lon="5.87871">
        <ele>836.85</ele>
        <time>2019-11-13T12:49:49.000Z</time>
      </trkpt>
      <trkpt lat="45.1726" lon="5.87852">
        <ele>834.88</ele>
        <time>2019-11-13T12:49:54.000Z</time>
      </trkpt>
      <trkpt lat="45.17274" lon="5.87833">
        <ele>835.22</ele>
        <time>2019-11-13T12:49:59.000Z</time>
      </trkpt>
      <trkpt lat="45.17288" lon="5.87807">
        <ele>836.19</ele>
        <time>2019-11-13T12:50:04.000Z</time>
      </trkpt>
      <trkpt lat="45.17303" lon="5.87785">
        <ele>836.46</ele>
        <time>2019-11-13T12:50:09.000Z</time>
      </trkpt>
      <trkpt lat="45.17318" lon="5.87756">
        <ele>835.6</ele>
        <time>2019-11-13T12:50:14.000Z</time>
      </trkpt>
      <trkpt lat="45.17333" lon="5.87732">
        <ele>835.02</ele>
        <time>2019-11-13T12:50:19.000Z</time>
      </trkpt>
      <trkpt lat="45.17346" lon="5.87707">
        <ele>835.37</ele>
        <time>2019-11-13T12:50:24.000Z</time>
      </trkpt>
      <trkpt lat="45.17356" lon="5.87682">
        <ele>836.84</ele>
        <time>2019-11-13T12:50:29.000Z</time>
      </trkpt>
      <trkpt lat="45.17365" lon="5.87663">
        <ele>836.38</ele>
        <time>2019-11-13T12:50:34.000Z</time>
      </trkpt>
      <trkpt lat="45.17372" lon="5.87638">
        <ele>837.53</ele>
        <time>2019-11-13T12:50:39.000Z</time>
      </trkpt>
      <trkpt lat="45.17365" lon="5.87599">
        <ele>839.8</ele>
        <time>2019-11-13T12:50:44.000Z</time>
      </trkpt>
      <trkpt lat="45.17361" lon="5.87567">
        <ele>838.99</ele>
        <time>2019-11-13T12:50:49.000Z</time>
      </trkpt>
      <trkpt lat="45.17353" lon="5.87535">
        <ele>840.18</ele>
        <time>2019-11-13T12:50:54.000Z</time>
      </trkpt>
      <trkpt lat="45.17342" lon="5.87511">
        <ele>838.72</ele>
        <time>2019-11-13T12:50:59.000Z</time>
      </trkpt>
      <trkpt lat="45.17332" lon="5.87489">
        <ele>838.01</ele>
        <time>2019-11-13T12:51:04.000Z</time>
      </trkpt>
      <trkpt lat="45.17319" lon="5.87471">
        <ele>836.69</ele>
        <time>2019-11-13T12:51:09.000Z</time>
      </trkpt>
      <trkpt lat="45.17305" lon="5.87455">
        <ele>837.11</ele>
        <time>2019-11-13T12:51:14.000Z</time>
      </trkpt>
      <trkpt lat="45.17286" lon="5.87443">
        <ele>834.22</ele>
        <time>2019-11-13T12:51:19.000Z</time>
      </trkpt>
      <trkpt lat="45.17266" lon="5.87426">
        <ele>831.25</ele>
        <time>2019-11-13T12:51:24.000Z</time>
      </trkpt>
      <trkpt lat="45.17248" lon="5.87405">
        <ele>831.01</ele>
        <time>2019-11-13T12:51:29.000Z</time>
      </trkpt>
      <trkpt lat="45.17231" lon="5.87378">
        <ele>831.9</ele>
        <time>2019-11-13T12:51:34.000Z</time>
      </trkpt>
      <trkpt lat="45.1721" lon="5.87339">
        <ele>828.41</ele>
        <time>2019-11-13T12:51:39.000Z</time>
      </trkpt>
      <trkpt lat="45.17201" lon="5.87285">
        <ele>831.6</ele>
        <time>2019-11-13T12:51:44.000Z</time>
      </trkpt>
      <trkpt lat="45.17192" lon="5.87236">
        <ele>831.19</ele>
        <time>2019-11-13T12:51:49.000Z</time>
      </trkpt>
      <trkpt lat="45.17175" lon="5.87187">
        <ele>828.47</ele>
        <time>2019-11-13T12:51:54.000Z</time>
      </trkpt>
      <trkpt lat="45.17156" lon="5.8713">
        <ele>827.71</ele>
        <time>2019-11-13T12:51:59.000Z</time>
      </trkpt>
      <trkpt lat="45.17139" lon="5.87074">
        <ele>829.4</ele>
        <time>2019-11-13T12:52:04.000Z</time>
      </trkpt>
      <trkpt lat="45.17103" lon="5.87007">
        <ele>825.99</ele>
        <time>2019-11-13T12:52:09.000Z</time>
      </trkpt>
      <trkpt lat="45.1708" lon="5.86934">
        <ele>825.66</ele>
        <time>2019-11-13T12:52:14.000Z</time>
      </trkpt>
      <trkpt lat="45.17054" lon="5.86885">
        <ele>818.64</ele>
        <time>2019-11-13T12:52:19.000Z</time>
      </trkpt>
      <trkpt lat="45.17026" lon="5.86827">
        <ele>815.38</ele>
        <time>2019-11-13T12:52:24.000Z</time>
      </trkpt>
      <trkpt lat="45.16998" lon="5.86765">
        <ele>812.48</ele>
        <time>2019-11-13T12:52:29.000Z</time>
      </trkpt>
      <trkpt lat="45.16972" lon="5.86705">
        <ele>809.93</ele>
        <time>2019-11-13T12:52:34.000Z</time>
      </trkpt>
      <trkpt lat="45.1695" lon="5.8665">
        <ele>813.87</ele>
        <time>2019-11-13T12:52:39.000Z</time>
      </trkpt>
      <trkpt lat="45.16927" lon="5.86599">
        <ele>813.42</ele>
        <time>2019-11-13T12:52:44.000Z</time>
      </trkpt>
      <trkpt lat="45.16908" lon="5.86546">
        <ele>810.31</ele>
        <time>2019-11-13T12:52:49.000Z</time>
      </trkpt>
      <trkpt lat="45.16891" lon="5.86501">
        <ele>802.04</ele>
        <time>2019-11-13T12:52:54.000Z</time>
      </trkpt>
      <trkpt lat="45.1688" lon="5.86448">
        <ele>806.53</ele>
        <time>2019-11-13T12:52:59.000Z</time>
      </trkpt>
      <trkpt lat="45.16865" lon="5.86398">
        <ele>807.27</ele>
        <time>2019-11-13T12:53:04.000Z</time>
      </trkpt>
      <trkpt lat="45.1684" lon="5.86358">
        <ele>804.58</ele>
        <time>2019-11-13T12:53:09.000Z</time>
      </trkpt>
      <trkpt lat="45.1681" lon="5.86321">
        <ele>802.46</ele>
        <time>2019-11-13T12:53:14.000Z</time>
      </trkpt>
      <trkpt lat="45.16775" lon="5.86289">
        <ele>800.32</ele>
        <time>2019-11-13T12:53:19.000Z</time>
      </trkpt>
      <trkpt lat="45.16754" lon="5.86237">
        <ele>801.05</ele>
        <time>2019-11-13T12:53:24.000Z</time>
      </trkpt>
      <trkpt lat="45.16764" lon="5.86182">
        <ele>798.49</ele>
        <time>2019-11-13T12:53:29.000Z</time>
      </trkpt>
      <trkpt lat="45.16775" lon="5.86125">
        <ele>799.8</ele>
        <time>2019-11-13T12:53:34.000Z</time>
      </trkpt>
      <trkpt lat="45.16783" lon="5.86069">
        <ele>795.91</ele>
        <time>2019-11-13T12:53:39.000Z</time>
      </trkpt>
      <trkpt lat="45.16785" lon="5.86011">
        <ele>794.92</ele>
        <time>2019-11-13T12:53:44.000Z</time>
      </trkpt>
      <trkpt lat="45.16784" lon="5.85947">
        <ele>796.84</ele>
        <time>2019-11-13T12:53:49.000Z</time>
      </trkpt>
      <trkpt lat="45.16766" lon="5.85887">
        <ele>794.9</ele>
        <time>2019-11-13T12:53:54.000Z</time>
      </trkpt>
      <trkpt lat="45.16751" lon="5.85822">
        <ele>792.43</ele>
        <time>2019-11-13T12:53:59.000Z</time>
      </trkpt>
      <trkpt lat="45.16755" lon="5.85746">
        <ele>787.88</ele>
        <time>2019-11-13T12:54:04.000Z</time>
      </trkpt>
      <trkpt lat="45.16758" lon="5.85675">
        <ele>784.77</ele>
        <time>2019-11-13T12:54:09.000Z</time>
      </trkpt>
      <trkpt lat="45.16745" lon="5.85612">
        <ele>785.78</ele>
        <time>2019-11-13T12:54:14.000Z</time>
      </trkpt>
      <trkpt lat="45.1673" lon="5.85554">
        <ele>785.17</ele>
        <time>2019-11-13T12:54:19.000Z</time>
      </trkpt>
      <trkpt lat="45.16716" lon="5.85494">
        <ele>782.42</ele>
        <time>2019-11-13T12:54:24.000Z</time>
      </trkpt>
      <trkpt lat="45.16705" lon="5.85433">
        <ele>783.1</ele>
        <time>2019-11-13T12:54:29.000Z</time>
      </trkpt>
      <trkpt lat="45.16697" lon="5.85385">
        <ele>783.16</ele>
        <time>2019-11-13T12:54:34.000Z</time>
      </trkpt>
      <trkpt lat="45.16685" lon="5.85347">
        <ele>782.41</ele>
        <time>2019-11-13T12:54:39.000Z</time>
      </trkpt>
      <trkpt lat="45.16672" lon="5.85319">
        <ele>783.73</ele>
        <time>2019-11-13T12:54:44.000Z</time>
      </trkpt>
      <trkpt lat="45.16656" lon="5.8529">
        <ele>785.85</ele>
        <time>2019-11-13T12:54:49.000Z</time>
      </trkpt>
      <trkpt lat="45.16641" lon="5.85263">
        <ele>785.88</ele>
        <time>2019-11-13T12:54:54.000Z</time>
      </trkpt>
      <trkpt lat="45.16624" lon="5.85235">
        <ele>785.8</ele>
        <time>2019-11-13T12:54:59.000Z</time>
      </trkpt>
      <trkpt lat="45.16607" lon="5.85207">
        <ele>788.03</ele>
        <time>2019-11-13T12:55:04.000Z</time>
      </trkpt>
      <trkpt lat="45.16591" lon="5.85179">
        <ele>787.3</ele>
        <time>2019-11-13T12:55:09.000Z</time>
      </trkpt>
      <trkpt lat="45.16576" lon="5.85148">
        <ele>787.69</ele>
        <time>2019-11-13T12:55:14.000Z</time>
      </trkpt>
      <trkpt lat="45.16562" lon="5.85118">
        <ele>791.32</ele>
        <time>2019-11-13T12:55:19.000Z</time>
      </trkpt>
      <trkpt lat="45.1655" lon="5.85085">
        <ele>792.47</ele>
        <time>2019-11-13T12:55:24.000Z</time>
      </trkpt>
      <trkpt lat="45.16544" lon="5.85047">
        <ele>796.96</ele>
        <time>2019-11-13T12:55:29.000Z</time>
      </trkpt>
      <trkpt lat="45.16539" lon="5.85012">
        <ele>797</ele>
        <time>2019-11-13T12:55:34.000Z</time>
      </trkpt>
      <trkpt lat="45.16535" lon="5.8498">
        <ele>799.79</ele>
        <time>2019-11-13T12:55:39.000Z</time>
      </trkpt>
      <trkpt lat="45.16532" lon="5.84952">
        <ele>801.57</ele>
        <time>2019-11-13T12:55:44.000Z</time>
      </trkpt>
      <trkpt lat="45.16527" lon="5.84928">
        <ele>802.61</ele>
        <time>2019-11-13T12:55:49.000Z</time>
      </trkpt>
      <trkpt lat="45.16524" lon="5.849">
        <ele>800.27</ele>
        <time>2019-11-13T12:55:54.000Z</time>
      </trkpt>
      <trkpt lat="45.16523" lon="5.84872">
        <ele>800.72</ele>
        <time>2019-11-13T12:55:59.000Z</time>
      </trkpt>
      <trkpt lat="45.16526" lon="5.8486">
        <ele>800.87</ele>
        <time>2019-11-13T12:56:39.000Z</time>
      </trkpt>
      <trkpt lat="45.16515" lon="5.84853">
        <ele>803.21</ele>
        <time>2019-11-13T12:57:03.000Z</time>
      </trkpt>
      <trkpt lat="45.16502" lon="5.84835">
        <ele>803.63</ele>
        <time>2019-11-13T12:57:08.000Z</time>
      </trkpt>
      <trkpt lat="45.16482" lon="5.84831">
        <ele>804.77</ele>
        <time>2019-11-13T12:57:13.000Z</time>
      </trkpt>
      <trkpt lat="45.16463" lon="5.84855">
        <ele>802.76</ele>
        <time>2019-11-13T12:57:18.000Z</time>
      </trkpt>
      <trkpt lat="45.16438" lon="5.84896">
        <ele>802.85</ele>
        <time>2019-11-13T12:57:23.000Z</time>
      </trkpt>
      <trkpt lat="45.16404" lon="5.84947">
        <ele>800.06</ele>
        <time>2019-11-13T12:57:28.000Z</time>
      </trkpt>
      <trkpt lat="45.16368" lon="5.84989">
        <ele>797.56</ele>
        <time>2019-11-13T12:57:33.000Z</time>
      </trkpt>
      <trkpt lat="45.16323" lon="5.85036">
        <ele>796.31</ele>
        <time>2019-11-13T12:57:38.000Z</time>
      </trkpt>
      <trkpt lat="45.16299" lon="5.85107">
        <ele>789.12</ele>
        <time>2019-11-13T12:57:43.000Z</time>
      </trkpt>
      <trkpt lat="45.16295" lon="5.85183">
        <ele>790.03</ele>
        <time>2019-11-13T12:57:48.000Z</time>
      </trkpt>
      <trkpt lat="45.16234" lon="5.85159">
        <ele>783.64</ele>
        <time>2019-11-13T12:57:53.000Z</time>
      </trkpt>
      <trkpt lat="45.16186" lon="5.85126">
        <ele>775.96</ele>
        <time>2019-11-13T12:57:58.000Z</time>
      </trkpt>
      <trkpt lat="45.16135" lon="5.85091">
        <ele>775.78</ele>
        <time>2019-11-13T12:58:03.000Z</time>
      </trkpt>
      <trkpt lat="45.16101" lon="5.85024">
        <ele>772.12</ele>
        <time>2019-11-13T12:58:08.000Z</time>
      </trkpt>
      <trkpt lat="45.16073" lon="5.84953">
        <ele>761.89</ele>
        <time>2019-11-13T12:58:13.000Z</time>
      </trkpt>
      <trkpt lat="45.1601" lon="5.84931">
        <ele>755.34</ele>
        <time>2019-11-13T12:58:18.000Z</time>
      </trkpt>
      <trkpt lat="45.15942" lon="5.84918">
        <ele>747.72</ele>
        <time>2019-11-13T12:58:23.000Z</time>
      </trkpt>
      <trkpt lat="45.15888" lon="5.84903">
        <ele>743.56</ele>
        <time>2019-11-13T12:58:28.000Z</time>
      </trkpt>
      <trkpt lat="45.15865" lon="5.84863">
        <ele>740.01</ele>
        <time>2019-11-13T12:58:33.000Z</time>
      </trkpt>
      <trkpt lat="45.15843" lon="5.84868">
        <ele>738.51</ele>
        <time>2019-11-13T12:58:38.000Z</time>
      </trkpt>
      <trkpt lat="45.15827" lon="5.84891">
        <ele>731.79</ele>
        <time>2019-11-13T12:58:43.000Z</time>
      </trkpt>
      <trkpt lat="45.15811" lon="5.84908">
        <ele>734.16</ele>
        <time>2019-11-13T12:58:48.000Z</time>
      </trkpt>
      <trkpt lat="45.15798" lon="5.84912">
        <ele>732.3</ele>
        <time>2019-11-13T12:58:53.000Z</time>
      </trkpt>
      <trkpt lat="45.15774" lon="5.84891">
        <ele>732.7</ele>
        <time>2019-11-13T12:58:58.000Z</time>
      </trkpt>
      <trkpt lat="45.15736" lon="5.84884">
        <ele>733.24</ele>
        <time>2019-11-13T12:59:03.000Z</time>
      </trkpt>
      <trkpt lat="45.15684" lon="5.84892">
        <ele>727.12</ele>
        <time>2019-11-13T12:59:08.000Z</time>
      </trkpt>
      <trkpt lat="45.15627" lon="5.84896">
        <ele>717.53</ele>
        <time>2019-11-13T12:59:13.000Z</time>
      </trkpt>
      <trkpt lat="45.15602" lon="5.84869">
        <ele>712.42</ele>
        <time>2019-11-13T12:59:18.000Z</time>
      </trkpt>
      <trkpt lat="45.15619" lon="5.84814">
        <ele>709.21</ele>
        <time>2019-11-13T12:59:23.000Z</time>
      </trkpt>
      <trkpt lat="45.15636" lon="5.84761">
        <ele>707.53</ele>
        <time>2019-11-13T12:59:28.000Z</time>
      </trkpt>
      <trkpt lat="45.1563" lon="5.8472">
        <ele>710.34</ele>
        <time>2019-11-13T12:59:33.000Z</time>
      </trkpt>
      <trkpt lat="45.15591" lon="5.84741">
        <ele>708.82</ele>
        <time>2019-11-13T12:59:38.000Z</time>
      </trkpt>
      <trkpt lat="45.15548" lon="5.84776">
        <ele>704.93</ele>
        <time>2019-11-13T12:59:43.000Z</time>
      </trkpt>
      <trkpt lat="45.15514" lon="5.84826">
        <ele>693.31</ele>
        <time>2019-11-13T12:59:48.000Z</time>
      </trkpt>
      <trkpt lat="45.15491" lon="5.84882">
        <ele>694.69</ele>
        <time>2019-11-13T12:59:53.000Z</time>
      </trkpt>
      <trkpt lat="45.15464" lon="5.84933">
        <ele>699.48</ele>
        <time>2019-11-13T12:59:58.000Z</time>
      </trkpt>
      <trkpt lat="45.15429" lon="5.84976">
        <ele>695.14</ele>
        <time>2019-11-13T13:00:03.000Z</time>
      </trkpt>
      <trkpt lat="45.154" lon="5.85035">
        <ele>685.63</ele>
        <time>2019-11-13T13:00:08.000Z</time>
      </trkpt>
      <trkpt lat="45.1538" lon="5.85074">
        <ele>684.07</ele>
        <time>2019-11-13T13:00:13.000Z</time>
      </trkpt>
      <trkpt lat="45.15364" lon="5.85038">
        <ele>681.45</ele>
        <time>2019-11-13T13:00:18.000Z</time>
      </trkpt>
      <trkpt lat="45.1536" lon="5.85011">
        <ele>682.15</ele>
        <time>2019-11-13T13:00:23.000Z</time>
      </trkpt>
      <trkpt lat="45.15355" lon="5.84985">
        <ele>682.49</ele>
        <time>2019-11-13T13:00:28.000Z</time>
      </trkpt>
      <trkpt lat="45.15351" lon="5.84961">
        <ele>683.69</ele>
        <time>2019-11-13T13:00:33.000Z</time>
      </trkpt>
      <trkpt lat="45.15354" lon="5.84934">
        <ele>684.78</ele>
        <time>2019-11-13T13:00:38.000Z</time>
      </trkpt>
      <trkpt lat="45.15363" lon="5.84898">
        <ele>686.86</ele>
        <time>2019-11-13T13:00:43.000Z</time>
      </trkpt>
      <trkpt lat="45.15359" lon="5.8486">
        <ele>687.34</ele>
        <time>2019-11-13T13:00:48.000Z</time>
      </trkpt>
      <trkpt lat="45.15345" lon="5.84824">
        <ele>686.48</ele>
        <time>2019-11-13T13:00:53.000Z</time>
      </trkpt>
      <trkpt lat="45.15327" lon="5.84794">
        <ele>688.27</ele>
        <time>2019-11-13T13:00:58.000Z</time>
      </trkpt>
      <trkpt lat="45.15306" lon="5.84763">
        <ele>687.33</ele>
        <time>2019-11-13T13:01:03.000Z</time>
      </trkpt>
      <trkpt lat="45.15281" lon="5.84733">
        <ele>686.24</ele>
        <time>2019-11-13T13:01:08.000Z</time>
      </trkpt>
      <trkpt lat="45.15264" lon="5.84704">
        <ele>689.02</ele>
        <time>2019-11-13T13:01:13.000Z</time>
      </trkpt>
      <trkpt lat="45.1526" lon="5.84691">
        <ele>689.17</ele>
        <time>2019-11-13T13:01:36.000Z</time>
      </trkpt>
      <trkpt lat="45.15258" lon="5.84671">
        <ele>685.88</ele>
        <time>2019-11-13T13:01:41.000Z</time>
      </trkpt>
      <trkpt lat="45.15249" lon="5.84629">
        <ele>685.16</ele>
        <time>2019-11-13T13:01:46.000Z</time>
      </trkpt>
      <trkpt lat="45.15219" lon="5.8458">
        <ele>681.31</ele>
        <time>2019-11-13T13:01:51.000Z</time>
      </trkpt>
      <trkpt lat="45.15172" lon="5.84534">
        <ele>677.39</ele>
        <time>2019-11-13T13:01:56.000Z</time>
      </trkpt>
      <trkpt lat="45.15125" lon="5.84499">
        <ele>672.16</ele>
        <time>2019-11-13T13:02:01.000Z</time>
      </trkpt>
      <trkpt lat="45.15075" lon="5.84476">
        <ele>672.33</ele>
        <time>2019-11-13T13:02:06.000Z</time>
      </trkpt>
      <trkpt lat="45.1503" lon="5.84436">
        <ele>665.35</ele>
        <time>2019-11-13T13:02:11.000Z</time>
      </trkpt>
      <trkpt lat="45.15039" lon="5.84369">
        <ele>661.33</ele>
        <time>2019-11-13T13:02:16.000Z</time>
      </trkpt>
      <trkpt lat="45.15096" lon="5.84344">
        <ele>652.53</ele>
        <time>2019-11-13T13:02:21.000Z</time>
      </trkpt>
      <trkpt lat="45.15142" lon="5.84308">
        <ele>642.14</ele>
        <time>2019-11-13T13:02:26.000Z</time>
      </trkpt>
      <trkpt lat="45.15177" lon="5.84244">
        <ele>636.98</ele>
        <time>2019-11-13T13:02:31.000Z</time>
      </trkpt>
      <trkpt lat="45.15229" lon="5.84192">
        <ele>631.99</ele>
        <time>2019-11-13T13:02:36.000Z</time>
      </trkpt>
      <trkpt lat="45.15291" lon="5.84152">
        <ele>631.53</ele>
        <time>2019-11-13T13:02:41.000Z</time>
      </trkpt>
      <trkpt lat="45.1535" lon="5.84116">
        <ele>623.98</ele>
        <time>2019-11-13T13:02:46.000Z</time>
      </trkpt>
      <trkpt lat="45.15393" lon="5.84058">
        <ele>622.44</ele>
        <time>2019-11-13T13:02:51.000Z</time>
      </trkpt>
      <trkpt lat="45.15441" lon="5.84035">
        <ele>623.42</ele>
        <time>2019-11-13T13:02:56.000Z</time>
      </trkpt>
      <trkpt lat="45.15492" lon="5.84043">
        <ele>618.99</ele>
        <time>2019-11-13T13:03:01.000Z</time>
      </trkpt>
      <trkpt lat="45.15523" lon="5.84038">
        <ele>616.18</ele>
        <time>2019-11-13T13:03:06.000Z</time>
      </trkpt>
      <trkpt lat="45.15497" lon="5.83999">
        <ele>612.8</ele>
        <time>2019-11-13T13:03:11.000Z</time>
      </trkpt>
      <trkpt lat="45.15461" lon="5.83963">
        <ele>610</ele>
        <time>2019-11-13T13:03:16.000Z</time>
      </trkpt>
      <trkpt lat="45.15422" lon="5.83936">
        <ele>608.56</ele>
        <time>2019-11-13T13:03:21.000Z</time>
      </trkpt>
      <trkpt lat="45.15378" lon="5.83917">
        <ele>608.1</ele>
        <time>2019-11-13T13:03:26.000Z</time>
      </trkpt>
      <trkpt lat="45.15341" lon="5.83868">
        <ele>603.34</ele>
        <time>2019-11-13T13:03:31.000Z</time>
      </trkpt>
      <trkpt lat="45.15304" lon="5.83847">
        <ele>599.93</ele>
        <time>2019-11-13T13:03:36.000Z</time>
      </trkpt>
      <trkpt lat="45.15268" lon="5.83847">
        <ele>598.54</ele>
        <time>2019-11-13T13:03:41.000Z</time>
      </trkpt>
      <trkpt lat="45.15226" lon="5.83831">
        <ele>598.38</ele>
        <time>2019-11-13T13:03:46.000Z</time>
      </trkpt>
      <trkpt lat="45.152" lon="5.83797">
        <ele>594.76</ele>
        <time>2019-11-13T13:03:51.000Z</time>
      </trkpt>
      <trkpt lat="45.15168" lon="5.83767">
        <ele>591.1</ele>
        <time>2019-11-13T13:03:56.000Z</time>
      </trkpt>
      <trkpt lat="45.15137" lon="5.83744">
        <ele>588.89</ele>
        <time>2019-11-13T13:04:01.000Z</time>
      </trkpt>
      <trkpt lat="45.15113" lon="5.83722">
        <ele>588.79</ele>
        <time>2019-11-13T13:04:06.000Z</time>
      </trkpt>
      <trkpt lat="45.15092" lon="5.83711">
        <ele>587.61</ele>
        <time>2019-11-13T13:04:11.000Z</time>
      </trkpt>
      <trkpt lat="45.15076" lon="5.83697">
        <ele>584.69</ele>
        <time>2019-11-13T13:04:16.000Z</time>
      </trkpt>
      <trkpt lat="45.15062" lon="5.83684">
        <ele>584.14</ele>
        <time>2019-11-13T13:04:21.000Z</time>
      </trkpt>
      <trkpt lat="45.15043" lon="5.83673">
        <ele>582.42</ele>
        <time>2019-11-13T13:04:26.000Z</time>
      </trkpt>
      <trkpt lat="45.15023" lon="5.83672">
        <ele>582.11</ele>
        <time>2019-11-13T13:04:31.000Z</time>
      </trkpt>
      <trkpt lat="45.14997" lon="5.83665">
        <ele>581.24</ele>
        <time>2019-11-13T13:04:36.000Z</time>
      </trkpt>
      <trkpt lat="45.14965" lon="5.83677">
        <ele>583.01</ele>
        <time>2019-11-13T13:04:41.000Z</time>
      </trkpt>
      <trkpt lat="45.14933" lon="5.83696">
        <ele>581.26</ele>
        <time>2019-11-13T13:04:46.000Z</time>
      </trkpt>
      <trkpt lat="45.14898" lon="5.83716">
        <ele>582.63</ele>
        <time>2019-11-13T13:04:51.000Z</time>
      </trkpt>
      <trkpt lat="45.14858" lon="5.83737">
        <ele>578.65</ele>
        <time>2019-11-13T13:04:56.000Z</time>
      </trkpt>
      <trkpt lat="45.14817" lon="5.83748">
        <ele>579.44</ele>
        <time>2019-11-13T13:05:01.000Z</time>
      </trkpt>
      <trkpt lat="45.1478" lon="5.83756">
        <ele>576.21</ele>
        <time>2019-11-13T13:05:06.000Z</time>
      </trkpt>
      <trkpt lat="45.14735" lon="5.83749">
        <ele>571.47</ele>
        <time>2019-11-13T13:05:11.000Z</time>
      </trkpt>
      <trkpt lat="45.14689" lon="5.83715">
        <ele>566.68</ele>
        <time>2019-11-13T13:05:16.000Z</time>
      </trkpt>
      <trkpt lat="45.14636" lon="5.83704">
        <ele>560.91</ele>
        <time>2019-11-13T13:05:21.000Z</time>
      </trkpt>
      <trkpt lat="45.14578" lon="5.83683">
        <ele>554.96</ele>
        <time>2019-11-13T13:05:26.000Z</time>
      </trkpt>
      <trkpt lat="45.1453" lon="5.83647">
        <ele>546.19</ele>
        <time>2019-11-13T13:05:31.000Z</time>
      </trkpt>
      <trkpt lat="45.14504" lon="5.83621">
        <ele>545.87</ele>
        <time>2019-11-13T13:05:36.000Z</time>
      </trkpt>
      <trkpt lat="45.14491" lon="5.83611">
        <ele>544.17</ele>
        <time>2019-11-13T13:05:41.000Z</time>
      </trkpt>
      <trkpt lat="45.14481" lon="5.83611">
        <ele>546.94</ele>
        <time>2019-11-13T13:07:47.000Z</time>
      </trkpt>
      <trkpt lat="45.14461" lon="5.836">
        <ele>540.51</ele>
        <time>2019-11-13T13:07:52.000Z</time>
      </trkpt>
      <trkpt lat="45.14428" lon="5.83608">
        <ele>535.18</ele>
        <time>2019-11-13T13:07:57.000Z</time>
      </trkpt>
      <trkpt lat="45.14393" lon="5.83643">
        <ele>534.05</ele>
        <time>2019-11-13T13:08:02.000Z</time>
      </trkpt>
      <trkpt lat="45.14352" lon="5.83639">
        <ele>527.29</ele>
        <time>2019-11-13T13:08:07.000Z</time>
      </trkpt>
      <trkpt lat="45.14326" lon="5.83587">
        <ele>523.15</ele>
        <time>2019-11-13T13:08:12.000Z</time>
      </trkpt>
      <trkpt lat="45.14292" lon="5.83524">
        <ele>513.58</ele>
        <time>2019-11-13T13:08:17.000Z</time>
      </trkpt>
      <trkpt lat="45.14264" lon="5.83447">
        <ele>504.98</ele>
        <time>2019-11-13T13:08:22.000Z</time>
      </trkpt>
      <trkpt lat="45.14254" lon="5.83375">
        <ele>496.93</ele>
        <time>2019-11-13T13:08:27.000Z</time>
      </trkpt>
      <trkpt lat="45.14298" lon="5.83319">
        <ele>495.58</ele>
        <time>2019-11-13T13:08:32.000Z</time>
      </trkpt>
      <trkpt lat="45.14335" lon="5.8328">
        <ele>491.2</ele>
        <time>2019-11-13T13:08:37.000Z</time>
      </trkpt>
      <trkpt lat="45.14303" lon="5.83273">
        <ele>491.87</ele>
        <time>2019-11-13T13:08:42.000Z</time>
      </trkpt>
      <trkpt lat="45.14247" lon="5.83306">
        <ele>487.76</ele>
        <time>2019-11-13T13:08:47.000Z</time>
      </trkpt>
      <trkpt lat="45.1419" lon="5.83342">
        <ele>483.65</ele>
        <time>2019-11-13T13:08:52.000Z</time>
      </trkpt>
      <trkpt lat="45.14181" lon="5.83424">
        <ele>473.62</ele>
        <time>2019-11-13T13:08:57.000Z</time>
      </trkpt>
      <trkpt lat="45.14146" lon="5.83485">
        <ele>467.87</ele>
        <time>2019-11-13T13:09:02.000Z</time>
      </trkpt>
      <trkpt lat="45.14084" lon="5.83489">
        <ele>462.1</ele>
        <time>2019-11-13T13:09:07.000Z</time>
      </trkpt>
      <trkpt lat="45.14032" lon="5.83426">
        <ele>462.94</ele>
        <time>2019-11-13T13:09:12.000Z</time>
      </trkpt>
      <trkpt lat="45.13986" lon="5.83362">
        <ele>456.43</ele>
        <time>2019-11-13T13:09:17.000Z</time>
      </trkpt>
      <trkpt lat="45.13942" lon="5.83297">
        <ele>450.57</ele>
        <time>2019-11-13T13:09:22.000Z</time>
      </trkpt>
      <trkpt lat="45.13968" lon="5.83214">
        <ele>441.99</ele>
        <time>2019-11-13T13:09:27.000Z</time>
      </trkpt>
      <trkpt lat="45.13966" lon="5.8312">
        <ele>442.21</ele>
        <time>2019-11-13T13:09:32.000Z</time>
      </trkpt>
      <trkpt lat="45.1395" lon="5.83034">
        <ele>445.33</ele>
        <time>2019-11-13T13:09:37.000Z</time>
      </trkpt>
      <trkpt lat="45.13939" lon="5.82931">
        <ele>442.18</ele>
        <time>2019-11-13T13:09:42.000Z</time>
      </trkpt>
      <trkpt lat="45.13944" lon="5.82837">
        <ele>437.13</ele>
        <time>2019-11-13T13:09:47.000Z</time>
      </trkpt>
      <trkpt lat="45.13957" lon="5.8279">
        <ele>431.14</ele>
        <time>2019-11-13T13:09:52.000Z</time>
      </trkpt>
      <trkpt lat="45.13965" lon="5.82779">
        <ele>426.07</ele>
        <time>2019-11-13T13:09:57.000Z</time>
      </trkpt>
      <trkpt lat="45.13975" lon="5.8277">
        <ele>423.7</ele>
        <time>2019-11-13T13:10:02.000Z</time>
      </trkpt>
      <trkpt lat="45.13978" lon="5.82744">
        <ele>420.96</ele>
        <time>2019-11-13T13:10:07.000Z</time>
      </trkpt>
      <trkpt lat="45.13979" lon="5.8272">
        <ele>414.51</ele>
        <time>2019-11-13T13:10:12.000Z</time>
      </trkpt>
      <trkpt lat="45.13992" lon="5.82699">
        <ele>411.07</ele>
        <time>2019-11-13T13:10:17.000Z</time>
      </trkpt>
      <trkpt lat="45.13992" lon="5.82681">
        <ele>408.34</ele>
        <time>2019-11-13T13:10:22.000Z</time>
      </trkpt>
      <trkpt lat="45.13985" lon="5.8269">
        <ele>415.14</ele>
        <time>2019-11-13T13:12:28.000Z</time>
      </trkpt>
      <trkpt lat="45.13995" lon="5.8269">
        <ele>412.79</ele>
        <time>2019-11-13T13:12:39.000Z</time>
      </trkpt>
      <trkpt lat="45.14005" lon="5.82672">
        <ele>412.32</ele>
        <time>2019-11-13T13:12:44.000Z</time>
      </trkpt>
      <trkpt lat="45.1402" lon="5.82658">
        <ele>413.67</ele>
        <time>2019-11-13T13:12:49.000Z</time>
      </trkpt>
      <trkpt lat="45.14037" lon="5.82652">
        <ele>413.95</ele>
        <time>2019-11-13T13:12:54.000Z</time>
      </trkpt>
      <trkpt lat="45.1405" lon="5.82656">
        <ele>413.54</ele>
        <time>2019-11-13T13:12:59.000Z</time>
      </trkpt>
      <trkpt lat="45.14063" lon="5.82672">
        <ele>416.42</ele>
        <time>2019-11-13T13:13:04.000Z</time>
      </trkpt>
      <trkpt lat="45.14073" lon="5.82691">
        <ele>414.67</ele>
        <time>2019-11-13T13:13:09.000Z</time>
      </trkpt>
      <trkpt lat="45.14085" lon="5.82708">
        <ele>416.16</ele>
        <time>2019-11-13T13:13:14.000Z</time>
      </trkpt>
      <trkpt lat="45.14094" lon="5.82727">
        <ele>418.93</ele>
        <time>2019-11-13T13:13:19.000Z</time>
      </trkpt>
      <trkpt lat="45.14099" lon="5.8275">
        <ele>421.99</ele>
        <time>2019-11-13T13:13:24.000Z</time>
      </trkpt>
      <trkpt lat="45.14105" lon="5.82773">
        <ele>425.3</ele>
        <time>2019-11-13T13:13:29.000Z</time>
      </trkpt>
      <trkpt lat="45.14118" lon="5.82784">
        <ele>428.5</ele>
        <time>2019-11-13T13:13:34.000Z</time>
      </trkpt>
      <trkpt lat="45.1413" lon="5.82791">
        <ele>431.74</ele>
        <time>2019-11-13T13:13:39.000Z</time>
      </trkpt>
      <trkpt lat="45.14139" lon="5.8279">
        <ele>425.78</ele>
        <time>2019-11-13T13:13:54.000Z</time>
      </trkpt>
      <trkpt lat="45.1413" lon="5.82776">
        <ele>434.06</ele>
        <time>2019-11-13T13:15:22.000Z</time>
      </trkpt>
      <trkpt lat="45.14115" lon="5.8276">
        <ele>438.9</ele>
        <time>2019-11-13T13:15:27.000Z</time>
      </trkpt>
      <trkpt lat="45.14106" lon="5.82737">
        <ele>435.78</ele>
        <time>2019-11-13T13:15:32.000Z</time>
      </trkpt>
      <trkpt lat="45.14116" lon="5.82716">
        <ele>438.38</ele>
        <time>2019-11-13T13:15:37.000Z</time>
      </trkpt>
      <trkpt lat="45.14133" lon="5.82726">
        <ele>436.89</ele>
        <time>2019-11-13T13:15:42.000Z</time>
      </trkpt>
      <trkpt lat="45.14151" lon="5.82731">
        <ele>437.48</ele>
        <time>2019-11-13T13:15:47.000Z</time>
      </trkpt>
      <trkpt lat="45.14167" lon="5.82738">
        <ele>440.38</ele>
        <time>2019-11-13T13:15:52.000Z</time>
      </trkpt>
      <trkpt lat="45.14183" lon="5.82745">
        <ele>442.33</ele>
        <time>2019-11-13T13:15:57.000Z</time>
      </trkpt>
      <trkpt lat="45.142" lon="5.82752">
        <ele>445.43</ele>
        <time>2019-11-13T13:16:02.000Z</time>
      </trkpt>
      <trkpt lat="45.14212" lon="5.82761">
        <ele>447.85</ele>
        <time>2019-11-13T13:16:07.000Z</time>
      </trkpt>
      <trkpt lat="45.14225" lon="5.82773">
        <ele>447.83</ele>
        <time>2019-11-13T13:16:12.000Z</time>
      </trkpt>
      <trkpt lat="45.14238" lon="5.82788">
        <ele>449.44</ele>
        <time>2019-11-13T13:16:17.000Z</time>
      </trkpt>
      <trkpt lat="45.14253" lon="5.82803">
        <ele>454.37</ele>
        <time>2019-11-13T13:16:22.000Z</time>
      </trkpt>
      <trkpt lat="45.14269" lon="5.82807">
        <ele>455.79</ele>
        <time>2019-11-13T13:16:27.000Z</time>
      </trkpt>
      <trkpt lat="45.14287" lon="5.82807">
        <ele>457.82</ele>
        <time>2019-11-13T13:16:32.000Z</time>
      </trkpt>
      <trkpt lat="45.14301" lon="5.82804">
        <ele>463.53</ele>
        <time>2019-11-13T13:16:37.000Z</time>
      </trkpt>
      <trkpt lat="45.14316" lon="5.82799">
        <ele>464.38</ele>
        <time>2019-11-13T13:16:42.000Z</time>
      </trkpt>
      <trkpt lat="45.14332" lon="5.82793">
        <ele>468.13</ele>
        <time>2019-11-13T13:16:47.000Z</time>
      </trkpt>
      <trkpt lat="45.14346" lon="5.82787">
        <ele>473.11</ele>
        <time>2019-11-13T13:16:52.000Z</time>
      </trkpt>
      <trkpt lat="45.14362" lon="5.82776">
        <ele>475.91</ele>
        <time>2019-11-13T13:16:57.000Z</time>
      </trkpt>
      <trkpt lat="45.14377" lon="5.82765">
        <ele>477.01</ele>
        <time>2019-11-13T13:17:02.000Z</time>
      </trkpt>
      <trkpt lat="45.14393" lon="5.82759">
        <ele>482.27</ele>
        <time>2019-11-13T13:17:07.000Z</time>
      </trkpt>
      <trkpt lat="45.1441" lon="5.82751">
        <ele>486.11</ele>
        <time>2019-11-13T13:17:12.000Z</time>
      </trkpt>
      <trkpt lat="45.14425" lon="5.82743">
        <ele>486.35</ele>
        <time>2019-11-13T13:17:17.000Z</time>
      </trkpt>
      <trkpt lat="45.14444" lon="5.82733">
        <ele>489.49</ele>
        <time>2019-11-13T13:17:22.000Z</time>
      </trkpt>
      <trkpt lat="45.1446" lon="5.82722">
        <ele>490.33</ele>
        <time>2019-11-13T13:17:27.000Z</time>
      </trkpt>
      <trkpt lat="45.14471" lon="5.82712">
        <ele>492.17</ele>
        <time>2019-11-13T13:17:32.000Z</time>
      </trkpt>
      <trkpt lat="45.14481" lon="5.82699">
        <ele>494.45</ele>
        <time>2019-11-13T13:17:37.000Z</time>
      </trkpt>
      <trkpt lat="45.14489" lon="5.82681">
        <ele>496.8</ele>
        <time>2019-11-13T13:17:42.000Z</time>
      </trkpt>
      <trkpt lat="45.14497" lon="5.8266">
        <ele>497.76</ele>
        <time>2019-11-13T13:17:47.000Z</time>
      </trkpt>
      <trkpt lat="45.14508" lon="5.82649">
        <ele>499.59</ele>
        <time>2019-11-13T13:17:52.000Z</time>
      </trkpt>
      <trkpt lat="45.14523" lon="5.82638">
        <ele>502.67</ele>
        <time>2019-11-13T13:17:57.000Z</time>
      </trkpt>
      <trkpt lat="45.14536" lon="5.82625">
        <ele>504.95</ele>
        <time>2019-11-13T13:18:02.000Z</time>
      </trkpt>
      <trkpt lat="45.14549" lon="5.82612">
        <ele>504.68</ele>
        <time>2019-11-13T13:18:07.000Z</time>
      </trkpt>
      <trkpt lat="45.14561" lon="5.82594">
        <ele>507.43</ele>
        <time>2019-11-13T13:18:12.000Z</time>
      </trkpt>
      <trkpt lat="45.14572" lon="5.82575">
        <ele>510.5</ele>
        <time>2019-11-13T13:18:17.000Z</time>
      </trkpt>
      <trkpt lat="45.14581" lon="5.82559">
        <ele>513.55</ele>
        <time>2019-11-13T13:18:22.000Z</time>
      </trkpt>
      <trkpt lat="45.1459" lon="5.82539">
        <ele>513.71</ele>
        <time>2019-11-13T13:18:27.000Z</time>
      </trkpt>
      <trkpt lat="45.14597" lon="5.82515">
        <ele>514.81</ele>
        <time>2019-11-13T13:18:32.000Z</time>
      </trkpt>
      <trkpt lat="45.14606" lon="5.82494">
        <ele>515.47</ele>
        <time>2019-11-13T13:18:37.000Z</time>
      </trkpt>
      <trkpt lat="45.14615" lon="5.82467">
        <ele>516.88</ele>
        <time>2019-11-13T13:18:42.000Z</time>
      </trkpt>
      <trkpt lat="45.14611" lon="5.8243">
        <ele>514.25</ele>
        <time>2019-11-13T13:18:47.000Z</time>
      </trkpt>
      <trkpt lat="45.14599" lon="5.82402">
        <ele>514.12</ele>
        <time>2019-11-13T13:18:52.000Z</time>
      </trkpt>
      <trkpt lat="45.14585" lon="5.8238">
        <ele>515.33</ele>
        <time>2019-11-13T13:18:57.000Z</time>
      </trkpt>
      <trkpt lat="45.14583" lon="5.82348">
        <ele>515.63</ele>
        <time>2019-11-13T13:19:02.000Z</time>
      </trkpt>
      <trkpt lat="45.14599" lon="5.82329">
        <ele>520.26</ele>
        <time>2019-11-13T13:19:07.000Z</time>
      </trkpt>
      <trkpt lat="45.14611" lon="5.82322">
        <ele>522.77</ele>
        <time>2019-11-13T13:19:12.000Z</time>
      </trkpt>
      <trkpt lat="45.14626" lon="5.82305">
        <ele>520.89</ele>
        <time>2019-11-13T13:19:17.000Z</time>
      </trkpt>
      <trkpt lat="45.14631" lon="5.82276">
        <ele>522.23</ele>
        <time>2019-11-13T13:19:22.000Z</time>
      </trkpt>
      <trkpt lat="45.14636" lon="5.82249">
        <ele>522.86</ele>
        <time>2019-11-13T13:19:27.000Z</time>
      </trkpt>
      <trkpt lat="45.14641" lon="5.8222">
        <ele>523.94</ele>
        <time>2019-11-13T13:19:32.000Z</time>
      </trkpt>
      <trkpt lat="45.14645" lon="5.82198">
        <ele>526.29</ele>
        <time>2019-11-13T13:19:37.000Z</time>
      </trkpt>
      <trkpt lat="45.14647" lon="5.82185">
        <ele>527.18</ele>
        <time>2019-11-13T13:20:04.000Z</time>
      </trkpt>
      <trkpt lat="45.14654" lon="5.82161">
        <ele>532.32</ele>
        <time>2019-11-13T13:20:09.000Z</time>
      </trkpt>
      <trkpt lat="45.1466" lon="5.82138">
        <ele>538.9</ele>
        <time>2019-11-13T13:20:14.000Z</time>
      </trkpt>
      <trkpt lat="45.14666" lon="5.82115">
        <ele>542.26</ele>
        <time>2019-11-13T13:20:19.000Z</time>
      </trkpt>
      <trkpt lat="45.14671" lon="5.82092">
        <ele>542.64</ele>
        <time>2019-11-13T13:20:24.000Z</time>
      </trkpt>
      <trkpt lat="45.14678" lon="5.82068">
        <ele>547.23</ele>
        <time>2019-11-13T13:20:29.000Z</time>
      </trkpt>
      <trkpt lat="45.14685" lon="5.82046">
        <ele>544.95</ele>
        <time>2019-11-13T13:20:34.000Z</time>
      </trkpt>
      <trkpt lat="45.14693" lon="5.82025">
        <ele>542.98</ele>
        <time>2019-11-13T13:20:39.000Z</time>
      </trkpt>
      <trkpt lat="45.14704" lon="5.82006">
        <ele>543.91</ele>
        <time>2019-11-13T13:20:44.000Z</time>
      </trkpt>
      <trkpt lat="45.14718" lon="5.81989">
        <ele>547.93</ele>
        <time>2019-11-13T13:20:49.000Z</time>
      </trkpt>
      <trkpt lat="45.14734" lon="5.81977">
        <ele>550.6</ele>
        <time>2019-11-13T13:20:54.000Z</time>
      </trkpt>
      <trkpt lat="45.14752" lon="5.81967">
        <ele>554.3</ele>
        <time>2019-11-13T13:20:59.000Z</time>
      </trkpt>
      <trkpt lat="45.1477" lon="5.81958">
        <ele>556.99</ele>
        <time>2019-11-13T13:21:04.000Z</time>
      </trkpt>
      <trkpt lat="45.14785" lon="5.81954">
        <ele>554.2</ele>
        <time>2019-11-13T13:21:09.000Z</time>
      </trkpt>
      <trkpt lat="45.14789" lon="5.81936">
        <ele>555.52</ele>
        <time>2019-11-13T13:21:14.000Z</time>
      </trkpt>
      <trkpt lat="45.14771" lon="5.81927">
        <ele>555.06</ele>
        <time>2019-11-13T13:21:19.000Z</time>
      </trkpt>
      <trkpt lat="45.14752" lon="5.81924">
        <ele>556.03</ele>
        <time>2019-11-13T13:21:24.000Z</time>
      </trkpt>
      <trkpt lat="45.14734" lon="5.8192">
        <ele>555.31</ele>
        <time>2019-11-13T13:21:29.000Z</time>
      </trkpt>
      <trkpt lat="45.14721" lon="5.81903">
        <ele>555.46</ele>
        <time>2019-11-13T13:21:34.000Z</time>
      </trkpt>
      <trkpt lat="45.14718" lon="5.8188">
        <ele>555.98</ele>
        <time>2019-11-13T13:21:39.000Z</time>
      </trkpt>
      <trkpt lat="45.14729" lon="5.81859">
        <ele>557.74</ele>
        <time>2019-11-13T13:21:44.000Z</time>
      </trkpt>
      <trkpt lat="45.14741" lon="5.81839">
        <ele>559.47</ele>
        <time>2019-11-13T13:21:49.000Z</time>
      </trkpt>
      <trkpt lat="45.14754" lon="5.81816">
        <ele>564.76</ele>
        <time>2019-11-13T13:21:54.000Z</time>
      </trkpt>
      <trkpt lat="45.14768" lon="5.81794">
        <ele>567.09</ele>
        <time>2019-11-13T13:21:59.000Z</time>
      </trkpt>
      <trkpt lat="45.14785" lon="5.81771">
        <ele>565.56</ele>
        <time>2019-11-13T13:22:04.000Z</time>
      </trkpt>
      <trkpt lat="45.14803" lon="5.81757">
        <ele>564.3</ele>
        <time>2019-11-13T13:22:09.000Z</time>
      </trkpt>
      <trkpt lat="45.14823" lon="5.81754">
        <ele>565.31</ele>
        <time>2019-11-13T13:22:14.000Z</time>
      </trkpt>
      <trkpt lat="45.14843" lon="5.8176">
        <ele>565.63</ele>
        <time>2019-11-13T13:22:19.000Z</time>
      </trkpt>
      <trkpt lat="45.14864" lon="5.81768">
        <ele>563.32</ele>
        <time>2019-11-13T13:22:24.000Z</time>
      </trkpt>
      <trkpt lat="45.14882" lon="5.81777">
        <ele>567.34</ele>
        <time>2019-11-13T13:22:29.000Z</time>
      </trkpt>
      <trkpt lat="45.14906" lon="5.81782">
        <ele>569.2</ele>
        <time>2019-11-13T13:22:34.000Z</time>
      </trkpt>
      <trkpt lat="45.14929" lon="5.8178">
        <ele>570.68</ele>
        <time>2019-11-13T13:22:39.000Z</time>
      </trkpt>
      <trkpt lat="45.14953" lon="5.81772">
        <ele>572.05</ele>
        <time>2019-11-13T13:22:44.000Z</time>
      </trkpt>
      <trkpt lat="45.14976" lon="5.81764">
        <ele>574.9</ele>
        <time>2019-11-13T13:22:49.000Z</time>
      </trkpt>
      <trkpt lat="45.14995" lon="5.81753">
        <ele>578.13</ele>
        <time>2019-11-13T13:22:54.000Z</time>
      </trkpt>
      <trkpt lat="45.15004" lon="5.81729">
        <ele>579.48</ele>
        <time>2019-11-13T13:22:59.000Z</time>
      </trkpt>
      <trkpt lat="45.15009" lon="5.81708">
        <ele>580.45</ele>
        <time>2019-11-13T13:23:04.000Z</time>
      </trkpt>
      <trkpt lat="45.1501" lon="5.81687">
        <ele>577.7</ele>
        <time>2019-11-13T13:23:09.000Z</time>
      </trkpt>
      <trkpt lat="45.15005" lon="5.81673">
        <ele>578.14</ele>
        <time>2019-11-13T13:23:14.000Z</time>
      </trkpt>
      <trkpt lat="45.14995" lon="5.81678">
        <ele>578.21</ele>
        <time>2019-11-13T13:23:37.000Z</time>
      </trkpt>
      <trkpt lat="45.14981" lon="5.81678">
        <ele>576.43</ele>
        <time>2019-11-13T13:23:42.000Z</time>
      </trkpt>
      <trkpt lat="45.14967" lon="5.81682">
        <ele>578.12</ele>
        <time>2019-11-13T13:23:47.000Z</time>
      </trkpt>
      <trkpt lat="45.14951" lon="5.81687">
        <ele>576.33</ele>
        <time>2019-11-13T13:23:52.000Z</time>
      </trkpt>
      <trkpt lat="45.14944" lon="5.81664">
        <ele>577.6</ele>
        <time>2019-11-13T13:23:57.000Z</time>
      </trkpt>
      <trkpt lat="45.14946" lon="5.81629">
        <ele>584.51</ele>
        <time>2019-11-13T13:24:02.000Z</time>
      </trkpt>
      <trkpt lat="45.14944" lon="5.81593">
        <ele>584.71</ele>
        <time>2019-11-13T13:24:07.000Z</time>
      </trkpt>
      <trkpt lat="45.14942" lon="5.81557">
        <ele>586.1</ele>
        <time>2019-11-13T13:24:12.000Z</time>
      </trkpt>
      <trkpt lat="45.14929" lon="5.81519">
        <ele>583.82</ele>
        <time>2019-11-13T13:24:17.000Z</time>
      </trkpt>
      <trkpt lat="45.14916" lon="5.81491">
        <ele>580.91</ele>
        <time>2019-11-13T13:24:22.000Z</time>
      </trkpt>
      <trkpt lat="45.14895" lon="5.81465">
        <ele>580.28</ele>
        <time>2019-11-13T13:24:27.000Z</time>
      </trkpt>
      <trkpt lat="45.14883" lon="5.81439">
        <ele>580.07</ele>
        <time>2019-11-13T13:24:32.000Z</time>
      </trkpt>
      <trkpt lat="45.14878" lon="5.81414">
        <ele>581.38</ele>
        <time>2019-11-13T13:24:37.000Z</time>
      </trkpt>
      <trkpt lat="45.14877" lon="5.81388">
        <ele>585.2</ele>
        <time>2019-11-13T13:24:42.000Z</time>
      </trkpt>
      <trkpt lat="45.14878" lon="5.81364">
        <ele>587.91</ele>
        <time>2019-11-13T13:24:47.000Z</time>
      </trkpt>
      <trkpt lat="45.14876" lon="5.81342">
        <ele>588.13</ele>
        <time>2019-11-13T13:24:52.000Z</time>
      </trkpt>
      <trkpt lat="45.14865" lon="5.81322">
        <ele>589.54</ele>
        <time>2019-11-13T13:24:57.000Z</time>
      </trkpt>
      <trkpt lat="45.1485" lon="5.81302">
        <ele>587.06</ele>
        <time>2019-11-13T13:25:02.000Z</time>
      </trkpt>
      <trkpt lat="45.14837" lon="5.81279">
        <ele>590.07</ele>
        <time>2019-11-13T13:25:07.000Z</time>
      </trkpt>
      <trkpt lat="45.14825" lon="5.81252">
        <ele>591.78</ele>
        <time>2019-11-13T13:25:12.000Z</time>
      </trkpt>
      <trkpt lat="45.14809" lon="5.81229">
        <ele>593.6</ele>
        <time>2019-11-13T13:25:17.000Z</time>
      </trkpt>
      <trkpt lat="45.14791" lon="5.81204">
        <ele>591.47</ele>
        <time>2019-11-13T13:25:22.000Z</time>
      </trkpt>
      <trkpt lat="45.14772" lon="5.81177">
        <ele>593.5</ele>
        <time>2019-11-13T13:25:27.000Z</time>
      </trkpt>
      <trkpt lat="45.14754" lon="5.81156">
        <ele>593.42</ele>
        <time>2019-11-13T13:25:32.000Z</time>
      </trkpt>
      <trkpt lat="45.14735" lon="5.8113">
        <ele>599.49</ele>
        <time>2019-11-13T13:25:37.000Z</time>
      </trkpt>
      <trkpt lat="45.14714" lon="5.81104">
        <ele>602.11</ele>
        <time>2019-11-13T13:25:42.000Z</time>
      </trkpt>
      <trkpt lat="45.14694" lon="5.8108">
        <ele>598.46</ele>
        <time>2019-11-13T13:25:47.000Z</time>
      </trkpt>
      <trkpt lat="45.14679" lon="5.8106">
        <ele>600.92</ele>
        <time>2019-11-13T13:25:52.000Z</time>
      </trkpt>
      <trkpt lat="45.14669" lon="5.81042">
        <ele>599.45</ele>
        <time>2019-11-13T13:25:57.000Z</time>
      </trkpt>
      <trkpt lat="45.1466" lon="5.81024">
        <ele>599.61</ele>
        <time>2019-11-13T13:26:02.000Z</time>
      </trkpt>
      <trkpt lat="45.14648" lon="5.81005">
        <ele>598.05</ele>
        <time>2019-11-13T13:26:07.000Z</time>
      </trkpt>
      <trkpt lat="45.14634" lon="5.80973">
        <ele>597.84</ele>
        <time>2019-11-13T13:26:12.000Z</time>
      </trkpt>
      <trkpt lat="45.14621" lon="5.80949">
        <ele>594.76</ele>
        <time>2019-11-13T13:26:17.000Z</time>
      </trkpt>
      <trkpt lat="45.14599" lon="5.8092">
        <ele>595.03</ele>
        <time>2019-11-13T13:26:22.000Z</time>
      </trkpt>
      <trkpt lat="45.1458" lon="5.80889">
        <ele>593.9</ele>
        <time>2019-11-13T13:26:27.000Z</time>
      </trkpt>
      <trkpt lat="45.14561" lon="5.80853">
        <ele>591.69</ele>
        <time>2019-11-13T13:26:32.000Z</time>
      </trkpt>
      <trkpt lat="45.14542" lon="5.80816">
        <ele>589.49</ele>
        <time>2019-11-13T13:26:37.000Z</time>
      </trkpt>
      <trkpt lat="45.14527" lon="5.80776">
        <ele>587.54</ele>
        <time>2019-11-13T13:26:42.000Z</time>
      </trkpt>
      <trkpt lat="45.1451" lon="5.80734">
        <ele>588.17</ele>
        <time>2019-11-13T13:26:47.000Z</time>
      </trkpt>
      <trkpt lat="45.14489" lon="5.80692">
        <ele>587.75</ele>
        <time>2019-11-13T13:26:52.000Z</time>
      </trkpt>
      <trkpt lat="45.14474" lon="5.80657">
        <ele>588</ele>
        <time>2019-11-13T13:26:57.000Z</time>
      </trkpt>
      <trkpt lat="45.14468" lon="5.8063">
        <ele>589.95</ele>
        <time>2019-11-13T13:27:02.000Z</time>
      </trkpt>
      <trkpt lat="45.14469" lon="5.80616">
        <ele>590.71</ele>
        <time>2019-11-13T13:27:55.000Z</time>
      </trkpt>
      <trkpt lat="45.14473" lon="5.80592">
        <ele>590.43</ele>
        <time>2019-11-13T13:28:00.000Z</time>
      </trkpt>
      <trkpt lat="45.1448" lon="5.80565">
        <ele>591.17</ele>
        <time>2019-11-13T13:28:05.000Z</time>
      </trkpt>
      <trkpt lat="45.14489" lon="5.80537">
        <ele>591.01</ele>
        <time>2019-11-13T13:28:10.000Z</time>
      </trkpt>
      <trkpt lat="45.14495" lon="5.80515">
        <ele>590.89</ele>
        <time>2019-11-13T13:28:15.000Z</time>
      </trkpt>
      <trkpt lat="45.14503" lon="5.80504">
        <ele>597.15</ele>
        <time>2019-11-13T13:28:30.000Z</time>
      </trkpt>
      <trkpt lat="45.14506" lon="5.80478">
        <ele>592.62</ele>
        <time>2019-11-13T13:28:35.000Z</time>
      </trkpt>
      <trkpt lat="45.14502" lon="5.8045">
        <ele>596.15</ele>
        <time>2019-11-13T13:28:40.000Z</time>
      </trkpt>
      <trkpt lat="45.14501" lon="5.80422">
        <ele>595.47</ele>
        <time>2019-11-13T13:28:45.000Z</time>
      </trkpt>
      <trkpt lat="45.14504" lon="5.80389">
        <ele>593.58</ele>
        <time>2019-11-13T13:28:50.000Z</time>
      </trkpt>
      <trkpt lat="45.14516" lon="5.80365">
        <ele>594.17</ele>
        <time>2019-11-13T13:28:55.000Z</time>
      </trkpt>
      <trkpt lat="45.14533" lon="5.80348">
        <ele>595.6</ele>
        <time>2019-11-13T13:29:00.000Z</time>
      </trkpt>
      <trkpt lat="45.14544" lon="5.80326">
        <ele>595.09</ele>
        <time>2019-11-13T13:29:05.000Z</time>
      </trkpt>
      <trkpt lat="45.14555" lon="5.80311">
        <ele>599.38</ele>
        <time>2019-11-13T13:29:10.000Z</time>
      </trkpt>
      <trkpt lat="45.14558" lon="5.80289">
        <ele>596.88</ele>
        <time>2019-11-13T13:29:15.000Z</time>
      </trkpt>
      <trkpt lat="45.14554" lon="5.80266">
        <ele>596.35</ele>
        <time>2019-11-13T13:29:20.000Z</time>
      </trkpt>
      <trkpt lat="45.14549" lon="5.8024">
        <ele>598.2</ele>
        <time>2019-11-13T13:29:25.000Z</time>
      </trkpt>
      <trkpt lat="45.14546" lon="5.80209">
        <ele>598.03</ele>
        <time>2019-11-13T13:29:30.000Z</time>
      </trkpt>
      <trkpt lat="45.14547" lon="5.8018">
        <ele>595.23</ele>
        <time>2019-11-13T13:29:35.000Z</time>
      </trkpt>
      <trkpt lat="45.1455" lon="5.80151">
        <ele>598.89</ele>
        <time>2019-11-13T13:29:40.000Z</time>
      </trkpt>
      <trkpt lat="45.14547" lon="5.80123">
        <ele>597.43</ele>
        <time>2019-11-13T13:29:45.000Z</time>
      </trkpt>
      <trkpt lat="45.14541" lon="5.80097">
        <ele>601</ele>
        <time>2019-11-13T13:29:50.000Z</time>
      </trkpt>
      <trkpt lat="45.14529" lon="5.80075">
        <ele>601.52</ele>
        <time>2019-11-13T13:29:55.000Z</time>
      </trkpt>
      <trkpt lat="45.14521" lon="5.80048">
        <ele>605.25</ele>
        <time>2019-11-13T13:30:00.000Z</time>
      </trkpt>
      <trkpt lat="45.1452" lon="5.80023">
        <ele>606.27</ele>
        <time>2019-11-13T13:30:05.000Z</time>
      </trkpt>
      <trkpt lat="45.14512" lon="5.80001">
        <ele>610.91</ele>
        <time>2019-11-13T13:30:10.000Z</time>
      </trkpt>
      <trkpt lat="45.14507" lon="5.79981">
        <ele>612.97</ele>
        <time>2019-11-13T13:30:15.000Z</time>
      </trkpt>
      <trkpt lat="45.14502" lon="5.79959">
        <ele>615.06</ele>
        <time>2019-11-13T13:30:20.000Z</time>
      </trkpt>
      <trkpt lat="45.14496" lon="5.79937">
        <ele>615.47</ele>
        <time>2019-11-13T13:30:25.000Z</time>
      </trkpt>
      <trkpt lat="45.14495" lon="5.79915">
        <ele>616.09</ele>
        <time>2019-11-13T13:30:30.000Z</time>
      </trkpt>
      <trkpt lat="45.14499" lon="5.79892">
        <ele>613.32</ele>
        <time>2019-11-13T13:30:35.000Z</time>
      </trkpt>
      <trkpt lat="45.14506" lon="5.79869">
        <ele>612.91</ele>
        <time>2019-11-13T13:30:40.000Z</time>
      </trkpt>
      <trkpt lat="45.14513" lon="5.79846">
        <ele>613.96</ele>
        <time>2019-11-13T13:30:45.000Z</time>
      </trkpt>
      <trkpt lat="45.14522" lon="5.79826">
        <ele>618.94</ele>
        <time>2019-11-13T13:30:50.000Z</time>
      </trkpt>
      <trkpt lat="45.1453" lon="5.79807">
        <ele>617.66</ele>
        <time>2019-11-13T13:30:55.000Z</time>
      </trkpt>
      <trkpt lat="45.14533" lon="5.79787">
        <ele>614.7</ele>
        <time>2019-11-13T13:31:00.000Z</time>
      </trkpt>
      <trkpt lat="45.14538" lon="5.79766">
        <ele>615.02</ele>
        <time>2019-11-13T13:31:05.000Z</time>
      </trkpt>
      <trkpt lat="45.14543" lon="5.79742">
        <ele>615.86</ele>
        <time>2019-11-13T13:31:10.000Z</time>
      </trkpt>
      <trkpt lat="45.14547" lon="5.79731">
        <ele>620.32</ele>
        <time>2019-11-13T13:31:15.000Z</time>
      </trkpt>
      <trkpt lat="45.14547" lon="5.79718">
        <ele>625.5</ele>
        <time>2019-11-13T13:31:45.000Z</time>
      </trkpt>
      <trkpt lat="45.14556" lon="5.79693">
        <ele>624.75</ele>
        <time>2019-11-13T13:31:50.000Z</time>
      </trkpt>
      <trkpt lat="45.14567" lon="5.79668">
        <ele>624.79</ele>
        <time>2019-11-13T13:31:55.000Z</time>
      </trkpt>
      <trkpt lat="45.14581" lon="5.79648">
        <ele>626.06</ele>
        <time>2019-11-13T13:32:00.000Z</time>
      </trkpt>
      <trkpt lat="45.14599" lon="5.79631">
        <ele>627.14</ele>
        <time>2019-11-13T13:32:05.000Z</time>
      </trkpt>
      <trkpt lat="45.14619" lon="5.7961">
        <ele>629.78</ele>
        <time>2019-11-13T13:32:10.000Z</time>
      </trkpt>
      <trkpt lat="45.14641" lon="5.79589">
        <ele>633.52</ele>
        <time>2019-11-13T13:32:15.000Z</time>
      </trkpt>
      <trkpt lat="45.14661" lon="5.79581">
        <ele>633.5</ele>
        <time>2019-11-13T13:32:20.000Z</time>
      </trkpt>
      <trkpt lat="45.1468" lon="5.7957">
        <ele>630.99</ele>
        <time>2019-11-13T13:32:25.000Z</time>
      </trkpt>
      <trkpt lat="45.14699" lon="5.79559">
        <ele>634.49</ele>
        <time>2019-11-13T13:32:30.000Z</time>
      </trkpt>
      <trkpt lat="45.14723" lon="5.79554">
        <ele>634.09</ele>
        <time>2019-11-13T13:32:35.000Z</time>
      </trkpt>
      <trkpt lat="45.14748" lon="5.79561">
        <ele>634.1</ele>
        <time>2019-11-13T13:32:40.000Z</time>
      </trkpt>
      <trkpt lat="45.14764" lon="5.79566">
        <ele>638</ele>
        <time>2019-11-13T13:32:45.000Z</time>
      </trkpt>
      <trkpt lat="45.14775" lon="5.79554">
        <ele>638.04</ele>
        <time>2019-11-13T13:32:50.000Z</time>
      </trkpt>
      <trkpt lat="45.14786" lon="5.79531">
        <ele>640.34</ele>
        <time>2019-11-13T13:32:55.000Z</time>
      </trkpt>
      <trkpt lat="45.14799" lon="5.7951">
        <ele>642.63</ele>
        <time>2019-11-13T13:33:00.000Z</time>
      </trkpt>
      <trkpt lat="45.1481" lon="5.79494">
        <ele>644.61</ele>
        <time>2019-11-13T13:33:05.000Z</time>
      </trkpt>
      <trkpt lat="45.14824" lon="5.79481">
        <ele>646.59</ele>
        <time>2019-11-13T13:33:10.000Z</time>
      </trkpt>
      <trkpt lat="45.14837" lon="5.79473">
        <ele>649.05</ele>
        <time>2019-11-13T13:33:15.000Z</time>
      </trkpt>
      <trkpt lat="45.14855" lon="5.79465">
        <ele>652.52</ele>
        <time>2019-11-13T13:33:20.000Z</time>
      </trkpt>
      <trkpt lat="45.14874" lon="5.79469">
        <ele>650.83</ele>
        <time>2019-11-13T13:33:25.000Z</time>
      </trkpt>
      <trkpt lat="45.14879" lon="5.79491">
        <ele>649.76</ele>
        <time>2019-11-13T13:33:30.000Z</time>
      </trkpt>
      <trkpt lat="45.14869" lon="5.79513">
        <ele>653.54</ele>
        <time>2019-11-13T13:33:35.000Z</time>
      </trkpt>
      <trkpt lat="45.14861" lon="5.79538">
        <ele>653.63</ele>
        <time>2019-11-13T13:33:40.000Z</time>
      </trkpt>
      <trkpt lat="45.14855" lon="5.7956">
        <ele>654.39</ele>
        <time>2019-11-13T13:33:45.000Z</time>
      </trkpt>
      <trkpt lat="45.14851" lon="5.79581">
        <ele>655.92</ele>
        <time>2019-11-13T13:33:50.000Z</time>
      </trkpt>
      <trkpt lat="45.14848" lon="5.79603">
        <ele>657.35</ele>
        <time>2019-11-13T13:33:55.000Z</time>
      </trkpt>
      <trkpt lat="45.14848" lon="5.79627">
        <ele>658.83</ele>
        <time>2019-11-13T13:34:00.000Z</time>
      </trkpt>
      <trkpt lat="45.14845" lon="5.79651">
        <ele>660.36</ele>
        <time>2019-11-13T13:34:05.000Z</time>
      </trkpt>
      <trkpt lat="45.14841" lon="5.79677">
        <ele>658.81</ele>
        <time>2019-11-13T13:34:10.000Z</time>
      </trkpt>
      <trkpt lat="45.14838" lon="5.79702">
        <ele>660.17</ele>
        <time>2019-11-13T13:34:15.000Z</time>
      </trkpt>
      <trkpt lat="45.14843" lon="5.79724">
        <ele>662.46</ele>
        <time>2019-11-13T13:34:20.000Z</time>
      </trkpt>
      <trkpt lat="45.14861" lon="5.79718">
        <ele>667.75</ele>
        <time>2019-11-13T13:34:25.000Z</time>
      </trkpt>
      <trkpt lat="45.14877" lon="5.797">
        <ele>669.15</ele>
        <time>2019-11-13T13:34:30.000Z</time>
      </trkpt>
      <trkpt lat="45.14886" lon="5.79682">
        <ele>670.71</ele>
        <time>2019-11-13T13:34:35.000Z</time>
      </trkpt>
      <trkpt lat="45.14897" lon="5.79665">
        <ele>670.09</ele>
        <time>2019-11-13T13:34:40.000Z</time>
      </trkpt>
      <trkpt lat="45.14911" lon="5.79648">
        <ele>671.83</ele>
        <time>2019-11-13T13:34:45.000Z</time>
      </trkpt>
      <trkpt lat="45.14921" lon="5.79633">
        <ele>674.72</ele>
        <time>2019-11-13T13:34:50.000Z</time>
      </trkpt>
      <trkpt lat="45.14934" lon="5.7962">
        <ele>677.36</ele>
        <time>2019-11-13T13:34:55.000Z</time>
      </trkpt>
      <trkpt lat="45.14949" lon="5.79613">
        <ele>678.28</ele>
        <time>2019-11-13T13:35:00.000Z</time>
      </trkpt>
      <trkpt lat="45.14953" lon="5.79635">
        <ele>678.87</ele>
        <time>2019-11-13T13:35:05.000Z</time>
      </trkpt>
      <trkpt lat="45.14947" lon="5.79658">
        <ele>680.4</ele>
        <time>2019-11-13T13:35:10.000Z</time>
      </trkpt>
      <trkpt lat="45.14946" lon="5.79681">
        <ele>682.57</ele>
        <time>2019-11-13T13:35:15.000Z</time>
      </trkpt>
      <trkpt lat="45.14939" lon="5.79706">
        <ele>681.67</ele>
        <time>2019-11-13T13:35:20.000Z</time>
      </trkpt>
      <trkpt lat="45.14934" lon="5.79731">
        <ele>685.79</ele>
        <time>2019-11-13T13:35:25.000Z</time>
      </trkpt>
      <trkpt lat="45.14931" lon="5.79754">
        <ele>685.24</ele>
        <time>2019-11-13T13:35:30.000Z</time>
      </trkpt>
      <trkpt lat="45.14928" lon="5.79775">
        <ele>685.75</ele>
        <time>2019-11-13T13:35:35.000Z</time>
      </trkpt>
      <trkpt lat="45.14925" lon="5.79797">
        <ele>691.45</ele>
        <time>2019-11-13T13:35:40.000Z</time>
      </trkpt>
      <trkpt lat="45.14924" lon="5.79818">
        <ele>692.29</ele>
        <time>2019-11-13T13:35:45.000Z</time>
      </trkpt>
      <trkpt lat="45.1493" lon="5.79833">
        <ele>692.8</ele>
        <time>2019-11-13T13:35:50.000Z</time>
      </trkpt>
      <trkpt lat="45.14948" lon="5.7983">
        <ele>691.71</ele>
        <time>2019-11-13T13:35:55.000Z</time>
      </trkpt>
      <trkpt lat="45.14959" lon="5.79811">
        <ele>694.83</ele>
        <time>2019-11-13T13:36:00.000Z</time>
      </trkpt>
      <trkpt lat="45.14968" lon="5.79787">
        <ele>699.2</ele>
        <time>2019-11-13T13:36:05.000Z</time>
      </trkpt>
      <trkpt lat="45.14977" lon="5.79766">
        <ele>700.97</ele>
        <time>2019-11-13T13:36:10.000Z</time>
      </trkpt>
      <trkpt lat="45.14986" lon="5.79743">
        <ele>703.07</ele>
        <time>2019-11-13T13:36:15.000Z</time>
      </trkpt>
      <trkpt lat="45.14995" lon="5.79724">
        <ele>703.98</ele>
        <time>2019-11-13T13:36:20.000Z</time>
      </trkpt>
      <trkpt lat="45.15003" lon="5.79701">
        <ele>707.26</ele>
        <time>2019-11-13T13:36:25.000Z</time>
      </trkpt>
      <trkpt lat="45.1501" lon="5.79678">
        <ele>708.72</ele>
        <time>2019-11-13T13:36:30.000Z</time>
      </trkpt>
      <trkpt lat="45.15018" lon="5.79657">
        <ele>709.83</ele>
        <time>2019-11-13T13:36:35.000Z</time>
      </trkpt>
      <trkpt lat="45.15027" lon="5.79638">
        <ele>710.17</ele>
        <time>2019-11-13T13:36:40.000Z</time>
      </trkpt>
      <trkpt lat="45.15037" lon="5.79621">
        <ele>712.25</ele>
        <time>2019-11-13T13:36:45.000Z</time>
      </trkpt>
      <trkpt lat="45.15047" lon="5.79604">
        <ele>712.86</ele>
        <time>2019-11-13T13:36:50.000Z</time>
      </trkpt>
      <trkpt lat="45.15059" lon="5.79586">
        <ele>713.07</ele>
        <time>2019-11-13T13:36:55.000Z</time>
      </trkpt>
      <trkpt lat="45.15068" lon="5.79568">
        <ele>714.08</ele>
        <time>2019-11-13T13:37:00.000Z</time>
      </trkpt>
      <trkpt lat="45.15077" lon="5.79548">
        <ele>717.21</ele>
        <time>2019-11-13T13:37:05.000Z</time>
      </trkpt>
      <trkpt lat="45.15087" lon="5.79528">
        <ele>719.41</ele>
        <time>2019-11-13T13:37:10.000Z</time>
      </trkpt>
      <trkpt lat="45.15096" lon="5.79506">
        <ele>725.83</ele>
        <time>2019-11-13T13:37:15.000Z</time>
      </trkpt>
      <trkpt lat="45.15105" lon="5.79487">
        <ele>725.36</ele>
        <time>2019-11-13T13:37:20.000Z</time>
      </trkpt>
      <trkpt lat="45.15114" lon="5.79466">
        <ele>723.64</ele>
        <time>2019-11-13T13:37:25.000Z</time>
      </trkpt>
      <trkpt lat="45.15123" lon="5.79445">
        <ele>727.48</ele>
        <time>2019-11-13T13:37:30.000Z</time>
      </trkpt>
      <trkpt lat="45.15133" lon="5.79425">
        <ele>730.6</ele>
        <time>2019-11-13T13:37:35.000Z</time>
      </trkpt>
      <trkpt lat="45.15145" lon="5.79406">
        <ele>733.26</ele>
        <time>2019-11-13T13:37:40.000Z</time>
      </trkpt>
      <trkpt lat="45.15158" lon="5.79389">
        <ele>734.85</ele>
        <time>2019-11-13T13:37:45.000Z</time>
      </trkpt>
      <trkpt lat="45.1517" lon="5.79379">
        <ele>738.58</ele>
        <time>2019-11-13T13:37:50.000Z</time>
      </trkpt>
      <trkpt lat="45.15185" lon="5.7937">
        <ele>739.8</ele>
        <time>2019-11-13T13:37:55.000Z</time>
      </trkpt>
      <trkpt lat="45.15201" lon="5.79362">
        <ele>743.03</ele>
        <time>2019-11-13T13:38:00.000Z</time>
      </trkpt>
      <trkpt lat="45.15219" lon="5.79352">
        <ele>746.09</ele>
        <time>2019-11-13T13:38:05.000Z</time>
      </trkpt>
      <trkpt lat="45.15228" lon="5.7935">
        <ele>745.51</ele>
        <time>2019-11-13T13:38:10.000Z</time>
      </trkpt>
      <trkpt lat="45.15235" lon="5.79357">
        <ele>748.42</ele>
        <time>2019-11-13T13:39:53.000Z</time>
      </trkpt>
      <trkpt lat="45.15248" lon="5.79374">
        <ele>748.81</ele>
        <time>2019-11-13T13:39:58.000Z</time>
      </trkpt>
      <trkpt lat="45.15244" lon="5.79397">
        <ele>750.38</ele>
        <time>2019-11-13T13:40:03.000Z</time>
      </trkpt>
      <trkpt lat="45.15231" lon="5.79424">
        <ele>753.22</ele>
        <time>2019-11-13T13:40:08.000Z</time>
      </trkpt>
      <trkpt lat="45.1522" lon="5.79452">
        <ele>751.82</ele>
        <time>2019-11-13T13:40:13.000Z</time>
      </trkpt>
      <trkpt lat="45.1521" lon="5.79476">
        <ele>754.37</ele>
        <time>2019-11-13T13:40:18.000Z</time>
      </trkpt>
      <trkpt lat="45.15203" lon="5.79498">
        <ele>754.02</ele>
        <time>2019-11-13T13:40:23.000Z</time>
      </trkpt>
      <trkpt lat="45.15196" lon="5.79519">
        <ele>757.55</ele>
        <time>2019-11-13T13:40:28.000Z</time>
      </trkpt>
      <trkpt lat="45.15189" lon="5.7954">
        <ele>760.02</ele>
        <time>2019-11-13T13:40:33.000Z</time>
      </trkpt>
      <trkpt lat="45.15196" lon="5.7956">
        <ele>759.51</ele>
        <time>2019-11-13T13:40:38.000Z</time>
      </trkpt>
      <trkpt lat="45.15216" lon="5.7956">
        <ele>758.82</ele>
        <time>2019-11-13T13:40:43.000Z</time>
      </trkpt>
      <trkpt lat="45.15232" lon="5.79546">
        <ele>759.93</ele>
        <time>2019-11-13T13:40:48.000Z</time>
      </trkpt>
      <trkpt lat="45.15246" lon="5.79536">
        <ele>760.35</ele>
        <time>2019-11-13T13:40:53.000Z</time>
      </trkpt>
      <trkpt lat="45.15261" lon="5.79523">
        <ele>765.08</ele>
        <time>2019-11-13T13:40:58.000Z</time>
      </trkpt>
      <trkpt lat="45.15278" lon="5.79512">
        <ele>766.08</ele>
        <time>2019-11-13T13:41:03.000Z</time>
      </trkpt>
      <trkpt lat="45.15296" lon="5.795">
        <ele>768.76</ele>
        <time>2019-11-13T13:41:08.000Z</time>
      </trkpt>
      <trkpt lat="45.15311" lon="5.79489">
        <ele>770.32</ele>
        <time>2019-11-13T13:41:13.000Z</time>
      </trkpt>
      <trkpt lat="45.15325" lon="5.79475">
        <ele>771.73</ele>
        <time>2019-11-13T13:41:18.000Z</time>
      </trkpt>
      <trkpt lat="45.15339" lon="5.79463">
        <ele>771.9</ele>
        <time>2019-11-13T13:41:23.000Z</time>
      </trkpt>
      <trkpt lat="45.15353" lon="5.7945">
        <ele>775.42</ele>
        <time>2019-11-13T13:41:28.000Z</time>
      </trkpt>
      <trkpt lat="45.15367" lon="5.79437">
        <ele>774.26</ele>
        <time>2019-11-13T13:41:33.000Z</time>
      </trkpt>
      <trkpt lat="45.1538" lon="5.79423">
        <ele>777.46</ele>
        <time>2019-11-13T13:41:38.000Z</time>
      </trkpt>
      <trkpt lat="45.15395" lon="5.7941">
        <ele>774.04</ele>
        <time>2019-11-13T13:41:43.000Z</time>
      </trkpt>
      <trkpt lat="45.15409" lon="5.79394">
        <ele>776.43</ele>
        <time>2019-11-13T13:41:48.000Z</time>
      </trkpt>
      <trkpt lat="45.15422" lon="5.7938">
        <ele>777.24</ele>
        <time>2019-11-13T13:41:53.000Z</time>
      </trkpt>
      <trkpt lat="45.15436" lon="5.79365">
        <ele>778.76</ele>
        <time>2019-11-13T13:41:58.000Z</time>
      </trkpt>
      <trkpt lat="45.15447" lon="5.79349">
        <ele>778.49</ele>
        <time>2019-11-13T13:42:03.000Z</time>
      </trkpt>
      <trkpt lat="45.15458" lon="5.79331">
        <ele>778.42</ele>
        <time>2019-11-13T13:42:08.000Z</time>
      </trkpt>
      <trkpt lat="45.15466" lon="5.79313">
        <ele>777.2</ele>
        <time>2019-11-13T13:42:13.000Z</time>
      </trkpt>
      <trkpt lat="45.15469" lon="5.79293">
        <ele>773.94</ele>
        <time>2019-11-13T13:42:18.000Z</time>
      </trkpt>
      <trkpt lat="45.15473" lon="5.79272">
        <ele>773.84</ele>
        <time>2019-11-13T13:42:23.000Z</time>
      </trkpt>
      <trkpt lat="45.15481" lon="5.79249">
        <ele>776.56</ele>
        <time>2019-11-13T13:42:28.000Z</time>
      </trkpt>
      <trkpt lat="45.15484" lon="5.79232">
        <ele>781.88</ele>
        <time>2019-11-13T13:42:33.000Z</time>
      </trkpt>
      <trkpt lat="45.15476" lon="5.79224">
        <ele>794.62</ele>
        <time>2019-11-13T13:47:26.000Z</time>
      </trkpt>
      <trkpt lat="45.15464" lon="5.7922">
        <ele>793.55</ele>
        <time>2019-11-13T13:47:36.000Z</time>
      </trkpt>
      <trkpt lat="45.15441" lon="5.79194">
        <ele>788.73</ele>
        <time>2019-11-13T13:47:41.000Z</time>
      </trkpt>
      <trkpt lat="45.15416" lon="5.79168">
        <ele>789.78</ele>
        <time>2019-11-13T13:47:46.000Z</time>
      </trkpt>
      <trkpt lat="45.15404" lon="5.79123">
        <ele>788.56</ele>
        <time>2019-11-13T13:47:51.000Z</time>
      </trkpt>
      <trkpt lat="45.15405" lon="5.79082">
        <ele>781.56</ele>
        <time>2019-11-13T13:47:56.000Z</time>
      </trkpt>
      <trkpt lat="45.15377" lon="5.79049">
        <ele>778.43</ele>
        <time>2019-11-13T13:48:01.000Z</time>
      </trkpt>
      <trkpt lat="45.15341" lon="5.79016">
        <ele>775.43</ele>
        <time>2019-11-13T13:48:06.000Z</time>
      </trkpt>
      <trkpt lat="45.15293" lon="5.7902">
        <ele>772.05</ele>
        <time>2019-11-13T13:48:11.000Z</time>
      </trkpt>
      <trkpt lat="45.15247" lon="5.79026">
        <ele>771.43</ele>
        <time>2019-11-13T13:48:16.000Z</time>
      </trkpt>
      <trkpt lat="45.15223" lon="5.78978">
        <ele>768.24</ele>
        <time>2019-11-13T13:48:21.000Z</time>
      </trkpt>
      <trkpt lat="45.15204" lon="5.78906">
        <ele>761.18</ele>
        <time>2019-11-13T13:48:26.000Z</time>
      </trkpt>
      <trkpt lat="45.15174" lon="5.78827">
        <ele>756.52</ele>
        <time>2019-11-13T13:48:31.000Z</time>
      </trkpt>
      <trkpt lat="45.15147" lon="5.78742">
        <ele>745.6</ele>
        <time>2019-11-13T13:48:36.000Z</time>
      </trkpt>
      <trkpt lat="45.15105" lon="5.78669">
        <ele>739.77</ele>
        <time>2019-11-13T13:48:41.000Z</time>
      </trkpt>
      <trkpt lat="45.15059" lon="5.78606">
        <ele>735.54</ele>
        <time>2019-11-13T13:48:46.000Z</time>
      </trkpt>
      <trkpt lat="45.15013" lon="5.78542">
        <ele>731.66</ele>
        <time>2019-11-13T13:48:51.000Z</time>
      </trkpt>
      <trkpt lat="45.14982" lon="5.78481">
        <ele>727.16</ele>
        <time>2019-11-13T13:48:56.000Z</time>
      </trkpt>
      <trkpt lat="45.14958" lon="5.78412">
        <ele>724.24</ele>
        <time>2019-11-13T13:49:01.000Z</time>
      </trkpt>
      <trkpt lat="45.14933" lon="5.78351">
        <ele>718.07</ele>
        <time>2019-11-13T13:49:06.000Z</time>
      </trkpt>
      <trkpt lat="45.14912" lon="5.7829">
        <ele>709.96</ele>
        <time>2019-11-13T13:49:11.000Z</time>
      </trkpt>
      <trkpt lat="45.14934" lon="5.78247">
        <ele>704.71</ele>
        <time>2019-11-13T13:49:16.000Z</time>
      </trkpt>
      <trkpt lat="45.14973" lon="5.78211">
        <ele>704.47</ele>
        <time>2019-11-13T13:49:21.000Z</time>
      </trkpt>
      <trkpt lat="45.15014" lon="5.78189">
        <ele>701.78</ele>
        <time>2019-11-13T13:49:26.000Z</time>
      </trkpt>
      <trkpt lat="45.15063" lon="5.78201">
        <ele>697.23</ele>
        <time>2019-11-13T13:49:31.000Z</time>
      </trkpt>
      <trkpt lat="45.15116" lon="5.78187">
        <ele>691.37</ele>
        <time>2019-11-13T13:49:36.000Z</time>
      </trkpt>
      <trkpt lat="45.15168" lon="5.78147">
        <ele>689.33</ele>
        <time>2019-11-13T13:49:41.000Z</time>
      </trkpt>
      <trkpt lat="45.15208" lon="5.78119">
        <ele>686.53</ele>
        <time>2019-11-13T13:49:46.000Z</time>
      </trkpt>
      <trkpt lat="45.15194" lon="5.78055">
        <ele>684.67</ele>
        <time>2019-11-13T13:49:51.000Z</time>
      </trkpt>
      <trkpt lat="45.15189" lon="5.77986">
        <ele>676.64</ele>
        <time>2019-11-13T13:49:56.000Z</time>
      </trkpt>
      <trkpt lat="45.15181" lon="5.77917">
        <ele>667.9</ele>
        <time>2019-11-13T13:50:01.000Z</time>
      </trkpt>
      <trkpt lat="45.15171" lon="5.77852">
        <ele>663.25</ele>
        <time>2019-11-13T13:50:06.000Z</time>
      </trkpt>
      <trkpt lat="45.1519" lon="5.7779">
        <ele>656.75</ele>
        <time>2019-11-13T13:50:11.000Z</time>
      </trkpt>
      <trkpt lat="45.15226" lon="5.77745">
        <ele>654.37</ele>
        <time>2019-11-13T13:50:16.000Z</time>
      </trkpt>
      <trkpt lat="45.1527" lon="5.77717">
        <ele>651.5</ele>
        <time>2019-11-13T13:50:21.000Z</time>
      </trkpt>
      <trkpt lat="45.15293" lon="5.77659">
        <ele>645.58</ele>
        <time>2019-11-13T13:50:26.000Z</time>
      </trkpt>
      <trkpt lat="45.15311" lon="5.77596">
        <ele>638.6</ele>
        <time>2019-11-13T13:50:31.000Z</time>
      </trkpt>
      <trkpt lat="45.15315" lon="5.77585">
        <ele>630.37</ele>
        <time>2019-11-13T13:50:46.000Z</time>
      </trkpt>
      <trkpt lat="45.15322" lon="5.77574">
        <ele>629.67</ele>
        <time>2019-11-13T13:51:08.000Z</time>
      </trkpt>
      <trkpt lat="45.1534" lon="5.7755">
        <ele>627.31</ele>
        <time>2019-11-13T13:51:13.000Z</time>
      </trkpt>
      <trkpt lat="45.15366" lon="5.77527">
        <ele>623.22</ele>
        <time>2019-11-13T13:51:18.000Z</time>
      </trkpt>
      <trkpt lat="45.15408" lon="5.77512">
        <ele>621.94</ele>
        <time>2019-11-13T13:51:23.000Z</time>
      </trkpt>
      <trkpt lat="45.15458" lon="5.77507">
        <ele>616.19</ele>
        <time>2019-11-13T13:51:28.000Z</time>
      </trkpt>
      <trkpt lat="45.15505" lon="5.77509">
        <ele>611.86</ele>
        <time>2019-11-13T13:51:33.000Z</time>
      </trkpt>
      <trkpt lat="45.15548" lon="5.77531">
        <ele>610.42</ele>
        <time>2019-11-13T13:51:38.000Z</time>
      </trkpt>
      <trkpt lat="45.15594" lon="5.77544">
        <ele>605.35</ele>
        <time>2019-11-13T13:51:43.000Z</time>
      </trkpt>
      <trkpt lat="45.15637" lon="5.77549">
        <ele>600.08</ele>
        <time>2019-11-13T13:51:48.000Z</time>
      </trkpt>
      <trkpt lat="45.15671" lon="5.77548">
        <ele>598.99</ele>
        <time>2019-11-13T13:51:53.000Z</time>
      </trkpt>
      <trkpt lat="45.15703" lon="5.77582">
        <ele>593.03</ele>
        <time>2019-11-13T13:51:58.000Z</time>
      </trkpt>
      <trkpt lat="45.15731" lon="5.77624">
        <ele>587.72</ele>
        <time>2019-11-13T13:52:03.000Z</time>
      </trkpt>
      <trkpt lat="45.15768" lon="5.77648">
        <ele>586.54</ele>
        <time>2019-11-13T13:52:08.000Z</time>
      </trkpt>
      <trkpt lat="45.15809" lon="5.77682">
        <ele>579.32</ele>
        <time>2019-11-13T13:52:13.000Z</time>
      </trkpt>
      <trkpt lat="45.15848" lon="5.77707">
        <ele>576.42</ele>
        <time>2019-11-13T13:52:18.000Z</time>
      </trkpt>
      <trkpt lat="45.15887" lon="5.77743">
        <ele>566.42</ele>
        <time>2019-11-13T13:52:23.000Z</time>
      </trkpt>
      <trkpt lat="45.15917" lon="5.77788">
        <ele>560.97</ele>
        <time>2019-11-13T13:52:28.000Z</time>
      </trkpt>
      <trkpt lat="45.15956" lon="5.7782">
        <ele>560.59</ele>
        <time>2019-11-13T13:52:33.000Z</time>
      </trkpt>
      <trkpt lat="45.15986" lon="5.7788">
        <ele>552.16</ele>
        <time>2019-11-13T13:52:38.000Z</time>
      </trkpt>
      <trkpt lat="45.1602" lon="5.7794">
        <ele>546.87</ele>
        <time>2019-11-13T13:52:43.000Z</time>
      </trkpt>
      <trkpt lat="45.16038" lon="5.78013">
        <ele>548.55</ele>
        <time>2019-11-13T13:52:48.000Z</time>
      </trkpt>
      <trkpt lat="45.16044" lon="5.78082">
        <ele>548.4</ele>
        <time>2019-11-13T13:52:53.000Z</time>
      </trkpt>
      <trkpt lat="45.16035" lon="5.78143">
        <ele>547.56</ele>
        <time>2019-11-13T13:52:58.000Z</time>
      </trkpt>
      <trkpt lat="45.1602" lon="5.78204">
        <ele>544.42</ele>
        <time>2019-11-13T13:53:03.000Z</time>
      </trkpt>
      <trkpt lat="45.16027" lon="5.78258">
        <ele>541.78</ele>
        <time>2019-11-13T13:53:08.000Z</time>
      </trkpt>
      <trkpt lat="45.16043" lon="5.7831">
        <ele>542.31</ele>
        <time>2019-11-13T13:53:13.000Z</time>
      </trkpt>
      <trkpt lat="45.16036" lon="5.78364">
        <ele>539.3</ele>
        <time>2019-11-13T13:53:18.000Z</time>
      </trkpt>
      <trkpt lat="45.16036" lon="5.78405">
        <ele>538.86</ele>
        <time>2019-11-13T13:53:23.000Z</time>
      </trkpt>
      <trkpt lat="45.16063" lon="5.78411">
        <ele>538.57</ele>
        <time>2019-11-13T13:53:28.000Z</time>
      </trkpt>
      <trkpt lat="45.16084" lon="5.78419">
        <ele>537.86</ele>
        <time>2019-11-13T13:53:33.000Z</time>
      </trkpt>
      <trkpt lat="45.16104" lon="5.78441">
        <ele>535.13</ele>
        <time>2019-11-13T13:53:38.000Z</time>
      </trkpt>
      <trkpt lat="45.16122" lon="5.78476">
        <ele>532.36</ele>
        <time>2019-11-13T13:53:43.000Z</time>
      </trkpt>
      <trkpt lat="45.16136" lon="5.78514">
        <ele>530.19</ele>
        <time>2019-11-13T13:53:48.000Z</time>
      </trkpt>
      <trkpt lat="45.16149" lon="5.78553">
        <ele>532.11</ele>
        <time>2019-11-13T13:53:53.000Z</time>
      </trkpt>
      <trkpt lat="45.16173" lon="5.78593">
        <ele>533.93</ele>
        <time>2019-11-13T13:53:58.000Z</time>
      </trkpt>
      <trkpt lat="45.16176" lon="5.78639">
        <ele>531.61</ele>
        <time>2019-11-13T13:54:03.000Z</time>
      </trkpt>
      <trkpt lat="45.16174" lon="5.78691">
        <ele>532.88</ele>
        <time>2019-11-13T13:54:08.000Z</time>
      </trkpt>
      <trkpt lat="45.16184" lon="5.78734">
        <ele>532.41</ele>
        <time>2019-11-13T13:54:13.000Z</time>
      </trkpt>
      <trkpt lat="45.16212" lon="5.78769">
        <ele>531.76</ele>
        <time>2019-11-13T13:54:18.000Z</time>
      </trkpt>
      <trkpt lat="45.1625" lon="5.78764">
        <ele>530.47</ele>
        <time>2019-11-13T13:54:23.000Z</time>
      </trkpt>
      <trkpt lat="45.16283" lon="5.78735">
        <ele>529.28</ele>
        <time>2019-11-13T13:54:28.000Z</time>
      </trkpt>
      <trkpt lat="45.16299" lon="5.7869">
        <ele>531.08</ele>
        <time>2019-11-13T13:54:33.000Z</time>
      </trkpt>
      <trkpt lat="45.1631" lon="5.78643">
        <ele>529.68</ele>
        <time>2019-11-13T13:54:38.000Z</time>
      </trkpt>
      <trkpt lat="45.16321" lon="5.78595">
        <ele>529.22</ele>
        <time>2019-11-13T13:54:43.000Z</time>
      </trkpt>
      <trkpt lat="45.16332" lon="5.78548">
        <ele>529.31</ele>
        <time>2019-11-13T13:54:48.000Z</time>
      </trkpt>
      <trkpt lat="45.16348" lon="5.78505">
        <ele>526.4</ele>
        <time>2019-11-13T13:54:53.000Z</time>
      </trkpt>
      <trkpt lat="45.16363" lon="5.78459">
        <ele>527.2</ele>
        <time>2019-11-13T13:54:58.000Z</time>
      </trkpt>
      <trkpt lat="45.16378" lon="5.78414">
        <ele>525.37</ele>
        <time>2019-11-13T13:55:03.000Z</time>
      </trkpt>
      <trkpt lat="45.16383" lon="5.78376">
        <ele>526.32</ele>
        <time>2019-11-13T13:55:08.000Z</time>
      </trkpt>
      <trkpt lat="45.16385" lon="5.78364">
        <ele>525.2</ele>
        <time>2019-11-13T13:55:13.000Z</time>
      </trkpt>
      <trkpt lat="45.16377" lon="5.78354">
        <ele>521.81</ele>
        <time>2019-11-13T13:56:03.000Z</time>
      </trkpt>
      <trkpt lat="45.16371" lon="5.78326">
        <ele>515.1</ele>
        <time>2019-11-13T13:56:08.000Z</time>
      </trkpt>
      <trkpt lat="45.16378" lon="5.78285">
        <ele>513.4</ele>
        <time>2019-11-13T13:56:13.000Z</time>
      </trkpt>
      <trkpt lat="45.16395" lon="5.78238">
        <ele>511.17</ele>
        <time>2019-11-13T13:56:18.000Z</time>
      </trkpt>
      <trkpt lat="45.16422" lon="5.78199">
        <ele>507.9</ele>
        <time>2019-11-13T13:56:23.000Z</time>
      </trkpt>
      <trkpt lat="45.16462" lon="5.78175">
        <ele>509.34</ele>
        <time>2019-11-13T13:56:28.000Z</time>
      </trkpt>
      <trkpt lat="45.16489" lon="5.78144">
        <ele>506.09</ele>
        <time>2019-11-13T13:56:33.000Z</time>
      </trkpt>
      <trkpt lat="45.16502" lon="5.78079">
        <ele>507.39</ele>
        <time>2019-11-13T13:56:38.000Z</time>
      </trkpt>
      <trkpt lat="45.16521" lon="5.78018">
        <ele>500.4</ele>
        <time>2019-11-13T13:56:43.000Z</time>
      </trkpt>
      <trkpt lat="45.16556" lon="5.77981">
        <ele>497.01</ele>
        <time>2019-11-13T13:56:48.000Z</time>
      </trkpt>
      <trkpt lat="45.16605" lon="5.77982">
        <ele>481.54</ele>
        <time>2019-11-13T13:56:53.000Z</time>
      </trkpt>
      <trkpt lat="45.16643" lon="5.77962">
        <ele>476.8</ele>
        <time>2019-11-13T13:56:58.000Z</time>
      </trkpt>
      <trkpt lat="45.16659" lon="5.78012">
        <ele>477.23</ele>
        <time>2019-11-13T13:57:03.000Z</time>
      </trkpt>
      <trkpt lat="45.16697" lon="5.7802">
        <ele>476.19</ele>
        <time>2019-11-13T13:57:08.000Z</time>
      </trkpt>
      <trkpt lat="45.1674" lon="5.78021">
        <ele>471.47</ele>
        <time>2019-11-13T13:57:13.000Z</time>
      </trkpt>
      <trkpt lat="45.16785" lon="5.78063">
        <ele>466.96</ele>
        <time>2019-11-13T13:57:18.000Z</time>
      </trkpt>
      <trkpt lat="45.16831" lon="5.78112">
        <ele>459.96</ele>
        <time>2019-11-13T13:57:23.000Z</time>
      </trkpt>
      <trkpt lat="45.16886" lon="5.78124">
        <ele>456.35</ele>
        <time>2019-11-13T13:57:28.000Z</time>
      </trkpt>
      <trkpt lat="45.1693" lon="5.78174">
        <ele>450.96</ele>
        <time>2019-11-13T13:57:33.000Z</time>
      </trkpt>
      <trkpt lat="45.16984" lon="5.78191">
        <ele>444.62</ele>
        <time>2019-11-13T13:57:38.000Z</time>
      </trkpt>
      <trkpt lat="45.17031" lon="5.78207">
        <ele>436.82</ele>
        <time>2019-11-13T13:57:43.000Z</time>
      </trkpt>
      <trkpt lat="45.17076" lon="5.78194">
        <ele>433.58</ele>
        <time>2019-11-13T13:57:48.000Z</time>
      </trkpt>
      <trkpt lat="45.17105" lon="5.78175">
        <ele>431.27</ele>
        <time>2019-11-13T13:57:53.000Z</time>
      </trkpt>
      <trkpt lat="45.17123" lon="5.78172">
        <ele>429.16</ele>
        <time>2019-11-13T13:57:58.000Z</time>
      </trkpt>
      <trkpt lat="45.17141" lon="5.78205">
        <ele>426.12</ele>
        <time>2019-11-13T13:58:03.000Z</time>
      </trkpt>
      <trkpt lat="45.17168" lon="5.78239">
        <ele>424.62</ele>
        <time>2019-11-13T13:58:08.000Z</time>
      </trkpt>
      <trkpt lat="45.17201" lon="5.7826">
        <ele>421.99</ele>
        <time>2019-11-13T13:58:13.000Z</time>
      </trkpt>
      <trkpt lat="45.1724" lon="5.78251">
        <ele>423.8</ele>
        <time>2019-11-13T13:58:18.000Z</time>
      </trkpt>
      <trkpt lat="45.17259" lon="5.78235">
        <ele>423.92</ele>
        <time>2019-11-13T13:58:23.000Z</time>
      </trkpt>
      <trkpt lat="45.17271" lon="5.78222">
        <ele>423.06</ele>
        <time>2019-11-13T13:58:28.000Z</time>
      </trkpt>
      <trkpt lat="45.17286" lon="5.78206">
        <ele>421.82</ele>
        <time>2019-11-13T13:58:33.000Z</time>
      </trkpt>
      <trkpt lat="45.173" lon="5.782">
        <ele>423.01</ele>
        <time>2019-11-13T13:58:38.000Z</time>
      </trkpt>
      <trkpt lat="45.17315" lon="5.78192">
        <ele>417.84</ele>
        <time>2019-11-13T13:58:43.000Z</time>
      </trkpt>
      <trkpt lat="45.17328" lon="5.78178">
        <ele>418.73</ele>
        <time>2019-11-13T13:58:48.000Z</time>
      </trkpt>
      <trkpt lat="45.17343" lon="5.78164">
        <ele>424.42</ele>
        <time>2019-11-13T13:58:53.000Z</time>
      </trkpt>
      <trkpt lat="45.17358" lon="5.78152">
        <ele>428.01</ele>
        <time>2019-11-13T13:58:58.000Z</time>
      </trkpt>
      <trkpt lat="45.17368" lon="5.78141">
        <ele>428.84</ele>
        <time>2019-11-13T13:59:03.000Z</time>
      </trkpt>
      <trkpt lat="45.17374" lon="5.7813">
        <ele>429.86</ele>
        <time>2019-11-13T13:59:10.000Z</time>
      </trkpt>
      <trkpt lat="45.17382" lon="5.78117">
        <ele>429.36</ele>
        <time>2019-11-13T13:59:15.000Z</time>
      </trkpt>
      <trkpt lat="45.17388" lon="5.78107">
        <ele>429.68</ele>
        <time>2019-11-13T13:59:20.000Z</time>
      </trkpt>
      <trkpt lat="45.1739" lon="5.78092">
        <ele>431.04</ele>
        <time>2019-11-13T13:59:25.000Z</time>
      </trkpt>
      <trkpt lat="45.17389" lon="5.78066">
        <ele>430.49</ele>
        <time>2019-11-13T13:59:30.000Z</time>
      </trkpt>
      <trkpt lat="45.1738" lon="5.7803">
        <ele>426.86</ele>
        <time>2019-11-13T13:59:35.000Z</time>
      </trkpt>
      <trkpt lat="45.17372" lon="5.78001">
        <ele>420.77</ele>
        <time>2019-11-13T13:59:40.000Z</time>
      </trkpt>
      <trkpt lat="45.17348" lon="5.77959">
        <ele>416.41</ele>
        <time>2019-11-13T13:59:45.000Z</time>
      </trkpt>
      <trkpt lat="45.17323" lon="5.77897">
        <ele>416.63</ele>
        <time>2019-11-13T13:59:50.000Z</time>
      </trkpt>
      <trkpt lat="45.17295" lon="5.77835">
        <ele>409.06</ele>
        <time>2019-11-13T13:59:55.000Z</time>
      </trkpt>
      <trkpt lat="45.17271" lon="5.77761">
        <ele>403.54</ele>
        <time>2019-11-13T14:00:00.000Z</time>
      </trkpt>
      <trkpt lat="45.17249" lon="5.77695">
        <ele>400.7</ele>
        <time>2019-11-13T14:00:05.000Z</time>
      </trkpt>
      <trkpt lat="45.17216" lon="5.77649">
        <ele>394.66</ele>
        <time>2019-11-13T14:00:10.000Z</time>
      </trkpt>
      <trkpt lat="45.17178" lon="5.77612">
        <ele>392</ele>
        <time>2019-11-13T14:00:15.000Z</time>
      </trkpt>
      <trkpt lat="45.17154" lon="5.77572">
        <ele>388.9</ele>
        <time>2019-11-13T14:00:20.000Z</time>
      </trkpt>
      <trkpt lat="45.17114" lon="5.77539">
        <ele>386.92</ele>
        <time>2019-11-13T14:00:25.000Z</time>
      </trkpt>
      <trkpt lat="45.17078" lon="5.77483">
        <ele>377.13</ele>
        <time>2019-11-13T14:00:30.000Z</time>
      </trkpt>
      <trkpt lat="45.17033" lon="5.77426">
        <ele>368.05</ele>
        <time>2019-11-13T14:00:35.000Z</time>
      </trkpt>
      <trkpt lat="45.16995" lon="5.77371">
        <ele>365.19</ele>
        <time>2019-11-13T14:00:40.000Z</time>
      </trkpt>
      <trkpt lat="45.16949" lon="5.77318">
        <ele>359.68</ele>
        <time>2019-11-13T14:00:45.000Z</time>
      </trkpt>
      <trkpt lat="45.16924" lon="5.77278">
        <ele>357.05</ele>
        <time>2019-11-13T14:00:50.000Z</time>
      </trkpt>
      <trkpt lat="45.16949" lon="5.77278">
        <ele>353.11</ele>
        <time>2019-11-13T14:00:55.000Z</time>
      </trkpt>
      <trkpt lat="45.16983" lon="5.77304">
        <ele>346.11</ele>
        <time>2019-11-13T14:01:00.000Z</time>
      </trkpt>
      <trkpt lat="45.17022" lon="5.77335">
        <ele>342.51</ele>
        <time>2019-11-13T14:01:05.000Z</time>
      </trkpt>
      <trkpt lat="45.17055" lon="5.77377">
        <ele>342.01</ele>
        <time>2019-11-13T14:01:10.000Z</time>
      </trkpt>
      <trkpt lat="45.17092" lon="5.77418">
        <ele>339.42</ele>
        <time>2019-11-13T14:01:15.000Z</time>
      </trkpt>
      <trkpt lat="45.17133" lon="5.77454">
        <ele>335.41</ele>
        <time>2019-11-13T14:01:20.000Z</time>
      </trkpt>
      <trkpt lat="45.17177" lon="5.77482">
        <ele>335.63</ele>
        <time>2019-11-13T14:01:25.000Z</time>
      </trkpt>
      <trkpt lat="45.17213" lon="5.77491">
        <ele>334.92</ele>
        <time>2019-11-13T14:01:30.000Z</time>
      </trkpt>
      <trkpt lat="45.17193" lon="5.77451">
        <ele>331.41</ele>
        <time>2019-11-13T14:01:35.000Z</time>
      </trkpt>
      <trkpt lat="45.17159" lon="5.77428">
        <ele>329.79</ele>
        <time>2019-11-13T14:01:40.000Z</time>
      </trkpt>
      <trkpt lat="45.17139" lon="5.77378">
        <ele>322.25</ele>
        <time>2019-11-13T14:01:45.000Z</time>
      </trkpt>
      <trkpt lat="45.17127" lon="5.77325">
        <ele>320.37</ele>
        <time>2019-11-13T14:01:50.000Z</time>
      </trkpt>
      <trkpt lat="45.17108" lon="5.7728">
        <ele>319.12</ele>
        <time>2019-11-13T14:01:55.000Z</time>
      </trkpt>
      <trkpt lat="45.17096" lon="5.77234">
        <ele>319.99</ele>
        <time>2019-11-13T14:02:00.000Z</time>
      </trkpt>
      <trkpt lat="45.17115" lon="5.77204">
        <ele>316.79</ele>
        <time>2019-11-13T14:02:05.000Z</time>
      </trkpt>
      <trkpt lat="45.17152" lon="5.77254">
        <ele>309.68</ele>
        <time>2019-11-13T14:02:10.000Z</time>
      </trkpt>
      <trkpt lat="45.17188" lon="5.77299">
        <ele>305.52</ele>
        <time>2019-11-13T14:02:15.000Z</time>
      </trkpt>
      <trkpt lat="45.17229" lon="5.77312">
        <ele>304.13</ele>
        <time>2019-11-13T14:02:20.000Z</time>
      </trkpt>
      <trkpt lat="45.17276" lon="5.77326">
        <ele>298.45</ele>
        <time>2019-11-13T14:02:25.000Z</time>
      </trkpt>
      <trkpt lat="45.17319" lon="5.77366">
        <ele>293.81</ele>
        <time>2019-11-13T14:02:30.000Z</time>
      </trkpt>
      <trkpt lat="45.17364" lon="5.77402">
        <ele>290.81</ele>
        <time>2019-11-13T14:02:35.000Z</time>
      </trkpt>
      <trkpt lat="45.17419" lon="5.77438">
        <ele>290.09</ele>
        <time>2019-11-13T14:02:40.000Z</time>
      </trkpt>
      <trkpt lat="45.17444" lon="5.77513">
        <ele>286.77</ele>
        <time>2019-11-13T14:02:45.000Z</time>
      </trkpt>
      <trkpt lat="45.17491" lon="5.77567">
        <ele>275.98</ele>
        <time>2019-11-13T14:02:50.000Z</time>
      </trkpt>
      <trkpt lat="45.17526" lon="5.77616">
        <ele>272.04</ele>
        <time>2019-11-13T14:02:55.000Z</time>
      </trkpt>
      <trkpt lat="45.17554" lon="5.77657">
        <ele>269.24</ele>
        <time>2019-11-13T14:03:00.000Z</time>
      </trkpt>
      <trkpt lat="45.17585" lon="5.77712">
        <ele>266.94</ele>
        <time>2019-11-13T14:03:05.000Z</time>
      </trkpt>
      <trkpt lat="45.17604" lon="5.7778">
        <ele>267.35</ele>
        <time>2019-11-13T14:03:10.000Z</time>
      </trkpt>
      <trkpt lat="45.17627" lon="5.77848">
        <ele>261.58</ele>
        <time>2019-11-13T14:03:15.000Z</time>
      </trkpt>
      <trkpt lat="45.17653" lon="5.7789">
        <ele>257.58</ele>
        <time>2019-11-13T14:03:20.000Z</time>
      </trkpt>
      <trkpt lat="45.17677" lon="5.7794">
        <ele>253.78</ele>
        <time>2019-11-13T14:03:25.000Z</time>
      </trkpt>
      <trkpt lat="45.17694" lon="5.78">
        <ele>252.07</ele>
        <time>2019-11-13T14:03:30.000Z</time>
      </trkpt>
      <trkpt lat="45.17719" lon="5.78058">
        <ele>249.45</ele>
        <time>2019-11-13T14:03:35.000Z</time>
      </trkpt>
      <trkpt lat="45.17751" lon="5.78114">
        <ele>242.25</ele>
        <time>2019-11-13T14:03:40.000Z</time>
      </trkpt>
      <trkpt lat="45.17784" lon="5.78156">
        <ele>238.22</ele>
        <time>2019-11-13T14:03:45.000Z</time>
      </trkpt>
      <trkpt lat="45.17794" lon="5.78215">
        <ele>233.68</ele>
        <time>2019-11-13T14:03:50.000Z</time>
      </trkpt>
      <trkpt lat="45.17805" lon="5.78269">
        <ele>229.26</ele>
        <time>2019-11-13T14:03:55.000Z</time>
      </trkpt>
      <trkpt lat="45.17827" lon="5.78309">
        <ele>226.69</ele>
        <time>2019-11-13T14:04:00.000Z</time>
      </trkpt>
      <trkpt lat="45.17837" lon="5.78348">
        <ele>226.52</ele>
        <time>2019-11-13T14:04:05.000Z</time>
      </trkpt>
      <trkpt lat="45.1785" lon="5.78381">
        <ele>227.03</ele>
        <time>2019-11-13T14:04:10.000Z</time>
      </trkpt>
      <trkpt lat="45.17859" lon="5.78414">
        <ele>224.62</ele>
        <time>2019-11-13T14:04:15.000Z</time>
      </trkpt>
      <trkpt lat="45.17867" lon="5.78445">
        <ele>219.12</ele>
        <time>2019-11-13T14:04:20.000Z</time>
      </trkpt>
      <trkpt lat="45.17872" lon="5.78477">
        <ele>216.92</ele>
        <time>2019-11-13T14:04:25.000Z</time>
      </trkpt>
      <trkpt lat="45.1787" lon="5.78513">
        <ele>216.33</ele>
        <time>2019-11-13T14:04:30.000Z</time>
      </trkpt>
      <trkpt lat="45.1787" lon="5.78539">
        <ele>217.86</ele>
        <time>2019-11-13T14:04:35.000Z</time>
      </trkpt>
      <trkpt lat="45.17873" lon="5.78565">
        <ele>219.07</ele>
        <time>2019-11-13T14:04:40.000Z</time>
      </trkpt>
      <trkpt lat="45.17875" lon="5.78591">
        <ele>219.12</ele>
        <time>2019-11-13T14:04:45.000Z</time>
      </trkpt>
      <trkpt lat="45.17877" lon="5.78617">
        <ele>220.35</ele>
        <time>2019-11-13T14:04:50.000Z</time>
      </trkpt>
      <trkpt lat="45.17878" lon="5.7864">
        <ele>220.89</ele>
        <time>2019-11-13T14:04:55.000Z</time>
      </trkpt>
      <trkpt lat="45.17879" lon="5.78663">
        <ele>220.63</ele>
        <time>2019-11-13T14:05:00.000Z</time>
      </trkpt>
      <trkpt lat="45.1788" lon="5.78689">
        <ele>223.54</ele>
        <time>2019-11-13T14:05:05.000Z</time>
      </trkpt>
      <trkpt lat="45.17879" lon="5.78718">
        <ele>220.3</ele>
        <time>2019-11-13T14:05:10.000Z</time>
      </trkpt>
      <trkpt lat="45.17879" lon="5.78745">
        <ele>222.42</ele>
        <time>2019-11-13T14:05:15.000Z</time>
      </trkpt>
      <trkpt lat="45.17878" lon="5.78775">
        <ele>224.25</ele>
        <time>2019-11-13T14:05:20.000Z</time>
      </trkpt>
      <trkpt lat="45.17876" lon="5.78807">
        <ele>225.77</ele>
        <time>2019-11-13T14:05:25.000Z</time>
      </trkpt>
      <trkpt lat="45.17879" lon="5.78838">
        <ele>230.7</ele>
        <time>2019-11-13T14:05:30.000Z</time>
      </trkpt>
      <trkpt lat="45.17875" lon="5.78864">
        <ele>229.53</ele>
        <time>2019-11-13T14:05:35.000Z</time>
      </trkpt>
      <trkpt lat="45.17883" lon="5.78887">
        <ele>232.46</ele>
        <time>2019-11-13T14:05:40.000Z</time>
      </trkpt>
      <trkpt lat="45.17892" lon="5.78908">
        <ele>232.36</ele>
        <time>2019-11-13T14:05:45.000Z</time>
      </trkpt>
      <trkpt lat="45.17894" lon="5.78921">
        <ele>236.49</ele>
        <time>2019-11-13T14:05:53.000Z</time>
      </trkpt>
      <trkpt lat="45.17899" lon="5.78938">
        <ele>236.53</ele>
        <time>2019-11-13T14:05:58.000Z</time>
      </trkpt>
      <trkpt lat="45.17908" lon="5.78952">
        <ele>234.73</ele>
        <time>2019-11-13T14:06:03.000Z</time>
      </trkpt>
      <trkpt lat="45.17919" lon="5.78972">
        <ele>236.92</ele>
        <time>2019-11-13T14:06:08.000Z</time>
      </trkpt>
      <trkpt lat="45.17929" lon="5.7899">
        <ele>237.06</ele>
        <time>2019-11-13T14:06:13.000Z</time>
      </trkpt>
      <trkpt lat="45.17933" lon="5.79004">
        <ele>238.44</ele>
        <time>2019-11-13T14:06:20.000Z</time>
      </trkpt>
      <trkpt lat="45.17941" lon="5.7902">
        <ele>237.73</ele>
        <time>2019-11-13T14:06:25.000Z</time>
      </trkpt>
      <trkpt lat="45.17952" lon="5.79038">
        <ele>236.74</ele>
        <time>2019-11-13T14:06:30.000Z</time>
      </trkpt>
      <trkpt lat="45.17967" lon="5.79052">
        <ele>238.67</ele>
        <time>2019-11-13T14:06:35.000Z</time>
      </trkpt>
      <trkpt lat="45.17987" lon="5.79079">
        <ele>239.35</ele>
        <time>2019-11-13T14:06:40.000Z</time>
      </trkpt>
      <trkpt lat="45.18012" lon="5.79092">
        <ele>236.55</ele>
        <time>2019-11-13T14:06:45.000Z</time>
      </trkpt>
      <trkpt lat="45.18033" lon="5.79103">
        <ele>234.73</ele>
        <time>2019-11-13T14:06:50.000Z</time>
      </trkpt>
      <trkpt lat="45.18056" lon="5.79113">
        <ele>232.77</ele>
        <time>2019-11-13T14:06:55.000Z</time>
      </trkpt>
      <trkpt lat="45.18074" lon="5.79126">
        <ele>228.65</ele>
        <time>2019-11-13T14:07:00.000Z</time>
      </trkpt>
      <trkpt lat="45.18101" lon="5.79136">
        <ele>226.35</ele>
        <time>2019-11-13T14:07:05.000Z</time>
      </trkpt>
      <trkpt lat="45.18121" lon="5.79145">
        <ele>231.96</ele>
        <time>2019-11-13T14:07:10.000Z</time>
      </trkpt>
      <trkpt lat="45.18141" lon="5.79155">
        <ele>230.95</ele>
        <time>2019-11-13T14:07:15.000Z</time>
      </trkpt>
      <trkpt lat="45.18157" lon="5.79163">
        <ele>230.34</ele>
        <time>2019-11-13T14:07:20.000Z</time>
      </trkpt>
      <trkpt lat="45.18165" lon="5.79172">
        <ele>231.81</ele>
        <time>2019-11-13T14:07:45.000Z</time>
      </trkpt>
      <trkpt lat="45.18181" lon="5.79193">
        <ele>231.08</ele>
        <time>2019-11-13T14:07:50.000Z</time>
      </trkpt>
      <trkpt lat="45.18191" lon="5.79214">
        <ele>228.85</ele>
        <time>2019-11-13T14:07:55.000Z</time>
      </trkpt>
      <trkpt lat="45.18207" lon="5.79231">
        <ele>229.76</ele>
        <time>2019-11-13T14:08:00.000Z</time>
      </trkpt>
      <trkpt lat="45.18223" lon="5.79223">
        <ele>233.12</ele>
        <time>2019-11-13T14:08:05.000Z</time>
      </trkpt>
      <trkpt lat="45.18239" lon="5.79209">
        <ele>228.99</ele>
        <time>2019-11-13T14:08:10.000Z</time>
      </trkpt>
      <trkpt lat="45.18262" lon="5.79196">
        <ele>228.03</ele>
        <time>2019-11-13T14:08:15.000Z</time>
      </trkpt>
      <trkpt lat="45.18288" lon="5.79182">
        <ele>231.39</ele>
        <time>2019-11-13T14:08:20.000Z</time>
      </trkpt>
      <trkpt lat="45.18315" lon="5.79168">
        <ele>231.82</ele>
        <time>2019-11-13T14:08:25.000Z</time>
      </trkpt>
      <trkpt lat="45.18337" lon="5.79153">
        <ele>235.36</ele>
        <time>2019-11-13T14:08:30.000Z</time>
      </trkpt>
      <trkpt lat="45.18361" lon="5.79135">
        <ele>237.51</ele>
        <time>2019-11-13T14:08:35.000Z</time>
      </trkpt>
      <trkpt lat="45.18375" lon="5.79105">
        <ele>239.2</ele>
        <time>2019-11-13T14:08:40.000Z</time>
      </trkpt>
      <trkpt lat="45.18392" lon="5.79083">
        <ele>237.11</ele>
        <time>2019-11-13T14:08:45.000Z</time>
      </trkpt>
      <trkpt lat="45.18407" lon="5.79063">
        <ele>229.79</ele>
        <time>2019-11-13T14:08:50.000Z</time>
      </trkpt>
      <trkpt lat="45.18427" lon="5.79062">
        <ele>229.78</ele>
        <time>2019-11-13T14:08:55.000Z</time>
      </trkpt>
      <trkpt lat="45.18443" lon="5.79061">
        <ele>232.49</ele>
        <time>2019-11-13T14:09:00.000Z</time>
      </trkpt>
      <trkpt lat="45.18473" lon="5.79057">
        <ele>230.76</ele>
        <time>2019-11-13T14:09:05.000Z</time>
      </trkpt>
      <trkpt lat="45.18495" lon="5.79054">
        <ele>228.71</ele>
        <time>2019-11-13T14:09:10.000Z</time>
      </trkpt>
      <trkpt lat="45.18502" lon="5.79077">
        <ele>225.54</ele>
        <time>2019-11-13T14:09:15.000Z</time>
      </trkpt>
      <trkpt lat="45.18507" lon="5.79104">
        <ele>224.49</ele>
        <time>2019-11-13T14:09:20.000Z</time>
      </trkpt>
      <trkpt lat="45.18514" lon="5.79132">
        <ele>222.96</ele>
        <time>2019-11-13T14:09:25.000Z</time>
      </trkpt>
      <trkpt lat="45.18527" lon="5.79157">
        <ele>221.39</ele>
        <time>2019-11-13T14:09:30.000Z</time>
      </trkpt>
      <trkpt lat="45.18543" lon="5.79183">
        <ele>219.01</ele>
        <time>2019-11-13T14:09:35.000Z</time>
      </trkpt>
      <trkpt lat="45.18557" lon="5.79212">
        <ele>217.31</ele>
        <time>2019-11-13T14:09:40.000Z</time>
      </trkpt>
      <trkpt lat="45.18549" lon="5.79242">
        <ele>217.05</ele>
        <time>2019-11-13T14:09:45.000Z</time>
      </trkpt>
      <trkpt lat="45.18543" lon="5.79267">
        <ele>217.43</ele>
        <time>2019-11-13T14:09:50.000Z</time>
      </trkpt>
      <trkpt lat="45.18538" lon="5.79297">
        <ele>216.43</ele>
        <time>2019-11-13T14:09:55.000Z</time>
      </trkpt>
      <trkpt lat="45.1853" lon="5.79331">
        <ele>216.28</ele>
        <time>2019-11-13T14:10:00.000Z</time>
      </trkpt>
      <trkpt lat="45.18523" lon="5.79364">
        <ele>216.06</ele>
        <time>2019-11-13T14:10:05.000Z</time>
      </trkpt>
      <trkpt lat="45.18523" lon="5.79398">
        <ele>215.35</ele>
        <time>2019-11-13T14:10:10.000Z</time>
      </trkpt>
      <trkpt lat="45.18526" lon="5.79434">
        <ele>216.82</ele>
        <time>2019-11-13T14:10:15.000Z</time>
      </trkpt>
      <trkpt lat="45.18529" lon="5.79465">
        <ele>212.94</ele>
        <time>2019-11-13T14:10:20.000Z</time>
      </trkpt>
      <trkpt lat="45.18536" lon="5.79496">
        <ele>211.12</ele>
        <time>2019-11-13T14:10:25.000Z</time>
      </trkpt>
      <trkpt lat="45.18545" lon="5.79526">
        <ele>209.15</ele>
        <time>2019-11-13T14:10:30.000Z</time>
      </trkpt>
      <trkpt lat="45.18559" lon="5.79559">
        <ele>208.38</ele>
        <time>2019-11-13T14:10:35.000Z</time>
      </trkpt>
      <trkpt lat="45.18562" lon="5.79597">
        <ele>206.91</ele>
        <time>2019-11-13T14:10:40.000Z</time>
      </trkpt>
      <trkpt lat="45.18568" lon="5.79629">
        <ele>204.12</ele>
        <time>2019-11-13T14:10:45.000Z</time>
      </trkpt>
      <trkpt lat="45.18564" lon="5.79673">
        <ele>209.3</ele>
        <time>2019-11-13T14:10:50.000Z</time>
      </trkpt>
      <trkpt lat="45.1856" lon="5.79709">
        <ele>206.38</ele>
        <time>2019-11-13T14:10:55.000Z</time>
      </trkpt>
      <trkpt lat="45.18557" lon="5.79751">
        <ele>204.22</ele>
        <time>2019-11-13T14:11:00.000Z</time>
      </trkpt>
      <trkpt lat="45.18556" lon="5.79789">
        <ele>205.5</ele>
        <time>2019-11-13T14:11:05.000Z</time>
      </trkpt>
      <trkpt lat="45.18552" lon="5.79822">
        <ele>209.68</ele>
        <time>2019-11-13T14:11:10.000Z</time>
      </trkpt>
      <trkpt lat="45.18551" lon="5.79857">
        <ele>207.42</ele>
        <time>2019-11-13T14:11:15.000Z</time>
      </trkpt>
      <trkpt lat="45.18552" lon="5.79887">
        <ele>207.74</ele>
        <time>2019-11-13T14:11:20.000Z</time>
      </trkpt>
      <trkpt lat="45.18555" lon="5.799">
        <ele>212</ele>
        <time>2019-11-13T14:12:00.000Z</time>
      </trkpt>
      <trkpt lat="45.1857" lon="5.79906">
        <ele>210.15</ele>
        <time>2019-11-13T14:12:05.000Z</time>
      </trkpt>
      <trkpt lat="45.1859" lon="5.79918">
        <ele>208.67</ele>
        <time>2019-11-13T14:12:10.000Z</time>
      </trkpt>
      <trkpt lat="45.18616" lon="5.79926">
        <ele>204.51</ele>
        <time>2019-11-13T14:12:15.000Z</time>
      </trkpt>
      <trkpt lat="45.18644" lon="5.79936">
        <ele>206.79</ele>
        <time>2019-11-13T14:12:20.000Z</time>
      </trkpt>
      <trkpt lat="45.18663" lon="5.79966">
        <ele>209.33</ele>
        <time>2019-11-13T14:12:25.000Z</time>
      </trkpt>
      <trkpt lat="45.18674" lon="5.80005">
        <ele>206.65</ele>
        <time>2019-11-13T14:12:30.000Z</time>
      </trkpt>
      <trkpt lat="45.18689" lon="5.80042">
        <ele>205.33</ele>
        <time>2019-11-13T14:12:35.000Z</time>
      </trkpt>
      <trkpt lat="45.18702" lon="5.80079">
        <ele>205.81</ele>
        <time>2019-11-13T14:12:40.000Z</time>
      </trkpt>
      <trkpt lat="45.18706" lon="5.80107">
        <ele>207.44</ele>
        <time>2019-11-13T14:12:45.000Z</time>
      </trkpt>
      <trkpt lat="45.18702" lon="5.80132">
        <ele>208.58</ele>
        <time>2019-11-13T14:12:50.000Z</time>
      </trkpt>
      <trkpt lat="45.18697" lon="5.80157">
        <ele>209.05</ele>
        <time>2019-11-13T14:12:55.000Z</time>
      </trkpt>
      <trkpt lat="45.18689" lon="5.80185">
        <ele>213.47</ele>
        <time>2019-11-13T14:13:00.000Z</time>
      </trkpt>
      <trkpt lat="45.18678" lon="5.80212">
        <ele>216.66</ele>
        <time>2019-11-13T14:13:05.000Z</time>
      </trkpt>
      <trkpt lat="45.1867" lon="5.80251">
        <ele>213.95</ele>
        <time>2019-11-13T14:13:10.000Z</time>
      </trkpt>
      <trkpt lat="45.18661" lon="5.80293">
        <ele>211.28</ele>
        <time>2019-11-13T14:13:15.000Z</time>
      </trkpt>
      <trkpt lat="45.18659" lon="5.80333">
        <ele>207.15</ele>
        <time>2019-11-13T14:13:20.000Z</time>
      </trkpt>
      <trkpt lat="45.18664" lon="5.80372">
        <ele>208.52</ele>
        <time>2019-11-13T14:13:25.000Z</time>
      </trkpt>
      <trkpt lat="45.18671" lon="5.8041">
        <ele>209.28</ele>
        <time>2019-11-13T14:13:30.000Z</time>
      </trkpt>
      <trkpt lat="45.18676" lon="5.8045">
        <ele>206.49</ele>
        <time>2019-11-13T14:13:35.000Z</time>
      </trkpt>
      <trkpt lat="45.18682" lon="5.8049">
        <ele>207.67</ele>
        <time>2019-11-13T14:13:40.000Z</time>
      </trkpt>
      <trkpt lat="45.18694" lon="5.80528">
        <ele>206.75</ele>
        <time>2019-11-13T14:13:45.000Z</time>
      </trkpt>
      <trkpt lat="45.1871" lon="5.80561">
        <ele>208.16</ele>
        <time>2019-11-13T14:13:50.000Z</time>
      </trkpt>
      <trkpt lat="45.18729" lon="5.806">
        <ele>208.86</ele>
        <time>2019-11-13T14:13:55.000Z</time>
      </trkpt>
      <trkpt lat="45.18753" lon="5.80626">
        <ele>212.69</ele>
        <time>2019-11-13T14:14:00.000Z</time>
      </trkpt>
      <trkpt lat="45.18783" lon="5.80648">
        <ele>210.74</ele>
        <time>2019-11-13T14:14:05.000Z</time>
      </trkpt>
      <trkpt lat="45.18811" lon="5.80663">
        <ele>208.69</ele>
        <time>2019-11-13T14:14:10.000Z</time>
      </trkpt>
      <trkpt lat="45.1884" lon="5.80679">
        <ele>207.12</ele>
        <time>2019-11-13T14:14:15.000Z</time>
      </trkpt>
      <trkpt lat="45.18857" lon="5.80682">
        <ele>205.87</ele>
        <time>2019-11-13T14:14:20.000Z</time>
      </trkpt>
      <trkpt lat="45.18854" lon="5.80699">
        <ele>207.06</ele>
        <time>2019-11-13T14:14:25.000Z</time>
      </trkpt>
      <trkpt lat="45.18835" lon="5.80713">
        <ele>209.69</ele>
        <time>2019-11-13T14:14:30.000Z</time>
      </trkpt>
      <trkpt lat="45.18809" lon="5.80725">
        <ele>213.16</ele>
        <time>2019-11-13T14:14:35.000Z</time>
      </trkpt>
      <trkpt lat="45.18792" lon="5.80722">
        <ele>216.04</ele>
        <time>2019-11-13T14:14:40.000Z</time>
      </trkpt>
      <trkpt lat="45.18783" lon="5.80725">
        <ele>214.78</ele>
        <time>2019-11-13T14:14:45.000Z</time>
      </trkpt>
      <trkpt lat="45.18775" lon="5.80736">
        <ele>217.32</ele>
        <time>2019-11-13T14:14:56.000Z</time>
      </trkpt>
      <trkpt lat="45.18767" lon="5.80753">
        <ele>215.24</ele>
        <time>2019-11-13T14:15:01.000Z</time>
      </trkpt>
      <trkpt lat="45.18777" lon="5.80776">
        <ele>217.2</ele>
        <time>2019-11-13T14:15:06.000Z</time>
      </trkpt>
      <trkpt lat="45.18797" lon="5.808">
        <ele>215.3</ele>
        <time>2019-11-13T14:15:11.000Z</time>
      </trkpt>
      <trkpt lat="45.18813" lon="5.80819">
        <ele>218.26</ele>
        <time>2019-11-13T14:15:16.000Z</time>
      </trkpt>
      <trkpt lat="45.18827" lon="5.80848">
        <ele>218.93</ele>
        <time>2019-11-13T14:15:21.000Z</time>
      </trkpt>
      <trkpt lat="45.18842" lon="5.80878">
        <ele>216.43</ele>
        <time>2019-11-13T14:15:26.000Z</time>
      </trkpt>
      <trkpt lat="45.18857" lon="5.80906">
        <ele>216.36</ele>
        <time>2019-11-13T14:15:31.000Z</time>
      </trkpt>
      <trkpt lat="45.1887" lon="5.80938">
        <ele>214.49</ele>
        <time>2019-11-13T14:15:36.000Z</time>
      </trkpt>
      <trkpt lat="45.18881" lon="5.80966">
        <ele>217.22</ele>
        <time>2019-11-13T14:15:41.000Z</time>
      </trkpt>
      <trkpt lat="45.18892" lon="5.80992">
        <ele>218.88</ele>
        <time>2019-11-13T14:15:46.000Z</time>
      </trkpt>
      <trkpt lat="45.18902" lon="5.81023">
        <ele>216.17</ele>
        <time>2019-11-13T14:15:51.000Z</time>
      </trkpt>
      <trkpt lat="45.18916" lon="5.8105">
        <ele>214.92</ele>
        <time>2019-11-13T14:15:56.000Z</time>
      </trkpt>
      <trkpt lat="45.18927" lon="5.81082">
        <ele>217.61</ele>
        <time>2019-11-13T14:16:01.000Z</time>
      </trkpt>
      <trkpt lat="45.18942" lon="5.81113">
        <ele>218.16</ele>
        <time>2019-11-13T14:16:06.000Z</time>
      </trkpt>
      <trkpt lat="45.18957" lon="5.81147">
        <ele>217.88</ele>
        <time>2019-11-13T14:16:11.000Z</time>
      </trkpt>
      <trkpt lat="45.18974" lon="5.81187">
        <ele>205.57</ele>
        <time>2019-11-13T14:16:16.000Z</time>
      </trkpt>
      <trkpt lat="45.18985" lon="5.81213">
        <ele>205.74</ele>
        <time>2019-11-13T14:16:21.000Z</time>
      </trkpt>
      <trkpt lat="45.19001" lon="5.81239">
        <ele>205.27</ele>
        <time>2019-11-13T14:16:26.000Z</time>
      </trkpt>
      <trkpt lat="45.19015" lon="5.81269">
        <ele>204.79</ele>
        <time>2019-11-13T14:16:31.000Z</time>
      </trkpt>
      <trkpt lat="45.19029" lon="5.81297">
        <ele>205.05</ele>
        <time>2019-11-13T14:16:36.000Z</time>
      </trkpt>
      <trkpt lat="45.19041" lon="5.81324">
        <ele>206.27</ele>
        <time>2019-11-13T14:16:41.000Z</time>
      </trkpt>
      <trkpt lat="45.19057" lon="5.81355">
        <ele>203.41</ele>
        <time>2019-11-13T14:16:46.000Z</time>
      </trkpt>
      <trkpt lat="45.19068" lon="5.81385">
        <ele>205.66</ele>
        <time>2019-11-13T14:16:51.000Z</time>
      </trkpt>
      <trkpt lat="45.19081" lon="5.81414">
        <ele>206.34</ele>
        <time>2019-11-13T14:16:56.000Z</time>
      </trkpt>
      <trkpt lat="45.19091" lon="5.81447">
        <ele>208.5</ele>
        <time>2019-11-13T14:17:01.000Z</time>
      </trkpt>
      <trkpt lat="45.19106" lon="5.81481">
        <ele>208.01</ele>
        <time>2019-11-13T14:17:06.000Z</time>
      </trkpt>
      <trkpt lat="45.19121" lon="5.81515">
        <ele>210.66</ele>
        <time>2019-11-13T14:17:11.000Z</time>
      </trkpt>
      <trkpt lat="45.19135" lon="5.81544">
        <ele>213.9</ele>
        <time>2019-11-13T14:17:16.000Z</time>
      </trkpt>
      <trkpt lat="45.19144" lon="5.81569">
        <ele>214.28</ele>
        <time>2019-11-13T14:17:21.000Z</time>
      </trkpt>
      <trkpt lat="45.19151" lon="5.816">
        <ele>216.07</ele>
        <time>2019-11-13T14:17:26.000Z</time>
      </trkpt>
      <trkpt lat="45.19163" lon="5.81629">
        <ele>213.15</ele>
        <time>2019-11-13T14:17:31.000Z</time>
      </trkpt>
      <trkpt lat="45.19178" lon="5.81659">
        <ele>212.21</ele>
        <time>2019-11-13T14:17:36.000Z</time>
      </trkpt>
      <trkpt lat="45.1919" lon="5.81678">
        <ele>214.87</ele>
        <time>2019-11-13T14:17:41.000Z</time>
      </trkpt>
      <trkpt lat="45.19196" lon="5.81706">
        <ele>214.32</ele>
        <time>2019-11-13T14:17:46.000Z</time>
      </trkpt>
      <trkpt lat="45.19211" lon="5.81722">
        <ele>211.76</ele>
        <time>2019-11-13T14:17:51.000Z</time>
      </trkpt>
      <trkpt lat="45.1922" lon="5.81735">
        <ele>219.66</ele>
        <time>2019-11-13T14:17:56.000Z</time>
      </trkpt>
      <trkpt lat="45.19226" lon="5.81748">
        <ele>218.64</ele>
        <time>2019-11-13T14:18:14.000Z</time>
      </trkpt>
      <trkpt lat="45.19242" lon="5.81775">
        <ele>222.63</ele>
        <time>2019-11-13T14:18:19.000Z</time>
      </trkpt>
      <trkpt lat="45.19247" lon="5.81802">
        <ele>219.32</ele>
        <time>2019-11-13T14:18:24.000Z</time>
      </trkpt>
      <trkpt lat="45.19254" lon="5.81834">
        <ele>219.15</ele>
        <time>2019-11-13T14:18:29.000Z</time>
      </trkpt>
      <trkpt lat="45.19274" lon="5.81881">
        <ele>217.81</ele>
        <time>2019-11-13T14:18:34.000Z</time>
      </trkpt>
      <trkpt lat="45.19289" lon="5.81928">
        <ele>215.26</ele>
        <time>2019-11-13T14:18:39.000Z</time>
      </trkpt>
      <trkpt lat="45.19298" lon="5.81959">
        <ele>214.78</ele>
        <time>2019-11-13T14:18:44.000Z</time>
      </trkpt>
      <trkpt lat="45.19308" lon="5.81981">
        <ele>211.14</ele>
        <time>2019-11-13T14:18:49.000Z</time>
      </trkpt>
      <trkpt lat="45.19316" lon="5.82006">
        <ele>211.02</ele>
        <time>2019-11-13T14:18:54.000Z</time>
      </trkpt>
      <trkpt lat="45.19327" lon="5.82033">
        <ele>206.71</ele>
        <time>2019-11-13T14:18:59.000Z</time>
      </trkpt>
      <trkpt lat="45.19337" lon="5.82065">
        <ele>201.23</ele>
        <time>2019-11-13T14:19:04.000Z</time>
      </trkpt>
      <trkpt lat="45.1935" lon="5.82098">
        <ele>201.87</ele>
        <time>2019-11-13T14:19:09.000Z</time>
      </trkpt>
      <trkpt lat="45.19365" lon="5.82132">
        <ele>203.76</ele>
        <time>2019-11-13T14:19:14.000Z</time>
      </trkpt>
      <trkpt lat="45.19375" lon="5.82164">
        <ele>203.57</ele>
        <time>2019-11-13T14:19:19.000Z</time>
      </trkpt>
      <trkpt lat="45.19386" lon="5.82195">
        <ele>205.34</ele>
        <time>2019-11-13T14:19:24.000Z</time>
      </trkpt>
      <trkpt lat="45.19401" lon="5.82236">
        <ele>206.65</ele>
        <time>2019-11-13T14:19:29.000Z</time>
      </trkpt>
      <trkpt lat="45.19409" lon="5.82265">
        <ele>211.06</ele>
        <time>2019-11-13T14:19:34.000Z</time>
      </trkpt>
      <trkpt lat="45.19422" lon="5.823">
        <ele>211.05</ele>
        <time>2019-11-13T14:19:39.000Z</time>
      </trkpt>
      <trkpt lat="45.19434" lon="5.82334">
        <ele>205.55</ele>
        <time>2019-11-13T14:19:44.000Z</time>
      </trkpt>
      <trkpt lat="45.19446" lon="5.82364">
        <ele>205.69</ele>
        <time>2019-11-13T14:19:49.000Z</time>
      </trkpt>
      <trkpt lat="45.19457" lon="5.82398">
        <ele>207.99</ele>
        <time>2019-11-13T14:19:54.000Z</time>
      </trkpt>
      <trkpt lat="45.19469" lon="5.82429">
        <ele>207.33</ele>
        <time>2019-11-13T14:19:59.000Z</time>
      </trkpt>
      <trkpt lat="45.19479" lon="5.82464">
        <ele>206.13</ele>
        <time>2019-11-13T14:20:04.000Z</time>
      </trkpt>
      <trkpt lat="45.19491" lon="5.82498">
        <ele>207.58</ele>
        <time>2019-11-13T14:20:09.000Z</time>
      </trkpt>
      <trkpt lat="45.19505" lon="5.82529">
        <ele>207.29</ele>
        <time>2019-11-13T14:20:14.000Z</time>
      </trkpt>
      <trkpt lat="45.19517" lon="5.82562">
        <ele>207.84</ele>
        <time>2019-11-13T14:20:19.000Z</time>
      </trkpt>
      <trkpt lat="45.1953" lon="5.82602">
        <ele>208.56</ele>
        <time>2019-11-13T14:20:24.000Z</time>
      </trkpt>
      <trkpt lat="45.19545" lon="5.82639">
        <ele>207.53</ele>
        <time>2019-11-13T14:20:29.000Z</time>
      </trkpt>
      <trkpt lat="45.1956" lon="5.82672">
        <ele>209.72</ele>
        <time>2019-11-13T14:20:34.000Z</time>
      </trkpt>
      <trkpt lat="45.19578" lon="5.82707">
        <ele>206.43</ele>
        <time>2019-11-13T14:20:39.000Z</time>
      </trkpt>
      <trkpt lat="45.19589" lon="5.82742">
        <ele>207.07</ele>
        <time>2019-11-13T14:20:44.000Z</time>
      </trkpt>
      <trkpt lat="45.19602" lon="5.82774">
        <ele>207.74</ele>
        <time>2019-11-13T14:20:49.000Z</time>
      </trkpt>
      <trkpt lat="45.19612" lon="5.82813">
        <ele>208.16</ele>
        <time>2019-11-13T14:20:54.000Z</time>
      </trkpt>
      <trkpt lat="45.19626" lon="5.82849">
        <ele>207.9</ele>
        <time>2019-11-13T14:20:59.000Z</time>
      </trkpt>
      <trkpt lat="45.19638" lon="5.82877">
        <ele>212.15</ele>
        <time>2019-11-13T14:21:04.000Z</time>
      </trkpt>
      <trkpt lat="45.19649" lon="5.82899">
        <ele>213.22</ele>
        <time>2019-11-13T14:21:09.000Z</time>
      </trkpt>
      <trkpt lat="45.19658" lon="5.82919">
        <ele>212.1</ele>
        <time>2019-11-13T14:21:14.000Z</time>
      </trkpt>
      <trkpt lat="45.19667" lon="5.82927">
        <ele>211.94</ele>
        <time>2019-11-13T14:21:19.000Z</time>
      </trkpt>
      <trkpt lat="45.19672" lon="5.82951">
        <ele>212.53</ele>
        <time>2019-11-13T14:21:24.000Z</time>
      </trkpt>
      <trkpt lat="45.19677" lon="5.82983">
        <ele>217.59</ele>
        <time>2019-11-13T14:21:29.000Z</time>
      </trkpt>
      <trkpt lat="45.19683" lon="5.83011">
        <ele>218.76</ele>
        <time>2019-11-13T14:21:34.000Z</time>
      </trkpt>
      <trkpt lat="45.19686" lon="5.83035">
        <ele>218.01</ele>
        <time>2019-11-13T14:21:39.000Z</time>
      </trkpt>
      <trkpt lat="45.19698" lon="5.83062">
        <ele>219.54</ele>
        <time>2019-11-13T14:21:44.000Z</time>
      </trkpt>
      <trkpt lat="45.19708" lon="5.83094">
        <ele>221.26</ele>
        <time>2019-11-13T14:21:49.000Z</time>
      </trkpt>
      <trkpt lat="45.19721" lon="5.83126">
        <ele>220.92</ele>
        <time>2019-11-13T14:21:54.000Z</time>
      </trkpt>
      <trkpt lat="45.19734" lon="5.8316">
        <ele>221.69</ele>
        <time>2019-11-13T14:21:59.000Z</time>
      </trkpt>
      <trkpt lat="45.19748" lon="5.83194">
        <ele>222.57</ele>
        <time>2019-11-13T14:22:04.000Z</time>
      </trkpt>
      <trkpt lat="45.19757" lon="5.83228">
        <ele>223.98</ele>
        <time>2019-11-13T14:22:09.000Z</time>
      </trkpt>
      <trkpt lat="45.19771" lon="5.83263">
        <ele>224.55</ele>
        <time>2019-11-13T14:22:14.000Z</time>
      </trkpt>
      <trkpt lat="45.19783" lon="5.83296">
        <ele>223.81</ele>
        <time>2019-11-13T14:22:19.000Z</time>
      </trkpt>
      <trkpt lat="45.19795" lon="5.83329">
        <ele>222.2</ele>
        <time>2019-11-13T14:22:24.000Z</time>
      </trkpt>
      <trkpt lat="45.19803" lon="5.83365">
        <ele>223.34</ele>
        <time>2019-11-13T14:22:29.000Z</time>
      </trkpt>
      <trkpt lat="45.1981" lon="5.83389">
        <ele>225.32</ele>
        <time>2019-11-13T14:22:34.000Z</time>
      </trkpt>
      <trkpt lat="45.19819" lon="5.83394">
        <ele>230.85</ele>
        <time>2019-11-13T14:22:49.000Z</time>
      </trkpt>
      <trkpt lat="45.19826" lon="5.83414">
        <ele>231.27</ele>
        <time>2019-11-13T14:22:54.000Z</time>
      </trkpt>
      <trkpt lat="45.19835" lon="5.83442">
        <ele>232.48</ele>
        <time>2019-11-13T14:22:59.000Z</time>
      </trkpt>
      <trkpt lat="45.19846" lon="5.83472">
        <ele>233.73</ele>
        <time>2019-11-13T14:23:04.000Z</time>
      </trkpt>
      <trkpt lat="45.19853" lon="5.83504">
        <ele>233.56</ele>
        <time>2019-11-13T14:23:09.000Z</time>
      </trkpt>
      <trkpt lat="45.19865" lon="5.83534">
        <ele>236.22</ele>
        <time>2019-11-13T14:23:14.000Z</time>
      </trkpt>
      <trkpt lat="45.19873" lon="5.83566">
        <ele>236.74</ele>
        <time>2019-11-13T14:23:19.000Z</time>
      </trkpt>
      <trkpt lat="45.19884" lon="5.83592">
        <ele>235.06</ele>
        <time>2019-11-13T14:23:24.000Z</time>
      </trkpt>
      <trkpt lat="45.199" lon="5.83618">
        <ele>234.62</ele>
        <time>2019-11-13T14:23:29.000Z</time>
      </trkpt>
      <trkpt lat="45.19917" lon="5.83644">
        <ele>237.45</ele>
        <time>2019-11-13T14:23:34.000Z</time>
      </trkpt>
      <trkpt lat="45.19937" lon="5.83668">
        <ele>237.73</ele>
        <time>2019-11-13T14:23:39.000Z</time>
      </trkpt>
      <trkpt lat="45.19954" lon="5.83691">
        <ele>239.32</ele>
        <time>2019-11-13T14:23:44.000Z</time>
      </trkpt>
      <trkpt lat="45.19969" lon="5.83714">
        <ele>240.03</ele>
        <time>2019-11-13T14:23:49.000Z</time>
      </trkpt>
      <trkpt lat="45.19988" lon="5.83735">
        <ele>241.36</ele>
        <time>2019-11-13T14:23:54.000Z</time>
      </trkpt>
      <trkpt lat="45.20005" lon="5.83756">
        <ele>240.49</ele>
        <time>2019-11-13T14:23:59.000Z</time>
      </trkpt>
      <trkpt lat="45.2002" lon="5.83768">
        <ele>240.22</ele>
        <time>2019-11-13T14:24:04.000Z</time>
      </trkpt>
      <trkpt lat="45.20019" lon="5.83782">
        <ele>247.07</ele>
        <time>2019-11-13T14:25:24.000Z</time>
      </trkpt>
      <trkpt lat="45.20037" lon="5.83795">
        <ele>243.69</ele>
        <time>2019-11-13T14:25:29.000Z</time>
      </trkpt>
      <trkpt lat="45.20055" lon="5.83812">
        <ele>246.12</ele>
        <time>2019-11-13T14:25:34.000Z</time>
      </trkpt>
      <trkpt lat="45.20078" lon="5.83829">
        <ele>249.27</ele>
        <time>2019-11-13T14:25:39.000Z</time>
      </trkpt>
      <trkpt lat="45.20095" lon="5.83846">
        <ele>249.52</ele>
        <time>2019-11-13T14:25:44.000Z</time>
      </trkpt>
      <trkpt lat="45.20104" lon="5.83877">
        <ele>245.42</ele>
        <time>2019-11-13T14:25:49.000Z</time>
      </trkpt>
      <trkpt lat="45.20114" lon="5.83903">
        <ele>246.48</ele>
        <time>2019-11-13T14:25:54.000Z</time>
      </trkpt>
      <trkpt lat="45.20117" lon="5.83915">
        <ele>246.62</ele>
        <time>2019-11-13T14:26:01.000Z</time>
      </trkpt>
      <trkpt lat="45.20121" lon="5.83927">
        <ele>248.08</ele>
        <time>2019-11-13T14:26:09.000Z</time>
      </trkpt>
      <trkpt lat="45.20114" lon="5.83935">
        <ele>243.21</ele>
        <time>2019-11-13T14:31:22.000Z</time>
      </trkpt>
      <trkpt lat="45.20122" lon="5.8395">
        <ele>243.11</ele>
        <time>2019-11-13T14:35:57.000Z</time>
      </trkpt>
      <trkpt lat="45.20132" lon="5.8398">
        <ele>247.29</ele>
        <time>2019-11-13T14:36:02.000Z</time>
      </trkpt>
      <trkpt lat="45.2014" lon="5.84003">
        <ele>248.81</ele>
        <time>2019-11-13T14:36:07.000Z</time>
      </trkpt>
      <trkpt lat="45.20119" lon="5.84027">
        <ele>248.85</ele>
        <time>2019-11-13T14:36:12.000Z</time>
      </trkpt>
      <trkpt lat="45.2011" lon="5.8405">
        <ele>251.33</ele>
        <time>2019-11-13T14:36:17.000Z</time>
      </trkpt>
      <trkpt lat="45.201" lon="5.84075">
        <ele>250.85</ele>
        <time>2019-11-13T14:36:22.000Z</time>
      </trkpt>
      <trkpt lat="45.201" lon="5.84105">
        <ele>252.35</ele>
        <time>2019-11-13T14:36:27.000Z</time>
      </trkpt>
      <trkpt lat="45.20092" lon="5.84132">
        <ele>250.96</ele>
        <time>2019-11-13T14:36:32.000Z</time>
      </trkpt>
      <trkpt lat="45.20078" lon="5.84159">
        <ele>253.06</ele>
        <time>2019-11-13T14:36:37.000Z</time>
      </trkpt>
      <trkpt lat="45.20061" lon="5.84176">
        <ele>252.24</ele>
        <time>2019-11-13T14:36:42.000Z</time>
      </trkpt>
      <trkpt lat="45.2004" lon="5.84189">
        <ele>250.83</ele>
        <time>2019-11-13T14:36:47.000Z</time>
      </trkpt>
      <trkpt lat="45.20021" lon="5.84203">
        <ele>248.46</ele>
        <time>2019-11-13T14:36:52.000Z</time>
      </trkpt>
      <trkpt lat="45.2" lon="5.84222">
        <ele>248.89</ele>
        <time>2019-11-13T14:36:57.000Z</time>
      </trkpt>
      <trkpt lat="45.19991" lon="5.84256">
        <ele>249.77</ele>
        <time>2019-11-13T14:37:02.000Z</time>
      </trkpt>
      <trkpt lat="45.2001" lon="5.84264">
        <ele>248.87</ele>
        <time>2019-11-13T14:37:07.000Z</time>
      </trkpt>
      <trkpt lat="45.20034" lon="5.84255">
        <ele>252.74</ele>
        <time>2019-11-13T14:37:12.000Z</time>
      </trkpt>
      <trkpt lat="45.20054" lon="5.84253">
        <ele>250.99</ele>
        <time>2019-11-13T14:37:17.000Z</time>
      </trkpt>
      <trkpt lat="45.20076" lon="5.84253">
        <ele>250.78</ele>
        <time>2019-11-13T14:37:22.000Z</time>
      </trkpt>
      <trkpt lat="45.20103" lon="5.8425">
        <ele>252.38</ele>
        <time>2019-11-13T14:37:27.000Z</time>
      </trkpt>
      <trkpt lat="45.20121" lon="5.84243">
        <ele>254.53</ele>
        <time>2019-11-13T14:37:32.000Z</time>
      </trkpt>
      <trkpt lat="45.2014" lon="5.84235">
        <ele>255.21</ele>
        <time>2019-11-13T14:37:37.000Z</time>
      </trkpt>
      <trkpt lat="45.20159" lon="5.84233">
        <ele>259.19</ele>
        <time>2019-11-13T14:37:42.000Z</time>
      </trkpt>
      <trkpt lat="45.20173" lon="5.84249">
        <ele>259.23</ele>
        <time>2019-11-13T14:37:47.000Z</time>
      </trkpt>
      <trkpt lat="45.20178" lon="5.84276">
        <ele>262.95</ele>
        <time>2019-11-13T14:37:52.000Z</time>
      </trkpt>
      <trkpt lat="45.20181" lon="5.84303">
        <ele>270.5</ele>
        <time>2019-11-13T14:37:57.000Z</time>
      </trkpt>
      <trkpt lat="45.20188" lon="5.84328">
        <ele>275.12</ele>
        <time>2019-11-13T14:38:02.000Z</time>
      </trkpt>
      <trkpt lat="45.20198" lon="5.84352">
        <ele>277.99</ele>
        <time>2019-11-13T14:38:07.000Z</time>
      </trkpt>
      <trkpt lat="45.20209" lon="5.84374">
        <ele>279.54</ele>
        <time>2019-11-13T14:38:12.000Z</time>
      </trkpt>
      <trkpt lat="45.20219" lon="5.84401">
        <ele>283.62</ele>
        <time>2019-11-13T14:38:17.000Z</time>
      </trkpt>
      <trkpt lat="45.2023" lon="5.84425">
        <ele>287.44</ele>
        <time>2019-11-13T14:38:22.000Z</time>
      </trkpt>
      <trkpt lat="45.20233" lon="5.84452">
        <ele>287.87</ele>
        <time>2019-11-13T14:38:27.000Z</time>
      </trkpt>
      <trkpt lat="45.20233" lon="5.8448">
        <ele>287.72</ele>
        <time>2019-11-13T14:38:32.000Z</time>
      </trkpt>
      <trkpt lat="45.20241" lon="5.84508">
        <ele>287.14</ele>
        <time>2019-11-13T14:38:37.000Z</time>
      </trkpt>
      <trkpt lat="45.20247" lon="5.84534">
        <ele>288.2</ele>
        <time>2019-11-13T14:38:42.000Z</time>
      </trkpt>
      <trkpt lat="45.20259" lon="5.8456">
        <ele>290.01</ele>
        <time>2019-11-13T14:38:47.000Z</time>
      </trkpt>
      <trkpt lat="45.20266" lon="5.84587">
        <ele>292.47</ele>
        <time>2019-11-13T14:38:52.000Z</time>
      </trkpt>
      <trkpt lat="45.20272" lon="5.84613">
        <ele>295.56</ele>
        <time>2019-11-13T14:38:57.000Z</time>
      </trkpt>
      <trkpt lat="45.20283" lon="5.84638">
        <ele>299.25</ele>
        <time>2019-11-13T14:39:02.000Z</time>
      </trkpt>
      <trkpt lat="45.20295" lon="5.84662">
        <ele>304.43</ele>
        <time>2019-11-13T14:39:07.000Z</time>
      </trkpt>
      <trkpt lat="45.20298" lon="5.84691">
        <ele>305.48</ele>
        <time>2019-11-13T14:39:12.000Z</time>
      </trkpt>
      <trkpt lat="45.20305" lon="5.84719">
        <ele>308.53</ele>
        <time>2019-11-13T14:39:17.000Z</time>
      </trkpt>
      <trkpt lat="45.20314" lon="5.84746">
        <ele>311.59</ele>
        <time>2019-11-13T14:39:22.000Z</time>
      </trkpt>
      <trkpt lat="45.20317" lon="5.84775">
        <ele>308.99</ele>
        <time>2019-11-13T14:39:27.000Z</time>
      </trkpt>
      <trkpt lat="45.20322" lon="5.84802">
        <ele>310.6</ele>
        <time>2019-11-13T14:39:32.000Z</time>
      </trkpt>
      <trkpt lat="45.20326" lon="5.8483">
        <ele>310.92</ele>
        <time>2019-11-13T14:39:37.000Z</time>
      </trkpt>
      <trkpt lat="45.20328" lon="5.84859">
        <ele>312.12</ele>
        <time>2019-11-13T14:39:42.000Z</time>
      </trkpt>
      <trkpt lat="45.20337" lon="5.84885">
        <ele>317.33</ele>
        <time>2019-11-13T14:39:47.000Z</time>
      </trkpt>
      <trkpt lat="45.20348" lon="5.84911">
        <ele>319.61</ele>
        <time>2019-11-13T14:39:52.000Z</time>
      </trkpt>
      <trkpt lat="45.2036" lon="5.84936">
        <ele>322.06</ele>
        <time>2019-11-13T14:39:57.000Z</time>
      </trkpt>
      <trkpt lat="45.20367" lon="5.84962">
        <ele>321.54</ele>
        <time>2019-11-13T14:40:02.000Z</time>
      </trkpt>
      <trkpt lat="45.20375" lon="5.84987">
        <ele>324.53</ele>
        <time>2019-11-13T14:40:07.000Z</time>
      </trkpt>
      <trkpt lat="45.20383" lon="5.85013">
        <ele>325.55</ele>
        <time>2019-11-13T14:40:12.000Z</time>
      </trkpt>
      <trkpt lat="45.20394" lon="5.85037">
        <ele>329.61</ele>
        <time>2019-11-13T14:40:17.000Z</time>
      </trkpt>
      <trkpt lat="45.20399" lon="5.85063">
        <ele>330.35</ele>
        <time>2019-11-13T14:40:22.000Z</time>
      </trkpt>
      <trkpt lat="45.20412" lon="5.8509">
        <ele>334.6</ele>
        <time>2019-11-13T14:40:27.000Z</time>
      </trkpt>
      <trkpt lat="45.20407" lon="5.85112">
        <ele>336.01</ele>
        <time>2019-11-13T14:40:32.000Z</time>
      </trkpt>
      <trkpt lat="45.20396" lon="5.85093">
        <ele>336.9</ele>
        <time>2019-11-13T14:40:37.000Z</time>
      </trkpt>
      <trkpt lat="45.2039" lon="5.85068">
        <ele>336.78</ele>
        <time>2019-11-13T14:40:42.000Z</time>
      </trkpt>
      <trkpt lat="45.20378" lon="5.85045">
        <ele>337.38</ele>
        <time>2019-11-13T14:40:47.000Z</time>
      </trkpt>
      <trkpt lat="45.20364" lon="5.85022">
        <ele>335.63</ele>
        <time>2019-11-13T14:40:52.000Z</time>
      </trkpt>
      <trkpt lat="45.2035" lon="5.84999">
        <ele>333.92</ele>
        <time>2019-11-13T14:40:57.000Z</time>
      </trkpt>
      <trkpt lat="45.2034" lon="5.8497">
        <ele>332.37</ele>
        <time>2019-11-13T14:41:02.000Z</time>
      </trkpt>
      <trkpt lat="45.20325" lon="5.8495">
        <ele>335.86</ele>
        <time>2019-11-13T14:41:07.000Z</time>
      </trkpt>
      <trkpt lat="45.20308" lon="5.8493">
        <ele>335.23</ele>
        <time>2019-11-13T14:41:12.000Z</time>
      </trkpt>
      <trkpt lat="45.20295" lon="5.84911">
        <ele>339.11</ele>
        <time>2019-11-13T14:41:17.000Z</time>
      </trkpt>
      <trkpt lat="45.20283" lon="5.8489">
        <ele>338.71</ele>
        <time>2019-11-13T14:41:22.000Z</time>
      </trkpt>
      <trkpt lat="45.20278" lon="5.84862">
        <ele>337.78</ele>
        <time>2019-11-13T14:41:27.000Z</time>
      </trkpt>
      <trkpt lat="45.2027" lon="5.84835">
        <ele>341.06</ele>
        <time>2019-11-13T14:41:32.000Z</time>
      </trkpt>
      <trkpt lat="45.20261" lon="5.84808">
        <ele>342.13</ele>
        <time>2019-11-13T14:41:37.000Z</time>
      </trkpt>
      <trkpt lat="45.20252" lon="5.84784">
        <ele>342.49</ele>
        <time>2019-11-13T14:41:42.000Z</time>
      </trkpt>
      <trkpt lat="45.20242" lon="5.84757">
        <ele>346.96</ele>
        <time>2019-11-13T14:41:47.000Z</time>
      </trkpt>
      <trkpt lat="45.20231" lon="5.84733">
        <ele>348.2</ele>
        <time>2019-11-13T14:41:52.000Z</time>
      </trkpt>
      <trkpt lat="45.20215" lon="5.84717">
        <ele>349.81</ele>
        <time>2019-11-13T14:41:57.000Z</time>
      </trkpt>
      <trkpt lat="45.20198" lon="5.84703">
        <ele>349.63</ele>
        <time>2019-11-13T14:42:02.000Z</time>
      </trkpt>
      <trkpt lat="45.20188" lon="5.84684">
        <ele>350.26</ele>
        <time>2019-11-13T14:42:07.000Z</time>
      </trkpt>
      <trkpt lat="45.20175" lon="5.84663">
        <ele>351.69</ele>
        <time>2019-11-13T14:42:12.000Z</time>
      </trkpt>
      <trkpt lat="45.20164" lon="5.84638">
        <ele>353.7</ele>
        <time>2019-11-13T14:42:17.000Z</time>
      </trkpt>
      <trkpt lat="45.20155" lon="5.84612">
        <ele>357.81</ele>
        <time>2019-11-13T14:42:22.000Z</time>
      </trkpt>
      <trkpt lat="45.20152" lon="5.84584">
        <ele>360.71</ele>
        <time>2019-11-13T14:42:27.000Z</time>
      </trkpt>
      <trkpt lat="45.20141" lon="5.84561">
        <ele>364.1</ele>
        <time>2019-11-13T14:42:32.000Z</time>
      </trkpt>
      <trkpt lat="45.20129" lon="5.84537">
        <ele>366.27</ele>
        <time>2019-11-13T14:42:37.000Z</time>
      </trkpt>
      <trkpt lat="45.2012" lon="5.84512">
        <ele>368.82</ele>
        <time>2019-11-13T14:42:42.000Z</time>
      </trkpt>
      <trkpt lat="45.20107" lon="5.8449">
        <ele>375.36</ele>
        <time>2019-11-13T14:42:47.000Z</time>
      </trkpt>
      <trkpt lat="45.20095" lon="5.84468">
        <ele>380.27</ele>
        <time>2019-11-13T14:42:52.000Z</time>
      </trkpt>
      <trkpt lat="45.20075" lon="5.84467">
        <ele>384.15</ele>
        <time>2019-11-13T14:42:57.000Z</time>
      </trkpt>
      <trkpt lat="45.20057" lon="5.84471">
        <ele>387.35</ele>
        <time>2019-11-13T14:43:02.000Z</time>
      </trkpt>
      <trkpt lat="45.20038" lon="5.84478">
        <ele>392.39</ele>
        <time>2019-11-13T14:43:07.000Z</time>
      </trkpt>
      <trkpt lat="45.20016" lon="5.84488">
        <ele>392.63</ele>
        <time>2019-11-13T14:43:12.000Z</time>
      </trkpt>
      <trkpt lat="45.19997" lon="5.84491">
        <ele>395</ele>
        <time>2019-11-13T14:43:17.000Z</time>
      </trkpt>
      <trkpt lat="45.19978" lon="5.84498">
        <ele>395.31</ele>
        <time>2019-11-13T14:43:22.000Z</time>
      </trkpt>
      <trkpt lat="45.1996" lon="5.84522">
        <ele>392.28</ele>
        <time>2019-11-13T14:43:27.000Z</time>
      </trkpt>
      <trkpt lat="45.19951" lon="5.8454">
        <ele>390.19</ele>
        <time>2019-11-13T14:43:32.000Z</time>
      </trkpt>
      <trkpt lat="45.1994" lon="5.84566">
        <ele>388.46</ele>
        <time>2019-11-13T14:43:37.000Z</time>
      </trkpt>
      <trkpt lat="45.19929" lon="5.84591">
        <ele>389.05</ele>
        <time>2019-11-13T14:43:42.000Z</time>
      </trkpt>
      <trkpt lat="45.19915" lon="5.84612">
        <ele>396.29</ele>
        <time>2019-11-13T14:43:47.000Z</time>
      </trkpt>
      <trkpt lat="45.199" lon="5.84631">
        <ele>397.09</ele>
        <time>2019-11-13T14:43:52.000Z</time>
      </trkpt>
      <trkpt lat="45.19884" lon="5.84651">
        <ele>401.96</ele>
        <time>2019-11-13T14:43:57.000Z</time>
      </trkpt>
      <trkpt lat="45.19869" lon="5.84674">
        <ele>404.65</ele>
        <time>2019-11-13T14:44:02.000Z</time>
      </trkpt>
      <trkpt lat="45.19856" lon="5.84696">
        <ele>408.03</ele>
        <time>2019-11-13T14:44:07.000Z</time>
      </trkpt>
      <trkpt lat="45.19852" lon="5.84722">
        <ele>408.28</ele>
        <time>2019-11-13T14:44:12.000Z</time>
      </trkpt>
      <trkpt lat="45.19859" lon="5.84751">
        <ele>411.69</ele>
        <time>2019-11-13T14:44:17.000Z</time>
      </trkpt>
      <trkpt lat="45.19867" lon="5.84779">
        <ele>408.97</ele>
        <time>2019-11-13T14:44:22.000Z</time>
      </trkpt>
      <trkpt lat="45.19859" lon="5.84801">
        <ele>407.56</ele>
        <time>2019-11-13T14:44:27.000Z</time>
      </trkpt>
      <trkpt lat="45.19835" lon="5.84805">
        <ele>413.63</ele>
        <time>2019-11-13T14:44:32.000Z</time>
      </trkpt>
      <trkpt lat="45.19812" lon="5.8481">
        <ele>420.31</ele>
        <time>2019-11-13T14:44:37.000Z</time>
      </trkpt>
      <trkpt lat="45.19795" lon="5.84824">
        <ele>423.44</ele>
        <time>2019-11-13T14:44:42.000Z</time>
      </trkpt>
      <trkpt lat="45.19776" lon="5.84834">
        <ele>422.22</ele>
        <time>2019-11-13T14:44:47.000Z</time>
      </trkpt>
      <trkpt lat="45.19757" lon="5.84844">
        <ele>423.56</ele>
        <time>2019-11-13T14:44:52.000Z</time>
      </trkpt>
      <trkpt lat="45.19738" lon="5.84847">
        <ele>424.51</ele>
        <time>2019-11-13T14:44:57.000Z</time>
      </trkpt>
      <trkpt lat="45.1972" lon="5.84861">
        <ele>427.56</ele>
        <time>2019-11-13T14:45:02.000Z</time>
      </trkpt>
      <trkpt lat="45.19702" lon="5.8488">
        <ele>429.69</ele>
        <time>2019-11-13T14:45:07.000Z</time>
      </trkpt>
      <trkpt lat="45.19687" lon="5.84891">
        <ele>426.68</ele>
        <time>2019-11-13T14:45:12.000Z</time>
      </trkpt>
      <trkpt lat="45.19672" lon="5.84908">
        <ele>429.73</ele>
        <time>2019-11-13T14:45:17.000Z</time>
      </trkpt>
      <trkpt lat="45.19662" lon="5.8493">
        <ele>429.76</ele>
        <time>2019-11-13T14:45:22.000Z</time>
      </trkpt>
      <trkpt lat="45.19651" lon="5.84949">
        <ele>433.86</ele>
        <time>2019-11-13T14:45:27.000Z</time>
      </trkpt>
      <trkpt lat="45.19636" lon="5.84966">
        <ele>434.66</ele>
        <time>2019-11-13T14:45:32.000Z</time>
      </trkpt>
      <trkpt lat="45.1962" lon="5.84975">
        <ele>434.13</ele>
        <time>2019-11-13T14:45:37.000Z</time>
      </trkpt>
      <trkpt lat="45.19601" lon="5.84989">
        <ele>435.9</ele>
        <time>2019-11-13T14:45:42.000Z</time>
      </trkpt>
      <trkpt lat="45.19583" lon="5.85006">
        <ele>436.56</ele>
        <time>2019-11-13T14:45:47.000Z</time>
      </trkpt>
      <trkpt lat="45.19561" lon="5.85018">
        <ele>440.41</ele>
        <time>2019-11-13T14:45:52.000Z</time>
      </trkpt>
      <trkpt lat="45.19539" lon="5.85025">
        <ele>444.64</ele>
        <time>2019-11-13T14:45:57.000Z</time>
      </trkpt>
      <trkpt lat="45.19523" lon="5.85039">
        <ele>446.57</ele>
        <time>2019-11-13T14:46:02.000Z</time>
      </trkpt>
      <trkpt lat="45.19509" lon="5.85055">
        <ele>445.23</ele>
        <time>2019-11-13T14:46:07.000Z</time>
      </trkpt>
      <trkpt lat="45.19492" lon="5.85081">
        <ele>445.6</ele>
        <time>2019-11-13T14:46:12.000Z</time>
      </trkpt>
      <trkpt lat="45.19483" lon="5.85111">
        <ele>444.16</ele>
        <time>2019-11-13T14:46:17.000Z</time>
      </trkpt>
      <trkpt lat="45.19484" lon="5.85142">
        <ele>447.1</ele>
        <time>2019-11-13T14:46:22.000Z</time>
      </trkpt>
      <trkpt lat="45.19481" lon="5.8517">
        <ele>447.64</ele>
        <time>2019-11-13T14:46:27.000Z</time>
      </trkpt>
      <trkpt lat="45.19476" lon="5.852">
        <ele>448.49</ele>
        <time>2019-11-13T14:46:32.000Z</time>
      </trkpt>
      <trkpt lat="45.19456" lon="5.85201">
        <ele>449.32</ele>
        <time>2019-11-13T14:46:37.000Z</time>
      </trkpt>
      <trkpt lat="45.19439" lon="5.85191">
        <ele>457.54</ele>
        <time>2019-11-13T14:46:42.000Z</time>
      </trkpt>
      <trkpt lat="45.19419" lon="5.85198">
        <ele>458.87</ele>
        <time>2019-11-13T14:46:47.000Z</time>
      </trkpt>
      <trkpt lat="45.19403" lon="5.85225">
        <ele>457.33</ele>
        <time>2019-11-13T14:46:52.000Z</time>
      </trkpt>
      <trkpt lat="45.19392" lon="5.85252">
        <ele>458.11</ele>
        <time>2019-11-13T14:46:57.000Z</time>
      </trkpt>
      <trkpt lat="45.1939" lon="5.85283">
        <ele>460.48</ele>
        <time>2019-11-13T14:47:02.000Z</time>
      </trkpt>
      <trkpt lat="45.19389" lon="5.85312">
        <ele>467.11</ele>
        <time>2019-11-13T14:47:07.000Z</time>
      </trkpt>
      <trkpt lat="45.1939" lon="5.85345">
        <ele>466.14</ele>
        <time>2019-11-13T14:47:12.000Z</time>
      </trkpt>
      <trkpt lat="45.19392" lon="5.85372">
        <ele>466.58</ele>
        <time>2019-11-13T14:47:17.000Z</time>
      </trkpt>
      <trkpt lat="45.19388" lon="5.85403">
        <ele>464.18</ele>
        <time>2019-11-13T14:47:22.000Z</time>
      </trkpt>
      <trkpt lat="45.19381" lon="5.85392">
        <ele>487.36</ele>
        <time>2019-11-13T14:50:02.000Z</time>
      </trkpt>
      <trkpt lat="45.19371" lon="5.85384">
        <ele>491.03</ele>
        <time>2019-11-13T14:50:10.000Z</time>
      </trkpt>
      <trkpt lat="45.19353" lon="5.85361">
        <ele>493.91</ele>
        <time>2019-11-13T14:50:15.000Z</time>
      </trkpt>
      <trkpt lat="45.19333" lon="5.8533">
        <ele>496.79</ele>
        <time>2019-11-13T14:50:20.000Z</time>
      </trkpt>
      <trkpt lat="45.19301" lon="5.85339">
        <ele>498.26</ele>
        <time>2019-11-13T14:50:25.000Z</time>
      </trkpt>
      <trkpt lat="45.19269" lon="5.85353">
        <ele>503.14</ele>
        <time>2019-11-13T14:50:30.000Z</time>
      </trkpt>
      <trkpt lat="45.19245" lon="5.85364">
        <ele>503.52</ele>
        <time>2019-11-13T14:50:35.000Z</time>
      </trkpt>
      <trkpt lat="45.19225" lon="5.85369">
        <ele>502.54</ele>
        <time>2019-11-13T14:50:40.000Z</time>
      </trkpt>
      <trkpt lat="45.19198" lon="5.85375">
        <ele>503.99</ele>
        <time>2019-11-13T14:50:45.000Z</time>
      </trkpt>
      <trkpt lat="45.19178" lon="5.85387">
        <ele>507.71</ele>
        <time>2019-11-13T14:50:50.000Z</time>
      </trkpt>
      <trkpt lat="45.19156" lon="5.85406">
        <ele>508.61</ele>
        <time>2019-11-13T14:50:55.000Z</time>
      </trkpt>
      <trkpt lat="45.19137" lon="5.8543">
        <ele>513.78</ele>
        <time>2019-11-13T14:51:00.000Z</time>
      </trkpt>
      <trkpt lat="45.19117" lon="5.85454">
        <ele>514.75</ele>
        <time>2019-11-13T14:51:05.000Z</time>
      </trkpt>
      <trkpt lat="45.19095" lon="5.85477">
        <ele>514.79</ele>
        <time>2019-11-13T14:51:10.000Z</time>
      </trkpt>
      <trkpt lat="45.19071" lon="5.85496">
        <ele>513.82</ele>
        <time>2019-11-13T14:51:15.000Z</time>
      </trkpt>
      <trkpt lat="45.19049" lon="5.85511">
        <ele>517.12</ele>
        <time>2019-11-13T14:51:20.000Z</time>
      </trkpt>
      <trkpt lat="45.19024" lon="5.85521">
        <ele>521.11</ele>
        <time>2019-11-13T14:51:25.000Z</time>
      </trkpt>
      <trkpt lat="45.19007" lon="5.85532">
        <ele>523.88</ele>
        <time>2019-11-13T14:51:30.000Z</time>
      </trkpt>
      <trkpt lat="45.1899" lon="5.85549">
        <ele>528.69</ele>
        <time>2019-11-13T14:51:35.000Z</time>
      </trkpt>
      <trkpt lat="45.18973" lon="5.85574">
        <ele>529.93</ele>
        <time>2019-11-13T14:51:40.000Z</time>
      </trkpt>
      <trkpt lat="45.18961" lon="5.85606">
        <ele>530.3</ele>
        <time>2019-11-13T14:51:45.000Z</time>
      </trkpt>
      <trkpt lat="45.18951" lon="5.85632">
        <ele>532.22</ele>
        <time>2019-11-13T14:51:50.000Z</time>
      </trkpt>
      <trkpt lat="45.18938" lon="5.85657">
        <ele>534.28</ele>
        <time>2019-11-13T14:51:55.000Z</time>
      </trkpt>
      <trkpt lat="45.18939" lon="5.85687">
        <ele>537.19</ele>
        <time>2019-11-13T14:52:00.000Z</time>
      </trkpt>
      <trkpt lat="45.18943" lon="5.85716">
        <ele>540.08</ele>
        <time>2019-11-13T14:52:05.000Z</time>
      </trkpt>
      <trkpt lat="45.18946" lon="5.85746">
        <ele>541.6</ele>
        <time>2019-11-13T14:52:10.000Z</time>
      </trkpt>
      <trkpt lat="45.1895" lon="5.85777">
        <ele>542.79</ele>
        <time>2019-11-13T14:52:15.000Z</time>
      </trkpt>
      <trkpt lat="45.18951" lon="5.8581">
        <ele>545.92</ele>
        <time>2019-11-13T14:52:20.000Z</time>
      </trkpt>
      <trkpt lat="45.18954" lon="5.85842">
        <ele>548.03</ele>
        <time>2019-11-13T14:52:25.000Z</time>
      </trkpt>
      <trkpt lat="45.18955" lon="5.85873">
        <ele>548.07</ele>
        <time>2019-11-13T14:52:30.000Z</time>
      </trkpt>
      <trkpt lat="45.18959" lon="5.85905">
        <ele>549.53</ele>
        <time>2019-11-13T14:52:35.000Z</time>
      </trkpt>
      <trkpt lat="45.1896" lon="5.85937">
        <ele>549.32</ele>
        <time>2019-11-13T14:52:40.000Z</time>
      </trkpt>
      <trkpt lat="45.18965" lon="5.85972">
        <ele>549.45</ele>
        <time>2019-11-13T14:52:45.000Z</time>
      </trkpt>
      <trkpt lat="45.18962" lon="5.86006">
        <ele>551.07</ele>
        <time>2019-11-13T14:52:50.000Z</time>
      </trkpt>
      <trkpt lat="45.18956" lon="5.86038">
        <ele>551.32</ele>
        <time>2019-11-13T14:52:55.000Z</time>
      </trkpt>
      <trkpt lat="45.18946" lon="5.8607">
        <ele>552.96</ele>
        <time>2019-11-13T14:53:00.000Z</time>
      </trkpt>
      <trkpt lat="45.1894" lon="5.86102">
        <ele>555.59</ele>
        <time>2019-11-13T14:53:05.000Z</time>
      </trkpt>
      <trkpt lat="45.18936" lon="5.86134">
        <ele>557.16</ele>
        <time>2019-11-13T14:53:10.000Z</time>
      </trkpt>
      <trkpt lat="45.18932" lon="5.86167">
        <ele>560.91</ele>
        <time>2019-11-13T14:53:15.000Z</time>
      </trkpt>
      <trkpt lat="45.18929" lon="5.86198">
        <ele>562.78</ele>
        <time>2019-11-13T14:53:20.000Z</time>
      </trkpt>
      <trkpt lat="45.18922" lon="5.86227">
        <ele>559.8</ele>
        <time>2019-11-13T14:53:25.000Z</time>
      </trkpt>
      <trkpt lat="45.18919" lon="5.86256">
        <ele>561.11</ele>
        <time>2019-11-13T14:53:30.000Z</time>
      </trkpt>
      <trkpt lat="45.18916" lon="5.86286">
        <ele>565.52</ele>
        <time>2019-11-13T14:53:35.000Z</time>
      </trkpt>
      <trkpt lat="45.18907" lon="5.86316">
        <ele>568.42</ele>
        <time>2019-11-13T14:53:40.000Z</time>
      </trkpt>
      <trkpt lat="45.189" lon="5.86346">
        <ele>571.27</ele>
        <time>2019-11-13T14:53:45.000Z</time>
      </trkpt>
      <trkpt lat="45.1889" lon="5.86374">
        <ele>574.45</ele>
        <time>2019-11-13T14:53:50.000Z</time>
      </trkpt>
      <trkpt lat="45.18875" lon="5.86396">
        <ele>578.23</ele>
        <time>2019-11-13T14:53:55.000Z</time>
      </trkpt>
      <trkpt lat="45.1886" lon="5.86419">
        <ele>581.88</ele>
        <time>2019-11-13T14:54:00.000Z</time>
      </trkpt>
      <trkpt lat="45.18842" lon="5.86441">
        <ele>583.51</ele>
        <time>2019-11-13T14:54:05.000Z</time>
      </trkpt>
      <trkpt lat="45.1882" lon="5.86455">
        <ele>584.5</ele>
        <time>2019-11-13T14:54:10.000Z</time>
      </trkpt>
      <trkpt lat="45.188" lon="5.86458">
        <ele>586.9</ele>
        <time>2019-11-13T14:54:15.000Z</time>
      </trkpt>
      <trkpt lat="45.18783" lon="5.86464">
        <ele>587.47</ele>
        <time>2019-11-13T14:54:20.000Z</time>
      </trkpt>
      <trkpt lat="45.18776" lon="5.86492">
        <ele>585.97</ele>
        <time>2019-11-13T14:54:25.000Z</time>
      </trkpt>
      <trkpt lat="45.1878" lon="5.86522">
        <ele>588.71</ele>
        <time>2019-11-13T14:54:30.000Z</time>
      </trkpt>
      <trkpt lat="45.18787" lon="5.86553">
        <ele>589.5</ele>
        <time>2019-11-13T14:54:35.000Z</time>
      </trkpt>
      <trkpt lat="45.18795" lon="5.86582">
        <ele>590.39</ele>
        <time>2019-11-13T14:54:40.000Z</time>
      </trkpt>
      <trkpt lat="45.18799" lon="5.86609">
        <ele>591.3</ele>
        <time>2019-11-13T14:54:45.000Z</time>
      </trkpt>
      <trkpt lat="45.18794" lon="5.86638">
        <ele>590.52</ele>
        <time>2019-11-13T14:54:50.000Z</time>
      </trkpt>
      <trkpt lat="45.1878" lon="5.86663">
        <ele>593.05</ele>
        <time>2019-11-13T14:54:55.000Z</time>
      </trkpt>
      <trkpt lat="45.18763" lon="5.86685">
        <ele>595.07</ele>
        <time>2019-11-13T14:55:00.000Z</time>
      </trkpt>
      <trkpt lat="45.18746" lon="5.86706">
        <ele>598.09</ele>
        <time>2019-11-13T14:55:05.000Z</time>
      </trkpt>
      <trkpt lat="45.18728" lon="5.86727">
        <ele>600.47</ele>
        <time>2019-11-13T14:55:10.000Z</time>
      </trkpt>
      <trkpt lat="45.18715" lon="5.86752">
        <ele>604.32</ele>
        <time>2019-11-13T14:55:15.000Z</time>
      </trkpt>
      <trkpt lat="45.18702" lon="5.86775">
        <ele>602.88</ele>
        <time>2019-11-13T14:55:20.000Z</time>
      </trkpt>
      <trkpt lat="45.18691" lon="5.86799">
        <ele>608.01</ele>
        <time>2019-11-13T14:55:25.000Z</time>
      </trkpt>
      <trkpt lat="45.18678" lon="5.86828">
        <ele>610.83</ele>
        <time>2019-11-13T14:55:30.000Z</time>
      </trkpt>
      <trkpt lat="45.18666" lon="5.86858">
        <ele>612.23</ele>
        <time>2019-11-13T14:55:35.000Z</time>
      </trkpt>
      <trkpt lat="45.18663" lon="5.86887">
        <ele>610.93</ele>
        <time>2019-11-13T14:55:40.000Z</time>
      </trkpt>
      <trkpt lat="45.18654" lon="5.86912">
        <ele>613.22</ele>
        <time>2019-11-13T14:55:45.000Z</time>
      </trkpt>
      <trkpt lat="45.18635" lon="5.86914">
        <ele>614.12</ele>
        <time>2019-11-13T14:55:50.000Z</time>
      </trkpt>
      <trkpt lat="45.18622" lon="5.86897">
        <ele>617.94</ele>
        <time>2019-11-13T14:55:55.000Z</time>
      </trkpt>
      <trkpt lat="45.1861" lon="5.86874">
        <ele>617.95</ele>
        <time>2019-11-13T14:56:00.000Z</time>
      </trkpt>
      <trkpt lat="45.18589" lon="5.86862">
        <ele>620.79</ele>
        <time>2019-11-13T14:56:05.000Z</time>
      </trkpt>
      <trkpt lat="45.18575" lon="5.86859">
        <ele>622.82</ele>
        <time>2019-11-13T14:56:10.000Z</time>
      </trkpt>
      <trkpt lat="45.18559" lon="5.86842">
        <ele>625.84</ele>
        <time>2019-11-13T14:56:15.000Z</time>
      </trkpt>
      <trkpt lat="45.18551" lon="5.86829">
        <ele>625.28</ele>
        <time>2019-11-13T14:56:20.000Z</time>
      </trkpt>
      <trkpt lat="45.18558" lon="5.86839">
        <ele>628.09</ele>
        <time>2019-11-13T14:56:34.000Z</time>
      </trkpt>
      <trkpt lat="45.18567" lon="5.86848">
        <ele>626.37</ele>
        <time>2019-11-13T14:57:55.000Z</time>
      </trkpt>
      <trkpt lat="45.18575" lon="5.86874">
        <ele>626.77</ele>
        <time>2019-11-13T14:58:00.000Z</time>
      </trkpt>
      <trkpt lat="45.18584" lon="5.86903">
        <ele>626.39</ele>
        <time>2019-11-13T14:58:05.000Z</time>
      </trkpt>
      <trkpt lat="45.18591" lon="5.86927">
        <ele>625.7</ele>
        <time>2019-11-13T14:58:10.000Z</time>
      </trkpt>
      <trkpt lat="45.18596" lon="5.86959">
        <ele>627.4</ele>
        <time>2019-11-13T14:58:15.000Z</time>
      </trkpt>
      <trkpt lat="45.18595" lon="5.86991">
        <ele>635.99</ele>
        <time>2019-11-13T14:58:20.000Z</time>
      </trkpt>
      <trkpt lat="45.18584" lon="5.87018">
        <ele>637.04</ele>
        <time>2019-11-13T14:58:25.000Z</time>
      </trkpt>
      <trkpt lat="45.18578" lon="5.87044">
        <ele>636.02</ele>
        <time>2019-11-13T14:58:30.000Z</time>
      </trkpt>
      <trkpt lat="45.18563" lon="5.87056">
        <ele>637.7</ele>
        <time>2019-11-13T14:58:35.000Z</time>
      </trkpt>
      <trkpt lat="45.1854" lon="5.87058">
        <ele>638.23</ele>
        <time>2019-11-13T14:58:40.000Z</time>
      </trkpt>
      <trkpt lat="45.18521" lon="5.87056">
        <ele>642.23</ele>
        <time>2019-11-13T14:58:45.000Z</time>
      </trkpt>
      <trkpt lat="45.18507" lon="5.87069">
        <ele>638.57</ele>
        <time>2019-11-13T14:58:50.000Z</time>
      </trkpt>
      <trkpt lat="45.1849" lon="5.87089">
        <ele>641.88</ele>
        <time>2019-11-13T14:58:55.000Z</time>
      </trkpt>
      <trkpt lat="45.18472" lon="5.87102">
        <ele>638</ele>
        <time>2019-11-13T14:59:00.000Z</time>
      </trkpt>
      <trkpt lat="45.18453" lon="5.8711">
        <ele>641.49</ele>
        <time>2019-11-13T14:59:05.000Z</time>
      </trkpt>
      <trkpt lat="45.18433" lon="5.87118">
        <ele>641.86</ele>
        <time>2019-11-13T14:59:10.000Z</time>
      </trkpt>
      <trkpt lat="45.18414" lon="5.87129">
        <ele>647.29</ele>
        <time>2019-11-13T14:59:15.000Z</time>
      </trkpt>
      <trkpt lat="45.18395" lon="5.87134">
        <ele>651.18</ele>
        <time>2019-11-13T14:59:20.000Z</time>
      </trkpt>
      <trkpt lat="45.18376" lon="5.8712">
        <ele>647.92</ele>
        <time>2019-11-13T14:59:25.000Z</time>
      </trkpt>
      <trkpt lat="45.18365" lon="5.87135">
        <ele>652.02</ele>
        <time>2019-11-13T14:59:30.000Z</time>
      </trkpt>
      <trkpt lat="45.18368" lon="5.87164">
        <ele>659.51</ele>
        <time>2019-11-13T14:59:35.000Z</time>
      </trkpt>
      <trkpt lat="45.18377" lon="5.87186">
        <ele>660.29</ele>
        <time>2019-11-13T14:59:40.000Z</time>
      </trkpt>
      <trkpt lat="45.18396" lon="5.87201">
        <ele>664.78</ele>
        <time>2019-11-13T14:59:45.000Z</time>
      </trkpt>
      <trkpt lat="45.18408" lon="5.87216">
        <ele>665.54</ele>
        <time>2019-11-13T14:59:50.000Z</time>
      </trkpt>
      <trkpt lat="45.18409" lon="5.87235">
        <ele>667.71</ele>
        <time>2019-11-13T14:59:55.000Z</time>
      </trkpt>
      <trkpt lat="45.18397" lon="5.87253">
        <ele>668.58</ele>
        <time>2019-11-13T15:00:00.000Z</time>
      </trkpt>
      <trkpt lat="45.18389" lon="5.87274">
        <ele>669.85</ele>
        <time>2019-11-13T15:00:05.000Z</time>
      </trkpt>
      <trkpt lat="45.18388" lon="5.87298">
        <ele>671.4</ele>
        <time>2019-11-13T15:00:10.000Z</time>
      </trkpt>
      <trkpt lat="45.18393" lon="5.8732">
        <ele>671.78</ele>
        <time>2019-11-13T15:00:15.000Z</time>
      </trkpt>
      <trkpt lat="45.18397" lon="5.87343">
        <ele>673.84</ele>
        <time>2019-11-13T15:00:20.000Z</time>
      </trkpt>
      <trkpt lat="45.18396" lon="5.87367">
        <ele>678.02</ele>
        <time>2019-11-13T15:00:25.000Z</time>
      </trkpt>
      <trkpt lat="45.18392" lon="5.87388">
        <ele>681.39</ele>
        <time>2019-11-13T15:00:30.000Z</time>
      </trkpt>
      <trkpt lat="45.18382" lon="5.87385">
        <ele>683.41</ele>
        <time>2019-11-13T15:00:36.000Z</time>
      </trkpt>
      <trkpt lat="45.18382" lon="5.87384">
        <ele>683.07</ele>
        <time>2019-11-13T15:01:24.000Z</time>
      </trkpt>
    </trkseg>
  </trk>
</gpx>